<?xml version="1.0" encoding="UTF-8" standalone="no" ?>
<gpx xmlns="http://www.topografix.com/GPX/1/1" xmlns:xsi="http://www.w3.org/2001/XMLSchema-instance" xsi:schemaLocation="http://www.topografix.com/GPX/1/1 http://www.topografix.com/GPX/1/1/gpx.xsd" version="1.1" creator="VisuGPX - https://www.visugpx.com">
  <metadata>
    <name>depart Camous (65) - Cap des Pènes - Mountarrouy - Cap du Plat de l'estaque-2020-08-02-155825</name>
    <desc><![CDATA[[b][i][url][img][/img][/url][/i][/b]]]></desc>
  </metadata>
  <trk>
    <name><![CDATA[MA-Rando-2020-08-02-155825]]></name>
    <trkseg>
      <trkpt lat="42.94516" lon="0.37447">
        <ele>656</ele>
        <time>2020-08-02T07:12:02Z</time>
      </trkpt>
      <trkpt lat="42.94528" lon="0.37442">
        <ele>660</ele>
        <time>2020-08-02T07:12:37Z</time>
      </trkpt>
      <trkpt lat="42.94541" lon="0.37444">
        <ele>659</ele>
        <time>2020-08-02T07:12:53Z</time>
      </trkpt>
      <trkpt lat="42.94543" lon="0.37457">
        <ele>659</ele>
        <time>2020-08-02T07:13:03Z</time>
      </trkpt>
      <trkpt lat="42.94546" lon="0.37469">
        <ele>659</ele>
        <time>2020-08-02T07:13:17Z</time>
      </trkpt>
      <trkpt lat="42.94549" lon="0.37481">
        <ele>660</ele>
        <time>2020-08-02T07:13:26Z</time>
      </trkpt>
      <trkpt lat="42.94549" lon="0.37497">
        <ele>665</ele>
        <time>2020-08-02T07:13:35Z</time>
      </trkpt>
      <trkpt lat="42.94543" lon="0.37508">
        <ele>666</ele>
        <time>2020-08-02T07:13:41Z</time>
      </trkpt>
      <trkpt lat="42.94535" lon="0.37517">
        <ele>670</ele>
        <time>2020-08-02T07:13:48Z</time>
      </trkpt>
      <trkpt lat="42.94526" lon="0.37522">
        <ele>668</ele>
        <time>2020-08-02T07:13:54Z</time>
      </trkpt>
      <trkpt lat="42.94518" lon="0.37529">
        <ele>668</ele>
        <time>2020-08-02T07:14:05Z</time>
      </trkpt>
      <trkpt lat="42.94522" lon="0.37541">
        <ele>671</ele>
        <time>2020-08-02T07:14:17Z</time>
      </trkpt>
      <trkpt lat="42.94529" lon="0.37549">
        <ele>671</ele>
        <time>2020-08-02T07:14:25Z</time>
      </trkpt>
      <trkpt lat="42.94534" lon="0.37561">
        <ele>672</ele>
        <time>2020-08-02T07:14:34Z</time>
      </trkpt>
      <trkpt lat="42.94538" lon="0.37573">
        <ele>672</ele>
        <time>2020-08-02T07:14:45Z</time>
      </trkpt>
      <trkpt lat="42.94545" lon="0.37581">
        <ele>674</ele>
        <time>2020-08-02T07:14:56Z</time>
      </trkpt>
      <trkpt lat="42.94549" lon="0.37592">
        <ele>680</ele>
        <time>2020-08-02T07:15:07Z</time>
      </trkpt>
      <trkpt lat="42.94551" lon="0.37606">
        <ele>681</ele>
        <time>2020-08-02T07:15:17Z</time>
      </trkpt>
      <trkpt lat="42.94551" lon="0.37619">
        <ele>687</ele>
        <time>2020-08-02T07:15:26Z</time>
      </trkpt>
      <trkpt lat="42.9455" lon="0.37632">
        <ele>683</ele>
        <time>2020-08-02T07:15:36Z</time>
      </trkpt>
      <trkpt lat="42.9455" lon="0.37645">
        <ele>682</ele>
        <time>2020-08-02T07:15:52Z</time>
      </trkpt>
      <trkpt lat="42.94559" lon="0.37646">
        <ele>684</ele>
        <time>2020-08-02T07:16:05Z</time>
      </trkpt>
      <trkpt lat="42.94568" lon="0.37641">
        <ele>684</ele>
        <time>2020-08-02T07:16:16Z</time>
      </trkpt>
      <trkpt lat="42.94578" lon="0.37637">
        <ele>685</ele>
        <time>2020-08-02T07:16:25Z</time>
      </trkpt>
      <trkpt lat="42.94587" lon="0.37632">
        <ele>686</ele>
        <time>2020-08-02T07:16:35Z</time>
      </trkpt>
      <trkpt lat="42.94596" lon="0.37631">
        <ele>689</ele>
        <time>2020-08-02T07:16:49Z</time>
      </trkpt>
      <trkpt lat="42.94604" lon="0.37639">
        <ele>693</ele>
        <time>2020-08-02T07:17:01Z</time>
      </trkpt>
      <trkpt lat="42.94608" lon="0.3765">
        <ele>686</ele>
        <time>2020-08-02T07:17:14Z</time>
      </trkpt>
      <trkpt lat="42.9461" lon="0.37663">
        <ele>692</ele>
        <time>2020-08-02T07:17:24Z</time>
      </trkpt>
      <trkpt lat="42.94618" lon="0.37669">
        <ele>700</ele>
        <time>2020-08-02T07:17:40Z</time>
      </trkpt>
      <trkpt lat="42.94626" lon="0.37665">
        <ele>706</ele>
        <time>2020-08-02T07:17:57Z</time>
      </trkpt>
      <trkpt lat="42.94634" lon="0.37672">
        <ele>706</ele>
        <time>2020-08-02T07:18:14Z</time>
      </trkpt>
      <trkpt lat="42.94624" lon="0.37677">
        <ele>705</ele>
        <time>2020-08-02T07:18:42Z</time>
      </trkpt>
      <trkpt lat="42.9461" lon="0.37683">
        <ele>709</ele>
        <time>2020-08-02T07:18:45Z</time>
      </trkpt>
      <trkpt lat="42.94599" lon="0.37688">
        <ele>711</ele>
        <time>2020-08-02T07:18:48Z</time>
      </trkpt>
      <trkpt lat="42.94595" lon="0.37699">
        <ele>708</ele>
        <time>2020-08-02T07:18:58Z</time>
      </trkpt>
      <trkpt lat="42.94595" lon="0.37712">
        <ele>708</ele>
        <time>2020-08-02T07:19:08Z</time>
      </trkpt>
      <trkpt lat="42.94586" lon="0.37724">
        <ele>709</ele>
        <time>2020-08-02T07:20:04Z</time>
      </trkpt>
      <trkpt lat="42.94582" lon="0.37737">
        <ele>709</ele>
        <time>2020-08-02T07:20:15Z</time>
      </trkpt>
      <trkpt lat="42.94579" lon="0.37748">
        <ele>708</ele>
        <time>2020-08-02T07:20:27Z</time>
      </trkpt>
      <trkpt lat="42.94573" lon="0.37765">
        <ele>711</ele>
        <time>2020-08-02T07:21:02Z</time>
      </trkpt>
      <trkpt lat="42.9457" lon="0.37778">
        <ele>718</ele>
        <time>2020-08-02T07:21:14Z</time>
      </trkpt>
      <trkpt lat="42.94567" lon="0.3779">
        <ele>723</ele>
        <time>2020-08-02T07:21:22Z</time>
      </trkpt>
      <trkpt lat="42.94564" lon="0.37802">
        <ele>723</ele>
        <time>2020-08-02T07:21:28Z</time>
      </trkpt>
      <trkpt lat="42.94562" lon="0.37816">
        <ele>726</ele>
        <time>2020-08-02T07:21:36Z</time>
      </trkpt>
      <trkpt lat="42.9456" lon="0.37829">
        <ele>725</ele>
        <time>2020-08-02T07:21:44Z</time>
      </trkpt>
      <trkpt lat="42.94557" lon="0.37843">
        <ele>723</ele>
        <time>2020-08-02T07:21:54Z</time>
      </trkpt>
      <trkpt lat="42.94553" lon="0.37856">
        <ele>722</ele>
        <time>2020-08-02T07:22:04Z</time>
      </trkpt>
      <trkpt lat="42.94552" lon="0.37868">
        <ele>722</ele>
        <time>2020-08-02T07:22:13Z</time>
      </trkpt>
      <trkpt lat="42.94547" lon="0.3788">
        <ele>727</ele>
        <time>2020-08-02T07:22:24Z</time>
      </trkpt>
      <trkpt lat="42.94546" lon="0.37893">
        <ele>727</ele>
        <time>2020-08-02T07:22:34Z</time>
      </trkpt>
      <trkpt lat="42.94543" lon="0.37906">
        <ele>730</ele>
        <time>2020-08-02T07:22:46Z</time>
      </trkpt>
      <trkpt lat="42.94538" lon="0.37916">
        <ele>735</ele>
        <time>2020-08-02T07:23:02Z</time>
      </trkpt>
      <trkpt lat="42.94534" lon="0.37927">
        <ele>737</ele>
        <time>2020-08-02T07:23:17Z</time>
      </trkpt>
      <trkpt lat="42.94531" lon="0.37939">
        <ele>737</ele>
        <time>2020-08-02T07:23:32Z</time>
      </trkpt>
      <trkpt lat="42.94528" lon="0.37951">
        <ele>733</ele>
        <time>2020-08-02T07:23:47Z</time>
      </trkpt>
      <trkpt lat="42.94532" lon="0.37962">
        <ele>737</ele>
        <time>2020-08-02T07:24:06Z</time>
      </trkpt>
      <trkpt lat="42.94531" lon="0.37974">
        <ele>739</ele>
        <time>2020-08-02T07:24:16Z</time>
      </trkpt>
      <trkpt lat="42.94527" lon="0.37986">
        <ele>741</ele>
        <time>2020-08-02T07:24:26Z</time>
      </trkpt>
      <trkpt lat="42.94524" lon="0.37998">
        <ele>740</ele>
        <time>2020-08-02T07:24:35Z</time>
      </trkpt>
      <trkpt lat="42.94518" lon="0.38008">
        <ele>748</ele>
        <time>2020-08-02T07:24:45Z</time>
      </trkpt>
      <trkpt lat="42.94513" lon="0.38018">
        <ele>747</ele>
        <time>2020-08-02T07:24:53Z</time>
      </trkpt>
      <trkpt lat="42.94507" lon="0.38029">
        <ele>753</ele>
        <time>2020-08-02T07:25:04Z</time>
      </trkpt>
      <trkpt lat="42.94506" lon="0.38041">
        <ele>755</ele>
        <time>2020-08-02T07:25:18Z</time>
      </trkpt>
      <trkpt lat="42.94503" lon="0.38054">
        <ele>762</ele>
        <time>2020-08-02T07:25:36Z</time>
      </trkpt>
      <trkpt lat="42.94498" lon="0.38064">
        <ele>764</ele>
        <time>2020-08-02T07:25:50Z</time>
      </trkpt>
      <trkpt lat="42.94496" lon="0.38077">
        <ele>770</ele>
        <time>2020-08-02T07:26:04Z</time>
      </trkpt>
      <trkpt lat="42.94488" lon="0.38082">
        <ele>775</ele>
        <time>2020-08-02T07:26:14Z</time>
      </trkpt>
      <trkpt lat="42.94478" lon="0.38087">
        <ele>773</ele>
        <time>2020-08-02T07:26:24Z</time>
      </trkpt>
      <trkpt lat="42.94472" lon="0.38097">
        <ele>772</ele>
        <time>2020-08-02T07:26:35Z</time>
      </trkpt>
      <trkpt lat="42.94469" lon="0.3811">
        <ele>772</ele>
        <time>2020-08-02T07:26:46Z</time>
      </trkpt>
      <trkpt lat="42.94469" lon="0.38123">
        <ele>774</ele>
        <time>2020-08-02T07:26:56Z</time>
      </trkpt>
      <trkpt lat="42.94468" lon="0.38136">
        <ele>772</ele>
        <time>2020-08-02T07:27:08Z</time>
      </trkpt>
      <trkpt lat="42.94462" lon="0.38146">
        <ele>781</ele>
        <time>2020-08-02T07:27:21Z</time>
      </trkpt>
      <trkpt lat="42.94454" lon="0.38154">
        <ele>786</ele>
        <time>2020-08-02T07:27:31Z</time>
      </trkpt>
      <trkpt lat="42.94449" lon="0.38165">
        <ele>783</ele>
        <time>2020-08-02T07:27:42Z</time>
      </trkpt>
      <trkpt lat="42.94442" lon="0.38173">
        <ele>790</ele>
        <time>2020-08-02T07:27:53Z</time>
      </trkpt>
      <trkpt lat="42.94436" lon="0.38187">
        <ele>787</ele>
        <time>2020-08-02T07:28:15Z</time>
      </trkpt>
      <trkpt lat="42.94435" lon="0.382">
        <ele>783</ele>
        <time>2020-08-02T07:28:26Z</time>
      </trkpt>
      <trkpt lat="42.94431" lon="0.38212">
        <ele>782</ele>
        <time>2020-08-02T07:28:36Z</time>
      </trkpt>
      <trkpt lat="42.9443" lon="0.38225">
        <ele>787</ele>
        <time>2020-08-02T07:28:47Z</time>
      </trkpt>
      <trkpt lat="42.94428" lon="0.38238">
        <ele>790</ele>
        <time>2020-08-02T07:28:58Z</time>
      </trkpt>
      <trkpt lat="42.94425" lon="0.3825">
        <ele>790</ele>
        <time>2020-08-02T07:29:09Z</time>
      </trkpt>
      <trkpt lat="42.94424" lon="0.38264">
        <ele>794</ele>
        <time>2020-08-02T07:29:20Z</time>
      </trkpt>
      <trkpt lat="42.94423" lon="0.38276">
        <ele>794</ele>
        <time>2020-08-02T07:29:37Z</time>
      </trkpt>
      <trkpt lat="42.94419" lon="0.38289">
        <ele>791</ele>
        <time>2020-08-02T07:29:52Z</time>
      </trkpt>
      <trkpt lat="42.94416" lon="0.38301">
        <ele>791</ele>
        <time>2020-08-02T07:30:03Z</time>
      </trkpt>
      <trkpt lat="42.94416" lon="0.38314">
        <ele>797</ele>
        <time>2020-08-02T07:30:14Z</time>
      </trkpt>
      <trkpt lat="42.94414" lon="0.38326">
        <ele>795</ele>
        <time>2020-08-02T07:30:27Z</time>
      </trkpt>
      <trkpt lat="42.94409" lon="0.38337">
        <ele>800</ele>
        <time>2020-08-02T07:30:40Z</time>
      </trkpt>
      <trkpt lat="42.94405" lon="0.38349">
        <ele>799</ele>
        <time>2020-08-02T07:30:51Z</time>
      </trkpt>
      <trkpt lat="42.94402" lon="0.38361">
        <ele>805</ele>
        <time>2020-08-02T07:31:05Z</time>
      </trkpt>
      <trkpt lat="42.94398" lon="0.38372">
        <ele>810</ele>
        <time>2020-08-02T07:31:23Z</time>
      </trkpt>
      <trkpt lat="42.94396" lon="0.38385">
        <ele>816</ele>
        <time>2020-08-02T07:31:40Z</time>
      </trkpt>
      <trkpt lat="42.94392" lon="0.38396">
        <ele>818</ele>
        <time>2020-08-02T07:31:53Z</time>
      </trkpt>
      <trkpt lat="42.94388" lon="0.38408">
        <ele>821</ele>
        <time>2020-08-02T07:32:08Z</time>
      </trkpt>
      <trkpt lat="42.94384" lon="0.3842">
        <ele>823</ele>
        <time>2020-08-02T07:32:21Z</time>
      </trkpt>
      <trkpt lat="42.94382" lon="0.38433">
        <ele>824</ele>
        <time>2020-08-02T07:32:33Z</time>
      </trkpt>
      <trkpt lat="42.94378" lon="0.38444">
        <ele>827</ele>
        <time>2020-08-02T07:32:45Z</time>
      </trkpt>
      <trkpt lat="42.94373" lon="0.38455">
        <ele>830</ele>
        <time>2020-08-02T07:32:57Z</time>
      </trkpt>
      <trkpt lat="42.94366" lon="0.38463">
        <ele>833</ele>
        <time>2020-08-02T07:33:10Z</time>
      </trkpt>
      <trkpt lat="42.94362" lon="0.38474">
        <ele>842</ele>
        <time>2020-08-02T07:33:21Z</time>
      </trkpt>
      <trkpt lat="42.94361" lon="0.38487">
        <ele>844</ele>
        <time>2020-08-02T07:33:36Z</time>
      </trkpt>
      <trkpt lat="42.94357" lon="0.38498">
        <ele>843</ele>
        <time>2020-08-02T07:33:55Z</time>
      </trkpt>
      <trkpt lat="42.94352" lon="0.38509">
        <ele>843</ele>
        <time>2020-08-02T07:34:04Z</time>
      </trkpt>
      <trkpt lat="42.94349" lon="0.38522">
        <ele>845</ele>
        <time>2020-08-02T07:34:14Z</time>
      </trkpt>
      <trkpt lat="42.94344" lon="0.38534">
        <ele>845</ele>
        <time>2020-08-02T07:34:25Z</time>
      </trkpt>
      <trkpt lat="42.94342" lon="0.38548">
        <ele>849</ele>
        <time>2020-08-02T07:34:37Z</time>
      </trkpt>
      <trkpt lat="42.94339" lon="0.3856">
        <ele>850</ele>
        <time>2020-08-02T07:34:51Z</time>
      </trkpt>
      <trkpt lat="42.94336" lon="0.38573">
        <ele>849</ele>
        <time>2020-08-02T07:35:05Z</time>
      </trkpt>
      <trkpt lat="42.94332" lon="0.38585">
        <ele>852</ele>
        <time>2020-08-02T07:35:18Z</time>
      </trkpt>
      <trkpt lat="42.94323" lon="0.38591">
        <ele>853</ele>
        <time>2020-08-02T07:38:38Z</time>
      </trkpt>
      <trkpt lat="42.94321" lon="0.38604">
        <ele>855</ele>
        <time>2020-08-02T07:38:44Z</time>
      </trkpt>
      <trkpt lat="42.94314" lon="0.38615">
        <ele>854</ele>
        <time>2020-08-02T07:38:49Z</time>
      </trkpt>
      <trkpt lat="42.94308" lon="0.38625">
        <ele>850</ele>
        <time>2020-08-02T07:38:54Z</time>
      </trkpt>
      <trkpt lat="42.94301" lon="0.38635">
        <ele>847</ele>
        <time>2020-08-02T07:39:01Z</time>
      </trkpt>
      <trkpt lat="42.94296" lon="0.38646">
        <ele>851</ele>
        <time>2020-08-02T07:39:08Z</time>
      </trkpt>
      <trkpt lat="42.94289" lon="0.38657">
        <ele>855</ele>
        <time>2020-08-02T07:39:17Z</time>
      </trkpt>
      <trkpt lat="42.94281" lon="0.38662">
        <ele>859</ele>
        <time>2020-08-02T07:39:28Z</time>
      </trkpt>
      <trkpt lat="42.94272" lon="0.38668">
        <ele>858</ele>
        <time>2020-08-02T07:39:39Z</time>
      </trkpt>
      <trkpt lat="42.94267" lon="0.38678">
        <ele>857</ele>
        <time>2020-08-02T07:39:51Z</time>
      </trkpt>
      <trkpt lat="42.94258" lon="0.38683">
        <ele>859</ele>
        <time>2020-08-02T07:40:04Z</time>
      </trkpt>
      <trkpt lat="42.94248" lon="0.38684">
        <ele>859</ele>
        <time>2020-08-02T07:40:16Z</time>
      </trkpt>
      <trkpt lat="42.94241" lon="0.3869">
        <ele>859</ele>
        <time>2020-08-02T07:40:30Z</time>
      </trkpt>
      <trkpt lat="42.94232" lon="0.38695">
        <ele>859</ele>
        <time>2020-08-02T07:40:43Z</time>
      </trkpt>
      <trkpt lat="42.94223" lon="0.38701">
        <ele>859</ele>
        <time>2020-08-02T07:40:55Z</time>
      </trkpt>
      <trkpt lat="42.94215" lon="0.38708">
        <ele>862</ele>
        <time>2020-08-02T07:41:10Z</time>
      </trkpt>
      <trkpt lat="42.94207" lon="0.38716">
        <ele>860</ele>
        <time>2020-08-02T07:41:24Z</time>
      </trkpt>
      <trkpt lat="42.94198" lon="0.38719">
        <ele>865</ele>
        <time>2020-08-02T07:41:37Z</time>
      </trkpt>
      <trkpt lat="42.94188" lon="0.38722">
        <ele>870</ele>
        <time>2020-08-02T07:41:48Z</time>
      </trkpt>
      <trkpt lat="42.94179" lon="0.38726">
        <ele>871</ele>
        <time>2020-08-02T07:42:00Z</time>
      </trkpt>
      <trkpt lat="42.94169" lon="0.38725">
        <ele>877</ele>
        <time>2020-08-02T07:42:14Z</time>
      </trkpt>
      <trkpt lat="42.94159" lon="0.38727">
        <ele>874</ele>
        <time>2020-08-02T07:42:24Z</time>
      </trkpt>
      <trkpt lat="42.94153" lon="0.38736">
        <ele>878</ele>
        <time>2020-08-02T07:42:35Z</time>
      </trkpt>
      <trkpt lat="42.94145" lon="0.38744">
        <ele>879</ele>
        <time>2020-08-02T07:42:53Z</time>
      </trkpt>
      <trkpt lat="42.94138" lon="0.38753">
        <ele>885</ele>
        <time>2020-08-02T07:43:13Z</time>
      </trkpt>
      <trkpt lat="42.94138" lon="0.38765">
        <ele>892</ele>
        <time>2020-08-02T07:43:29Z</time>
      </trkpt>
      <trkpt lat="42.94131" lon="0.38774">
        <ele>896</ele>
        <time>2020-08-02T07:43:41Z</time>
      </trkpt>
      <trkpt lat="42.94124" lon="0.38782">
        <ele>901</ele>
        <time>2020-08-02T07:43:51Z</time>
      </trkpt>
      <trkpt lat="42.94115" lon="0.38787">
        <ele>905</ele>
        <time>2020-08-02T07:44:01Z</time>
      </trkpt>
      <trkpt lat="42.94108" lon="0.38795">
        <ele>906</ele>
        <time>2020-08-02T07:44:13Z</time>
      </trkpt>
      <trkpt lat="42.94103" lon="0.38805">
        <ele>904</ele>
        <time>2020-08-02T07:44:25Z</time>
      </trkpt>
      <trkpt lat="42.94103" lon="0.38818">
        <ele>901</ele>
        <time>2020-08-02T07:44:35Z</time>
      </trkpt>
      <trkpt lat="42.94111" lon="0.38827">
        <ele>903</ele>
        <time>2020-08-02T07:45:01Z</time>
      </trkpt>
      <trkpt lat="42.94121" lon="0.38827">
        <ele>912</ele>
        <time>2020-08-02T07:46:22Z</time>
      </trkpt>
      <trkpt lat="42.9413" lon="0.38833">
        <ele>908</ele>
        <time>2020-08-02T07:46:28Z</time>
      </trkpt>
      <trkpt lat="42.94137" lon="0.38843">
        <ele>910</ele>
        <time>2020-08-02T07:46:35Z</time>
      </trkpt>
      <trkpt lat="42.94141" lon="0.38855">
        <ele>910</ele>
        <time>2020-08-02T07:46:45Z</time>
      </trkpt>
      <trkpt lat="42.94146" lon="0.38867">
        <ele>913</ele>
        <time>2020-08-02T07:46:59Z</time>
      </trkpt>
      <trkpt lat="42.94139" lon="0.38875">
        <ele>912</ele>
        <time>2020-08-02T07:47:16Z</time>
      </trkpt>
      <trkpt lat="42.94138" lon="0.38888">
        <ele>920</ele>
        <time>2020-08-02T07:47:33Z</time>
      </trkpt>
      <trkpt lat="42.9414" lon="0.38901">
        <ele>929</ele>
        <time>2020-08-02T07:47:43Z</time>
      </trkpt>
      <trkpt lat="42.94141" lon="0.38913">
        <ele>936</ele>
        <time>2020-08-02T07:47:55Z</time>
      </trkpt>
      <trkpt lat="42.94139" lon="0.38925">
        <ele>942</ele>
        <time>2020-08-02T07:48:09Z</time>
      </trkpt>
      <trkpt lat="42.94138" lon="0.38938">
        <ele>946</ele>
        <time>2020-08-02T07:48:30Z</time>
      </trkpt>
      <trkpt lat="42.94137" lon="0.3895">
        <ele>946</ele>
        <time>2020-08-02T07:48:43Z</time>
      </trkpt>
      <trkpt lat="42.94138" lon="0.38964">
        <ele>946</ele>
        <time>2020-08-02T07:48:54Z</time>
      </trkpt>
      <trkpt lat="42.94143" lon="0.38979">
        <ele>954</ele>
        <time>2020-08-02T07:51:07Z</time>
      </trkpt>
      <trkpt lat="42.94145" lon="0.38993">
        <ele>956</ele>
        <time>2020-08-02T07:51:14Z</time>
      </trkpt>
      <trkpt lat="42.94147" lon="0.39006">
        <ele>957</ele>
        <time>2020-08-02T07:51:21Z</time>
      </trkpt>
      <trkpt lat="42.94147" lon="0.3902">
        <ele>955</ele>
        <time>2020-08-02T07:51:29Z</time>
      </trkpt>
      <trkpt lat="42.94146" lon="0.39033">
        <ele>955</ele>
        <time>2020-08-02T07:51:38Z</time>
      </trkpt>
      <trkpt lat="42.94145" lon="0.39046">
        <ele>955</ele>
        <time>2020-08-02T07:51:46Z</time>
      </trkpt>
      <trkpt lat="42.94137" lon="0.39054">
        <ele>956</ele>
        <time>2020-08-02T07:51:55Z</time>
      </trkpt>
      <trkpt lat="42.94129" lon="0.39061">
        <ele>957</ele>
        <time>2020-08-02T07:52:04Z</time>
      </trkpt>
      <trkpt lat="42.94123" lon="0.39071">
        <ele>956</ele>
        <time>2020-08-02T07:52:13Z</time>
      </trkpt>
      <trkpt lat="42.94121" lon="0.39084">
        <ele>960</ele>
        <time>2020-08-02T07:52:23Z</time>
      </trkpt>
      <trkpt lat="42.94122" lon="0.39097">
        <ele>959</ele>
        <time>2020-08-02T07:52:32Z</time>
      </trkpt>
      <trkpt lat="42.94124" lon="0.39109">
        <ele>962</ele>
        <time>2020-08-02T07:52:41Z</time>
      </trkpt>
      <trkpt lat="42.94119" lon="0.3912">
        <ele>962</ele>
        <time>2020-08-02T07:52:52Z</time>
      </trkpt>
      <trkpt lat="42.94112" lon="0.39129">
        <ele>967</ele>
        <time>2020-08-02T07:53:01Z</time>
      </trkpt>
      <trkpt lat="42.94104" lon="0.39136">
        <ele>968</ele>
        <time>2020-08-02T07:53:11Z</time>
      </trkpt>
      <trkpt lat="42.94102" lon="0.39149">
        <ele>969</ele>
        <time>2020-08-02T07:53:22Z</time>
      </trkpt>
      <trkpt lat="42.94101" lon="0.39162">
        <ele>968</ele>
        <time>2020-08-02T07:53:33Z</time>
      </trkpt>
      <trkpt lat="42.94098" lon="0.39174">
        <ele>970</ele>
        <time>2020-08-02T07:53:42Z</time>
      </trkpt>
      <trkpt lat="42.94093" lon="0.39185">
        <ele>973</ele>
        <time>2020-08-02T07:53:54Z</time>
      </trkpt>
      <trkpt lat="42.94088" lon="0.39197">
        <ele>975</ele>
        <time>2020-08-02T07:54:04Z</time>
      </trkpt>
      <trkpt lat="42.94084" lon="0.39208">
        <ele>977</ele>
        <time>2020-08-02T07:54:13Z</time>
      </trkpt>
      <trkpt lat="42.94079" lon="0.3922">
        <ele>978</ele>
        <time>2020-08-02T07:54:22Z</time>
      </trkpt>
      <trkpt lat="42.94072" lon="0.3923">
        <ele>981</ele>
        <time>2020-08-02T07:54:32Z</time>
      </trkpt>
      <trkpt lat="42.94065" lon="0.39241">
        <ele>976</ele>
        <time>2020-08-02T07:54:41Z</time>
      </trkpt>
      <trkpt lat="42.94059" lon="0.3925">
        <ele>986</ele>
        <time>2020-08-02T07:54:54Z</time>
      </trkpt>
      <trkpt lat="42.9405" lon="0.39257">
        <ele>984</ele>
        <time>2020-08-02T07:55:05Z</time>
      </trkpt>
      <trkpt lat="42.94044" lon="0.39265">
        <ele>985</ele>
        <time>2020-08-02T07:55:18Z</time>
      </trkpt>
      <trkpt lat="42.94037" lon="0.39275">
        <ele>983</ele>
        <time>2020-08-02T07:55:30Z</time>
      </trkpt>
      <trkpt lat="42.94028" lon="0.39277">
        <ele>990</ele>
        <time>2020-08-02T07:56:05Z</time>
      </trkpt>
      <trkpt lat="42.94019" lon="0.39282">
        <ele>987</ele>
        <time>2020-08-02T07:56:19Z</time>
      </trkpt>
      <trkpt lat="42.9402" lon="0.39296">
        <ele>976</ele>
        <time>2020-08-02T07:56:28Z</time>
      </trkpt>
      <trkpt lat="42.94019" lon="0.3931">
        <ele>977</ele>
        <time>2020-08-02T07:56:33Z</time>
      </trkpt>
      <trkpt lat="42.94017" lon="0.39323">
        <ele>981</ele>
        <time>2020-08-02T07:56:42Z</time>
      </trkpt>
      <trkpt lat="42.94012" lon="0.39334">
        <ele>979</ele>
        <time>2020-08-02T07:56:52Z</time>
      </trkpt>
      <trkpt lat="42.94006" lon="0.39344">
        <ele>980</ele>
        <time>2020-08-02T07:57:01Z</time>
      </trkpt>
      <trkpt lat="42.94001" lon="0.39355">
        <ele>983</ele>
        <time>2020-08-02T07:57:11Z</time>
      </trkpt>
      <trkpt lat="42.93995" lon="0.39364">
        <ele>988</ele>
        <time>2020-08-02T07:57:23Z</time>
      </trkpt>
      <trkpt lat="42.93988" lon="0.39373">
        <ele>997</ele>
        <time>2020-08-02T07:57:37Z</time>
      </trkpt>
      <trkpt lat="42.93978" lon="0.39373">
        <ele>1006</ele>
        <time>2020-08-02T07:57:47Z</time>
      </trkpt>
      <trkpt lat="42.93969" lon="0.39375">
        <ele>1002</ele>
        <time>2020-08-02T07:57:58Z</time>
      </trkpt>
      <trkpt lat="42.93962" lon="0.39384">
        <ele>1004</ele>
        <time>2020-08-02T07:58:11Z</time>
      </trkpt>
      <trkpt lat="42.93955" lon="0.39392">
        <ele>1005</ele>
        <time>2020-08-02T07:58:24Z</time>
      </trkpt>
      <trkpt lat="42.93949" lon="0.39404">
        <ele>1011</ele>
        <time>2020-08-02T07:58:35Z</time>
      </trkpt>
      <trkpt lat="42.93947" lon="0.39417">
        <ele>1008</ele>
        <time>2020-08-02T07:58:45Z</time>
      </trkpt>
      <trkpt lat="42.93943" lon="0.39429">
        <ele>1007</ele>
        <time>2020-08-02T07:58:57Z</time>
      </trkpt>
      <trkpt lat="42.93939" lon="0.39441">
        <ele>1003</ele>
        <time>2020-08-02T07:59:08Z</time>
      </trkpt>
      <trkpt lat="42.93934" lon="0.39453">
        <ele>1007</ele>
        <time>2020-08-02T07:59:20Z</time>
      </trkpt>
      <trkpt lat="42.93927" lon="0.39463">
        <ele>1012</ele>
        <time>2020-08-02T07:59:32Z</time>
      </trkpt>
      <trkpt lat="42.93923" lon="0.39474">
        <ele>1011</ele>
        <time>2020-08-02T07:59:46Z</time>
      </trkpt>
      <trkpt lat="42.93918" lon="0.39485">
        <ele>1011</ele>
        <time>2020-08-02T07:59:58Z</time>
      </trkpt>
      <trkpt lat="42.9391" lon="0.39494">
        <ele>1007</ele>
        <time>2020-08-02T08:00:09Z</time>
      </trkpt>
      <trkpt lat="42.93903" lon="0.39502">
        <ele>1017</ele>
        <time>2020-08-02T08:00:21Z</time>
      </trkpt>
      <trkpt lat="42.93895" lon="0.39507">
        <ele>1023</ele>
        <time>2020-08-02T08:00:32Z</time>
      </trkpt>
      <trkpt lat="42.9389" lon="0.39518">
        <ele>1027</ele>
        <time>2020-08-02T08:00:43Z</time>
      </trkpt>
      <trkpt lat="42.93888" lon="0.39531">
        <ele>1028</ele>
        <time>2020-08-02T08:00:53Z</time>
      </trkpt>
      <trkpt lat="42.93888" lon="0.39543">
        <ele>1033</ele>
        <time>2020-08-02T08:01:02Z</time>
      </trkpt>
      <trkpt lat="42.9389" lon="0.39556">
        <ele>1033</ele>
        <time>2020-08-02T08:01:12Z</time>
      </trkpt>
      <trkpt lat="42.93892" lon="0.39568">
        <ele>1033</ele>
        <time>2020-08-02T08:01:24Z</time>
      </trkpt>
      <trkpt lat="42.93894" lon="0.3958">
        <ele>1036</ele>
        <time>2020-08-02T08:01:39Z</time>
      </trkpt>
      <trkpt lat="42.93896" lon="0.39593">
        <ele>1036</ele>
        <time>2020-08-02T08:01:53Z</time>
      </trkpt>
      <trkpt lat="42.93907" lon="0.39601">
        <ele>1044</ele>
        <time>2020-08-02T08:02:18Z</time>
      </trkpt>
      <trkpt lat="42.93911" lon="0.39613">
        <ele>1047</ele>
        <time>2020-08-02T08:02:28Z</time>
      </trkpt>
      <trkpt lat="42.93915" lon="0.39624">
        <ele>1043</ele>
        <time>2020-08-02T08:02:36Z</time>
      </trkpt>
      <trkpt lat="42.9392" lon="0.39636">
        <ele>1052</ele>
        <time>2020-08-02T08:02:45Z</time>
      </trkpt>
      <trkpt lat="42.93926" lon="0.39647">
        <ele>1051</ele>
        <time>2020-08-02T08:02:55Z</time>
      </trkpt>
      <trkpt lat="42.93931" lon="0.39658">
        <ele>1054</ele>
        <time>2020-08-02T08:03:05Z</time>
      </trkpt>
      <trkpt lat="42.93934" lon="0.3967">
        <ele>1055</ele>
        <time>2020-08-02T08:03:18Z</time>
      </trkpt>
      <trkpt lat="42.93936" lon="0.39682">
        <ele>1049</ele>
        <time>2020-08-02T08:03:26Z</time>
      </trkpt>
      <trkpt lat="42.93936" lon="0.39695">
        <ele>1046</ele>
        <time>2020-08-02T08:03:34Z</time>
      </trkpt>
      <trkpt lat="42.93935" lon="0.39707">
        <ele>1051</ele>
        <time>2020-08-02T08:03:43Z</time>
      </trkpt>
      <trkpt lat="42.93932" lon="0.3972">
        <ele>1052</ele>
        <time>2020-08-02T08:03:53Z</time>
      </trkpt>
      <trkpt lat="42.93926" lon="0.3973">
        <ele>1055</ele>
        <time>2020-08-02T08:04:04Z</time>
      </trkpt>
      <trkpt lat="42.93925" lon="0.39743">
        <ele>1062</ele>
        <time>2020-08-02T08:04:19Z</time>
      </trkpt>
      <trkpt lat="42.93929" lon="0.39754">
        <ele>1057</ele>
        <time>2020-08-02T08:04:30Z</time>
      </trkpt>
      <trkpt lat="42.93937" lon="0.39764">
        <ele>1057</ele>
        <time>2020-08-02T08:04:40Z</time>
      </trkpt>
      <trkpt lat="42.93944" lon="0.39773">
        <ele>1064</ele>
        <time>2020-08-02T08:04:50Z</time>
      </trkpt>
      <trkpt lat="42.93951" lon="0.39781">
        <ele>1068</ele>
        <time>2020-08-02T08:05:01Z</time>
      </trkpt>
      <trkpt lat="42.93959" lon="0.3979">
        <ele>1067</ele>
        <time>2020-08-02T08:05:12Z</time>
      </trkpt>
      <trkpt lat="42.93965" lon="0.39799">
        <ele>1061</ele>
        <time>2020-08-02T08:05:25Z</time>
      </trkpt>
      <trkpt lat="42.93972" lon="0.39807">
        <ele>1060</ele>
        <time>2020-08-02T08:05:38Z</time>
      </trkpt>
      <trkpt lat="42.93981" lon="0.39814">
        <ele>1063</ele>
        <time>2020-08-02T08:05:52Z</time>
      </trkpt>
      <trkpt lat="42.93989" lon="0.39822">
        <ele>1066</ele>
        <time>2020-08-02T08:06:05Z</time>
      </trkpt>
      <trkpt lat="42.93996" lon="0.39831">
        <ele>1068</ele>
        <time>2020-08-02T08:06:18Z</time>
      </trkpt>
      <trkpt lat="42.94006" lon="0.39833">
        <ele>1077</ele>
        <time>2020-08-02T08:06:33Z</time>
      </trkpt>
      <trkpt lat="42.94011" lon="0.39844">
        <ele>1080</ele>
        <time>2020-08-02T08:06:44Z</time>
      </trkpt>
      <trkpt lat="42.9401" lon="0.39857">
        <ele>1083</ele>
        <time>2020-08-02T08:06:57Z</time>
      </trkpt>
      <trkpt lat="42.94005" lon="0.39869">
        <ele>1080</ele>
        <time>2020-08-02T08:07:25Z</time>
      </trkpt>
      <trkpt lat="42.94004" lon="0.39882">
        <ele>1080</ele>
        <time>2020-08-02T08:07:46Z</time>
      </trkpt>
      <trkpt lat="42.93994" lon="0.39889">
        <ele>1081</ele>
        <time>2020-08-02T08:08:20Z</time>
      </trkpt>
      <trkpt lat="42.93994" lon="0.39875">
        <ele>1081</ele>
        <time>2020-08-02T08:08:36Z</time>
      </trkpt>
      <trkpt lat="42.93997" lon="0.39858">
        <ele>1081</ele>
        <time>2020-08-02T08:08:38Z</time>
      </trkpt>
      <trkpt lat="42.9399" lon="0.39871">
        <ele>1086</ele>
        <time>2020-08-02T08:09:03Z</time>
      </trkpt>
      <trkpt lat="42.93988" lon="0.39883">
        <ele>1091</ele>
        <time>2020-08-02T08:09:07Z</time>
      </trkpt>
      <trkpt lat="42.9398" lon="0.39895">
        <ele>1083</ele>
        <time>2020-08-02T08:09:26Z</time>
      </trkpt>
      <trkpt lat="42.93971" lon="0.39895">
        <ele>1087</ele>
        <time>2020-08-02T08:09:39Z</time>
      </trkpt>
      <trkpt lat="42.93962" lon="0.39895">
        <ele>1081</ele>
        <time>2020-08-02T08:09:47Z</time>
      </trkpt>
      <trkpt lat="42.93953" lon="0.399">
        <ele>1080</ele>
        <time>2020-08-02T08:09:59Z</time>
      </trkpt>
      <trkpt lat="42.93944" lon="0.39903">
        <ele>1081</ele>
        <time>2020-08-02T08:10:13Z</time>
      </trkpt>
      <trkpt lat="42.93934" lon="0.39902">
        <ele>1081</ele>
        <time>2020-08-02T08:10:34Z</time>
      </trkpt>
      <trkpt lat="42.93929" lon="0.39917">
        <ele>1080</ele>
        <time>2020-08-02T08:11:10Z</time>
      </trkpt>
      <trkpt lat="42.93923" lon="0.39926">
        <ele>1081</ele>
        <time>2020-08-02T08:11:18Z</time>
      </trkpt>
      <trkpt lat="42.93915" lon="0.39935">
        <ele>1084</ele>
        <time>2020-08-02T08:11:26Z</time>
      </trkpt>
      <trkpt lat="42.9391" lon="0.39947">
        <ele>1088</ele>
        <time>2020-08-02T08:11:33Z</time>
      </trkpt>
      <trkpt lat="42.93907" lon="0.39959">
        <ele>1094</ele>
        <time>2020-08-02T08:11:44Z</time>
      </trkpt>
      <trkpt lat="42.93899" lon="0.39966">
        <ele>1096</ele>
        <time>2020-08-02T08:11:58Z</time>
      </trkpt>
      <trkpt lat="42.93896" lon="0.39984">
        <ele>1100</ele>
        <time>2020-08-02T08:12:18Z</time>
      </trkpt>
      <trkpt lat="42.93892" lon="0.39995">
        <ele>1101</ele>
        <time>2020-08-02T08:12:38Z</time>
      </trkpt>
      <trkpt lat="42.93896" lon="0.40009">
        <ele>1103</ele>
        <time>2020-08-02T08:13:04Z</time>
      </trkpt>
      <trkpt lat="42.93898" lon="0.40022">
        <ele>1107</ele>
        <time>2020-08-02T08:13:19Z</time>
      </trkpt>
      <trkpt lat="42.939" lon="0.40034">
        <ele>1108</ele>
        <time>2020-08-02T08:13:42Z</time>
      </trkpt>
      <trkpt lat="42.93892" lon="0.40026">
        <ele>1108</ele>
        <time>2020-08-02T08:14:04Z</time>
      </trkpt>
      <trkpt lat="42.93899" lon="0.40035">
        <ele>1119</ele>
        <time>2020-08-02T08:14:46Z</time>
      </trkpt>
      <trkpt lat="42.93905" lon="0.40046">
        <ele>1129</ele>
        <time>2020-08-02T08:14:56Z</time>
      </trkpt>
      <trkpt lat="42.93912" lon="0.40059">
        <ele>1140</ele>
        <time>2020-08-02T08:15:28Z</time>
      </trkpt>
      <trkpt lat="42.93922" lon="0.40059">
        <ele>1144</ele>
        <time>2020-08-02T08:15:42Z</time>
      </trkpt>
      <trkpt lat="42.9393" lon="0.40052">
        <ele>1142</ele>
        <time>2020-08-02T08:15:49Z</time>
      </trkpt>
      <trkpt lat="42.93937" lon="0.40044">
        <ele>1146</ele>
        <time>2020-08-02T08:15:58Z</time>
      </trkpt>
      <trkpt lat="42.93946" lon="0.40039">
        <ele>1149</ele>
        <time>2020-08-02T08:16:13Z</time>
      </trkpt>
      <trkpt lat="42.93955" lon="0.40035">
        <ele>1155</ele>
        <time>2020-08-02T08:16:31Z</time>
      </trkpt>
      <trkpt lat="42.93968" lon="0.4003">
        <ele>1161</ele>
        <time>2020-08-02T08:16:54Z</time>
      </trkpt>
      <trkpt lat="42.93975" lon="0.40038">
        <ele>1162</ele>
        <time>2020-08-02T08:17:23Z</time>
      </trkpt>
      <trkpt lat="42.93969" lon="0.40048">
        <ele>1167</ele>
        <time>2020-08-02T08:18:30Z</time>
      </trkpt>
      <trkpt lat="42.93967" lon="0.40063">
        <ele>1164</ele>
        <time>2020-08-02T08:18:37Z</time>
      </trkpt>
      <trkpt lat="42.93964" lon="0.40076">
        <ele>1164</ele>
        <time>2020-08-02T08:18:43Z</time>
      </trkpt>
      <trkpt lat="42.93963" lon="0.4009">
        <ele>1170</ele>
        <time>2020-08-02T08:18:52Z</time>
      </trkpt>
      <trkpt lat="42.93958" lon="0.40102">
        <ele>1174</ele>
        <time>2020-08-02T08:19:01Z</time>
      </trkpt>
      <trkpt lat="42.93951" lon="0.40111">
        <ele>1175</ele>
        <time>2020-08-02T08:19:07Z</time>
      </trkpt>
      <trkpt lat="42.93942" lon="0.40116">
        <ele>1176</ele>
        <time>2020-08-02T08:19:17Z</time>
      </trkpt>
      <trkpt lat="42.93936" lon="0.40131">
        <ele>1185</ele>
        <time>2020-08-02T08:19:43Z</time>
      </trkpt>
      <trkpt lat="42.93937" lon="0.40144">
        <ele>1186</ele>
        <time>2020-08-02T08:20:02Z</time>
      </trkpt>
      <trkpt lat="42.9393" lon="0.40154">
        <ele>1189</ele>
        <time>2020-08-02T08:20:17Z</time>
      </trkpt>
      <trkpt lat="42.93929" lon="0.40166">
        <ele>1193</ele>
        <time>2020-08-02T08:20:34Z</time>
      </trkpt>
      <trkpt lat="42.93926" lon="0.40178">
        <ele>1198</ele>
        <time>2020-08-02T08:20:52Z</time>
      </trkpt>
      <trkpt lat="42.93926" lon="0.40191">
        <ele>1200</ele>
        <time>2020-08-02T08:21:01Z</time>
      </trkpt>
      <trkpt lat="42.93922" lon="0.40202">
        <ele>1202</ele>
        <time>2020-08-02T08:21:11Z</time>
      </trkpt>
      <trkpt lat="42.93915" lon="0.40211">
        <ele>1203</ele>
        <time>2020-08-02T08:21:36Z</time>
      </trkpt>
      <trkpt lat="42.93913" lon="0.40224">
        <ele>1202</ele>
        <time>2020-08-02T08:21:49Z</time>
      </trkpt>
      <trkpt lat="42.93918" lon="0.40234">
        <ele>1205</ele>
        <time>2020-08-02T08:22:00Z</time>
      </trkpt>
      <trkpt lat="42.93919" lon="0.40248">
        <ele>1208</ele>
        <time>2020-08-02T08:22:12Z</time>
      </trkpt>
      <trkpt lat="42.93925" lon="0.40264">
        <ele>1211</ele>
        <time>2020-08-02T08:29:21Z</time>
      </trkpt>
      <trkpt lat="42.93924" lon="0.40278">
        <ele>1220</ele>
        <time>2020-08-02T08:29:28Z</time>
      </trkpt>
      <trkpt lat="42.93921" lon="0.40291">
        <ele>1221</ele>
        <time>2020-08-02T08:29:34Z</time>
      </trkpt>
      <trkpt lat="42.93915" lon="0.40303">
        <ele>1224</ele>
        <time>2020-08-02T08:29:39Z</time>
      </trkpt>
      <trkpt lat="42.93909" lon="0.40314">
        <ele>1225</ele>
        <time>2020-08-02T08:29:46Z</time>
      </trkpt>
      <trkpt lat="42.93905" lon="0.40327">
        <ele>1226</ele>
        <time>2020-08-02T08:29:56Z</time>
      </trkpt>
      <trkpt lat="42.939" lon="0.40338">
        <ele>1226</ele>
        <time>2020-08-02T08:30:08Z</time>
      </trkpt>
      <trkpt lat="42.93894" lon="0.40348">
        <ele>1225</ele>
        <time>2020-08-02T08:30:18Z</time>
      </trkpt>
      <trkpt lat="42.93891" lon="0.4036">
        <ele>1226</ele>
        <time>2020-08-02T08:30:29Z</time>
      </trkpt>
      <trkpt lat="42.93886" lon="0.40371">
        <ele>1230</ele>
        <time>2020-08-02T08:30:52Z</time>
      </trkpt>
      <trkpt lat="42.93882" lon="0.40383">
        <ele>1240</ele>
        <time>2020-08-02T08:31:11Z</time>
      </trkpt>
      <trkpt lat="42.93878" lon="0.40394">
        <ele>1247</ele>
        <time>2020-08-02T08:31:29Z</time>
      </trkpt>
      <trkpt lat="42.93878" lon="0.40408">
        <ele>1248</ele>
        <time>2020-08-02T08:31:41Z</time>
      </trkpt>
      <trkpt lat="42.93883" lon="0.4042">
        <ele>1248</ele>
        <time>2020-08-02T08:31:52Z</time>
      </trkpt>
      <trkpt lat="42.93886" lon="0.40432">
        <ele>1254</ele>
        <time>2020-08-02T08:32:04Z</time>
      </trkpt>
      <trkpt lat="42.93886" lon="0.40445">
        <ele>1257</ele>
        <time>2020-08-02T08:32:17Z</time>
      </trkpt>
      <trkpt lat="42.93886" lon="0.40457">
        <ele>1258</ele>
        <time>2020-08-02T08:32:33Z</time>
      </trkpt>
      <trkpt lat="42.93884" lon="0.4047">
        <ele>1263</ele>
        <time>2020-08-02T08:32:51Z</time>
      </trkpt>
      <trkpt lat="42.93877" lon="0.40478">
        <ele>1266</ele>
        <time>2020-08-02T08:33:09Z</time>
      </trkpt>
      <trkpt lat="42.93871" lon="0.40493">
        <ele>1267</ele>
        <time>2020-08-02T08:33:33Z</time>
      </trkpt>
      <trkpt lat="42.93864" lon="0.40502">
        <ele>1270</ele>
        <time>2020-08-02T08:33:47Z</time>
      </trkpt>
      <trkpt lat="42.93856" lon="0.40507">
        <ele>1274</ele>
        <time>2020-08-02T08:34:03Z</time>
      </trkpt>
      <trkpt lat="42.93847" lon="0.40512">
        <ele>1277</ele>
        <time>2020-08-02T08:34:21Z</time>
      </trkpt>
      <trkpt lat="42.93842" lon="0.40522">
        <ele>1282</ele>
        <time>2020-08-02T08:34:35Z</time>
      </trkpt>
      <trkpt lat="42.93836" lon="0.40533">
        <ele>1279</ele>
        <time>2020-08-02T08:34:49Z</time>
      </trkpt>
      <trkpt lat="42.93829" lon="0.40542">
        <ele>1278</ele>
        <time>2020-08-02T08:35:12Z</time>
      </trkpt>
      <trkpt lat="42.93822" lon="0.40553">
        <ele>1289</ele>
        <time>2020-08-02T08:35:44Z</time>
      </trkpt>
      <trkpt lat="42.93812" lon="0.40555">
        <ele>1297</ele>
        <time>2020-08-02T08:36:00Z</time>
      </trkpt>
      <trkpt lat="42.93805" lon="0.40561">
        <ele>1300</ele>
        <time>2020-08-02T08:36:30Z</time>
      </trkpt>
      <trkpt lat="42.93799" lon="0.40571">
        <ele>1309</ele>
        <time>2020-08-02T08:36:50Z</time>
      </trkpt>
      <trkpt lat="42.93799" lon="0.40584">
        <ele>1312</ele>
        <time>2020-08-02T08:37:04Z</time>
      </trkpt>
      <trkpt lat="42.93799" lon="0.40597">
        <ele>1317</ele>
        <time>2020-08-02T08:37:23Z</time>
      </trkpt>
      <trkpt lat="42.93799" lon="0.4061">
        <ele>1317</ele>
        <time>2020-08-02T08:37:38Z</time>
      </trkpt>
      <trkpt lat="42.93796" lon="0.40628">
        <ele>1331</ele>
        <time>2020-08-02T08:38:21Z</time>
      </trkpt>
      <trkpt lat="42.93788" lon="0.40643">
        <ele>1339</ele>
        <time>2020-08-02T08:38:47Z</time>
      </trkpt>
      <trkpt lat="42.93787" lon="0.40656">
        <ele>1342</ele>
        <time>2020-08-02T08:39:01Z</time>
      </trkpt>
      <trkpt lat="42.93788" lon="0.40669">
        <ele>1343</ele>
        <time>2020-08-02T08:39:14Z</time>
      </trkpt>
      <trkpt lat="42.93776" lon="0.40669">
        <ele>1348</ele>
        <time>2020-08-02T08:44:13Z</time>
      </trkpt>
      <trkpt lat="42.93767" lon="0.40675">
        <ele>1351</ele>
        <time>2020-08-02T08:44:23Z</time>
      </trkpt>
      <trkpt lat="42.9376" lon="0.40684">
        <ele>1354</ele>
        <time>2020-08-02T08:44:35Z</time>
      </trkpt>
      <trkpt lat="42.93755" lon="0.40696">
        <ele>1358</ele>
        <time>2020-08-02T08:44:47Z</time>
      </trkpt>
      <trkpt lat="42.93752" lon="0.40707">
        <ele>1364</ele>
        <time>2020-08-02T08:45:05Z</time>
      </trkpt>
      <trkpt lat="42.93751" lon="0.4072">
        <ele>1362</ele>
        <time>2020-08-02T08:45:18Z</time>
      </trkpt>
      <trkpt lat="42.93749" lon="0.40733">
        <ele>1362</ele>
        <time>2020-08-02T08:45:44Z</time>
      </trkpt>
      <trkpt lat="42.93747" lon="0.40747">
        <ele>1365</ele>
        <time>2020-08-02T08:46:00Z</time>
      </trkpt>
      <trkpt lat="42.93742" lon="0.40757">
        <ele>1372</ele>
        <time>2020-08-02T08:46:18Z</time>
      </trkpt>
      <trkpt lat="42.93736" lon="0.40766">
        <ele>1377</ele>
        <time>2020-08-02T08:46:33Z</time>
      </trkpt>
      <trkpt lat="42.93729" lon="0.40775">
        <ele>1377</ele>
        <time>2020-08-02T08:46:48Z</time>
      </trkpt>
      <trkpt lat="42.9372" lon="0.40778">
        <ele>1377</ele>
        <time>2020-08-02T08:47:05Z</time>
      </trkpt>
      <trkpt lat="42.93711" lon="0.4078">
        <ele>1382</ele>
        <time>2020-08-02T08:47:19Z</time>
      </trkpt>
      <trkpt lat="42.93704" lon="0.40789">
        <ele>1390</ele>
        <time>2020-08-02T08:47:32Z</time>
      </trkpt>
      <trkpt lat="42.93696" lon="0.40794">
        <ele>1395</ele>
        <time>2020-08-02T08:47:49Z</time>
      </trkpt>
      <trkpt lat="42.93693" lon="0.40808">
        <ele>1395</ele>
        <time>2020-08-02T08:48:12Z</time>
      </trkpt>
      <trkpt lat="42.93698" lon="0.40818">
        <ele>1403</ele>
        <time>2020-08-02T08:48:27Z</time>
      </trkpt>
      <trkpt lat="42.93703" lon="0.40829">
        <ele>1403</ele>
        <time>2020-08-02T08:48:44Z</time>
      </trkpt>
      <trkpt lat="42.93708" lon="0.4084">
        <ele>1406</ele>
        <time>2020-08-02T08:49:01Z</time>
      </trkpt>
      <trkpt lat="42.93702" lon="0.4085">
        <ele>1412</ele>
        <time>2020-08-02T08:49:20Z</time>
      </trkpt>
      <trkpt lat="42.93697" lon="0.40862">
        <ele>1415</ele>
        <time>2020-08-02T08:50:00Z</time>
      </trkpt>
      <trkpt lat="42.937" lon="0.40879">
        <ele>1415</ele>
        <time>2020-08-02T08:50:38Z</time>
      </trkpt>
      <trkpt lat="42.93701" lon="0.40892">
        <ele>1413</ele>
        <time>2020-08-02T08:50:51Z</time>
      </trkpt>
      <trkpt lat="42.93695" lon="0.40876">
        <ele>1414</ele>
        <time>2020-08-02T08:53:30Z</time>
      </trkpt>
      <trkpt lat="42.93694" lon="0.40862">
        <ele>1415</ele>
        <time>2020-08-02T08:53:39Z</time>
      </trkpt>
      <trkpt lat="42.93699" lon="0.4085">
        <ele>1416</ele>
        <time>2020-08-02T08:53:47Z</time>
      </trkpt>
      <trkpt lat="42.93699" lon="0.40869">
        <ele>1415</ele>
        <time>2020-08-02T08:55:24Z</time>
      </trkpt>
      <trkpt lat="42.93698" lon="0.40883">
        <ele>1418</ele>
        <time>2020-08-02T08:55:32Z</time>
      </trkpt>
      <trkpt lat="42.93696" lon="0.40896">
        <ele>1416</ele>
        <time>2020-08-02T08:55:39Z</time>
      </trkpt>
      <trkpt lat="42.93692" lon="0.40909">
        <ele>1419</ele>
        <time>2020-08-02T08:55:47Z</time>
      </trkpt>
      <trkpt lat="42.93688" lon="0.40921">
        <ele>1424</ele>
        <time>2020-08-02T08:55:56Z</time>
      </trkpt>
      <trkpt lat="42.93687" lon="0.40933">
        <ele>1423</ele>
        <time>2020-08-02T08:56:08Z</time>
      </trkpt>
      <trkpt lat="42.93685" lon="0.40947">
        <ele>1420</ele>
        <time>2020-08-02T08:56:20Z</time>
      </trkpt>
      <trkpt lat="42.93685" lon="0.40961">
        <ele>1420</ele>
        <time>2020-08-02T08:56:30Z</time>
      </trkpt>
      <trkpt lat="42.93689" lon="0.40972">
        <ele>1420</ele>
        <time>2020-08-02T08:56:38Z</time>
      </trkpt>
      <trkpt lat="42.93692" lon="0.40986">
        <ele>1418</ele>
        <time>2020-08-02T08:56:47Z</time>
      </trkpt>
      <trkpt lat="42.93691" lon="0.40999">
        <ele>1426</ele>
        <time>2020-08-02T08:56:57Z</time>
      </trkpt>
      <trkpt lat="42.93689" lon="0.41011">
        <ele>1427</ele>
        <time>2020-08-02T08:57:10Z</time>
      </trkpt>
      <trkpt lat="42.93688" lon="0.41023">
        <ele>1429</ele>
        <time>2020-08-02T08:57:23Z</time>
      </trkpt>
      <trkpt lat="42.93689" lon="0.41036">
        <ele>1433</ele>
        <time>2020-08-02T08:57:38Z</time>
      </trkpt>
      <trkpt lat="42.93693" lon="0.41047">
        <ele>1432</ele>
        <time>2020-08-02T08:57:55Z</time>
      </trkpt>
      <trkpt lat="42.93688" lon="0.41058">
        <ele>1434</ele>
        <time>2020-08-02T08:58:16Z</time>
      </trkpt>
      <trkpt lat="42.93683" lon="0.41068">
        <ele>1441</ele>
        <time>2020-08-02T08:58:38Z</time>
      </trkpt>
      <trkpt lat="42.9368" lon="0.41081">
        <ele>1442</ele>
        <time>2020-08-02T08:58:54Z</time>
      </trkpt>
      <trkpt lat="42.93684" lon="0.411">
        <ele>1446</ele>
        <time>2020-08-02T08:59:15Z</time>
      </trkpt>
      <trkpt lat="42.93686" lon="0.41112">
        <ele>1450</ele>
        <time>2020-08-02T08:59:34Z</time>
      </trkpt>
      <trkpt lat="42.93692" lon="0.41121">
        <ele>1450</ele>
        <time>2020-08-02T08:59:50Z</time>
      </trkpt>
      <trkpt lat="42.93699" lon="0.4113">
        <ele>1454</ele>
        <time>2020-08-02T09:00:04Z</time>
      </trkpt>
      <trkpt lat="42.93695" lon="0.41142">
        <ele>1451</ele>
        <time>2020-08-02T09:00:20Z</time>
      </trkpt>
      <trkpt lat="42.93698" lon="0.41128">
        <ele>1449</ele>
        <time>2020-08-02T09:01:12Z</time>
      </trkpt>
      <trkpt lat="42.93685" lon="0.41124">
        <ele>1455</ele>
        <time>2020-08-02T09:01:34Z</time>
      </trkpt>
      <trkpt lat="42.93678" lon="0.41133">
        <ele>1457</ele>
        <time>2020-08-02T09:01:42Z</time>
      </trkpt>
      <trkpt lat="42.93676" lon="0.41146">
        <ele>1459</ele>
        <time>2020-08-02T09:01:51Z</time>
      </trkpt>
      <trkpt lat="42.93681" lon="0.41157">
        <ele>1459</ele>
        <time>2020-08-02T09:02:03Z</time>
      </trkpt>
      <trkpt lat="42.93684" lon="0.41168">
        <ele>1461</ele>
        <time>2020-08-02T09:04:56Z</time>
      </trkpt>
      <trkpt lat="42.93686" lon="0.41183">
        <ele>1461</ele>
        <time>2020-08-02T09:05:06Z</time>
      </trkpt>
      <trkpt lat="42.93689" lon="0.41196">
        <ele>1463</ele>
        <time>2020-08-02T09:05:14Z</time>
      </trkpt>
      <trkpt lat="42.93691" lon="0.41209">
        <ele>1465</ele>
        <time>2020-08-02T09:05:24Z</time>
      </trkpt>
      <trkpt lat="42.93693" lon="0.41222">
        <ele>1466</ele>
        <time>2020-08-02T09:05:39Z</time>
      </trkpt>
      <trkpt lat="42.93695" lon="0.41234">
        <ele>1472</ele>
        <time>2020-08-02T09:05:58Z</time>
      </trkpt>
      <trkpt lat="42.937" lon="0.41245">
        <ele>1475</ele>
        <time>2020-08-02T09:06:14Z</time>
      </trkpt>
      <trkpt lat="42.93708" lon="0.41253">
        <ele>1481</ele>
        <time>2020-08-02T09:06:30Z</time>
      </trkpt>
      <trkpt lat="42.93715" lon="0.41262">
        <ele>1484</ele>
        <time>2020-08-02T09:06:47Z</time>
      </trkpt>
      <trkpt lat="42.93721" lon="0.41272">
        <ele>1483</ele>
        <time>2020-08-02T09:07:03Z</time>
      </trkpt>
      <trkpt lat="42.93729" lon="0.41278">
        <ele>1491</ele>
        <time>2020-08-02T09:07:20Z</time>
      </trkpt>
      <trkpt lat="42.93735" lon="0.41288">
        <ele>1492</ele>
        <time>2020-08-02T09:07:38Z</time>
      </trkpt>
      <trkpt lat="42.93738" lon="0.413">
        <ele>1494</ele>
        <time>2020-08-02T09:07:57Z</time>
      </trkpt>
      <trkpt lat="42.93742" lon="0.41312">
        <ele>1502</ele>
        <time>2020-08-02T09:08:14Z</time>
      </trkpt>
      <trkpt lat="42.93741" lon="0.41326">
        <ele>1502</ele>
        <time>2020-08-02T09:08:30Z</time>
      </trkpt>
      <trkpt lat="42.93741" lon="0.41339">
        <ele>1506</ele>
        <time>2020-08-02T09:08:45Z</time>
      </trkpt>
      <trkpt lat="42.93741" lon="0.41352">
        <ele>1512</ele>
        <time>2020-08-02T09:09:06Z</time>
      </trkpt>
      <trkpt lat="42.9374" lon="0.41365">
        <ele>1518</ele>
        <time>2020-08-02T09:09:24Z</time>
      </trkpt>
      <trkpt lat="42.9374" lon="0.41378">
        <ele>1523</ele>
        <time>2020-08-02T09:09:40Z</time>
      </trkpt>
      <trkpt lat="42.93741" lon="0.41391">
        <ele>1526</ele>
        <time>2020-08-02T09:10:01Z</time>
      </trkpt>
      <trkpt lat="42.93738" lon="0.41403">
        <ele>1531</ele>
        <time>2020-08-02T09:10:22Z</time>
      </trkpt>
      <trkpt lat="42.93738" lon="0.41416">
        <ele>1534</ele>
        <time>2020-08-02T09:10:43Z</time>
      </trkpt>
      <trkpt lat="42.93736" lon="0.41428">
        <ele>1532</ele>
        <time>2020-08-02T09:11:03Z</time>
      </trkpt>
      <trkpt lat="42.93733" lon="0.4144">
        <ele>1536</ele>
        <time>2020-08-02T09:11:20Z</time>
      </trkpt>
      <trkpt lat="42.9373" lon="0.41452">
        <ele>1540</ele>
        <time>2020-08-02T09:11:39Z</time>
      </trkpt>
      <trkpt lat="42.93727" lon="0.41464">
        <ele>1541</ele>
        <time>2020-08-02T09:11:56Z</time>
      </trkpt>
      <trkpt lat="42.93724" lon="0.41476">
        <ele>1548</ele>
        <time>2020-08-02T09:12:22Z</time>
      </trkpt>
      <trkpt lat="42.93717" lon="0.41483">
        <ele>1550</ele>
        <time>2020-08-02T09:12:36Z</time>
      </trkpt>
      <trkpt lat="42.93711" lon="0.41494">
        <ele>1555</ele>
        <time>2020-08-02T09:12:54Z</time>
      </trkpt>
      <trkpt lat="42.93712" lon="0.41507">
        <ele>1560</ele>
        <time>2020-08-02T09:13:17Z</time>
      </trkpt>
      <trkpt lat="42.93712" lon="0.41519">
        <ele>1564</ele>
        <time>2020-08-02T09:13:37Z</time>
      </trkpt>
      <trkpt lat="42.93709" lon="0.41532">
        <ele>1569</ele>
        <time>2020-08-02T09:13:54Z</time>
      </trkpt>
      <trkpt lat="42.93708" lon="0.41545">
        <ele>1572</ele>
        <time>2020-08-02T09:14:15Z</time>
      </trkpt>
      <trkpt lat="42.93703" lon="0.41555">
        <ele>1577</ele>
        <time>2020-08-02T09:14:42Z</time>
      </trkpt>
      <trkpt lat="42.93698" lon="0.41573">
        <ele>1587</ele>
        <time>2020-08-02T09:15:12Z</time>
      </trkpt>
      <trkpt lat="42.93698" lon="0.41591">
        <ele>1590</ele>
        <time>2020-08-02T09:15:43Z</time>
      </trkpt>
      <trkpt lat="42.93697" lon="0.41603">
        <ele>1594</ele>
        <time>2020-08-02T09:15:58Z</time>
      </trkpt>
      <trkpt lat="42.93693" lon="0.41615">
        <ele>1596</ele>
        <time>2020-08-02T09:16:19Z</time>
      </trkpt>
      <trkpt lat="42.93693" lon="0.41627">
        <ele>1601</ele>
        <time>2020-08-02T09:16:39Z</time>
      </trkpt>
      <trkpt lat="42.93694" lon="0.4164">
        <ele>1604</ele>
        <time>2020-08-02T09:16:58Z</time>
      </trkpt>
      <trkpt lat="42.93694" lon="0.41653">
        <ele>1606</ele>
        <time>2020-08-02T09:17:18Z</time>
      </trkpt>
      <trkpt lat="42.93695" lon="0.41666">
        <ele>1609</ele>
        <time>2020-08-02T09:17:36Z</time>
      </trkpt>
      <trkpt lat="42.93693" lon="0.41679">
        <ele>1613</ele>
        <time>2020-08-02T09:17:54Z</time>
      </trkpt>
      <trkpt lat="42.93698" lon="0.41691">
        <ele>1614</ele>
        <time>2020-08-02T09:18:14Z</time>
      </trkpt>
      <trkpt lat="42.937" lon="0.41703">
        <ele>1615</ele>
        <time>2020-08-02T09:18:29Z</time>
      </trkpt>
      <trkpt lat="42.93699" lon="0.41716">
        <ele>1620</ele>
        <time>2020-08-02T09:18:45Z</time>
      </trkpt>
      <trkpt lat="42.93695" lon="0.41728">
        <ele>1622</ele>
        <time>2020-08-02T09:19:09Z</time>
      </trkpt>
      <trkpt lat="42.937" lon="0.41739">
        <ele>1625</ele>
        <time>2020-08-02T09:19:44Z</time>
      </trkpt>
      <trkpt lat="42.93703" lon="0.41752">
        <ele>1625</ele>
        <time>2020-08-02T09:19:58Z</time>
      </trkpt>
      <trkpt lat="42.93707" lon="0.41764">
        <ele>1632</ele>
        <time>2020-08-02T09:20:12Z</time>
      </trkpt>
      <trkpt lat="42.93707" lon="0.41777">
        <ele>1635</ele>
        <time>2020-08-02T09:20:26Z</time>
      </trkpt>
      <trkpt lat="42.93702" lon="0.41793">
        <ele>1635</ele>
        <time>2020-08-02T09:20:44Z</time>
      </trkpt>
      <trkpt lat="42.93699" lon="0.41805">
        <ele>1640</ele>
        <time>2020-08-02T09:20:54Z</time>
      </trkpt>
      <trkpt lat="42.93696" lon="0.41818">
        <ele>1641</ele>
        <time>2020-08-02T09:21:06Z</time>
      </trkpt>
      <trkpt lat="42.93694" lon="0.41831">
        <ele>1642</ele>
        <time>2020-08-02T09:21:16Z</time>
      </trkpt>
      <trkpt lat="42.93694" lon="0.41844">
        <ele>1647</ele>
        <time>2020-08-02T09:21:27Z</time>
      </trkpt>
      <trkpt lat="42.93691" lon="0.41856">
        <ele>1644</ele>
        <time>2020-08-02T09:21:37Z</time>
      </trkpt>
      <trkpt lat="42.93689" lon="0.41869">
        <ele>1648</ele>
        <time>2020-08-02T09:21:49Z</time>
      </trkpt>
      <trkpt lat="42.93692" lon="0.41881">
        <ele>1648</ele>
        <time>2020-08-02T09:22:01Z</time>
      </trkpt>
      <trkpt lat="42.93675" lon="0.41902">
        <ele>1665</ele>
        <time>2020-08-02T10:54:17Z</time>
      </trkpt>
      <trkpt lat="42.93683" lon="0.41894">
        <ele>1657</ele>
        <time>2020-08-02T10:54:18Z</time>
      </trkpt>
      <trkpt lat="42.93692" lon="0.41892">
        <ele>1653</ele>
        <time>2020-08-02T10:54:24Z</time>
      </trkpt>
      <trkpt lat="42.93679" lon="0.419">
        <ele>1649</ele>
        <time>2020-08-02T10:54:36Z</time>
      </trkpt>
      <trkpt lat="42.93669" lon="0.41905">
        <ele>1661</ele>
        <time>2020-08-02T10:54:42Z</time>
      </trkpt>
      <trkpt lat="42.93681" lon="0.41905">
        <ele>1650</ele>
        <time>2020-08-02T10:55:01Z</time>
      </trkpt>
      <trkpt lat="42.9369" lon="0.41896">
        <ele>1647</ele>
        <time>2020-08-02T10:55:07Z</time>
      </trkpt>
      <trkpt lat="42.93698" lon="0.41889">
        <ele>1652</ele>
        <time>2020-08-02T10:55:34Z</time>
      </trkpt>
      <trkpt lat="42.9369" lon="0.41902">
        <ele>1656</ele>
        <time>2020-08-02T10:59:38Z</time>
      </trkpt>
      <trkpt lat="42.93686" lon="0.41916">
        <ele>1658</ele>
        <time>2020-08-02T10:59:44Z</time>
      </trkpt>
      <trkpt lat="42.93681" lon="0.41928">
        <ele>1657</ele>
        <time>2020-08-02T10:59:52Z</time>
      </trkpt>
      <trkpt lat="42.93677" lon="0.4194">
        <ele>1660</ele>
        <time>2020-08-02T11:00:00Z</time>
      </trkpt>
      <trkpt lat="42.93674" lon="0.41952">
        <ele>1661</ele>
        <time>2020-08-02T11:00:10Z</time>
      </trkpt>
      <trkpt lat="42.9367" lon="0.41965">
        <ele>1663</ele>
        <time>2020-08-02T11:00:21Z</time>
      </trkpt>
      <trkpt lat="42.93668" lon="0.41978">
        <ele>1662</ele>
        <time>2020-08-02T11:00:32Z</time>
      </trkpt>
      <trkpt lat="42.93669" lon="0.4199">
        <ele>1661</ele>
        <time>2020-08-02T11:00:40Z</time>
      </trkpt>
      <trkpt lat="42.93672" lon="0.42003">
        <ele>1663</ele>
        <time>2020-08-02T11:00:49Z</time>
      </trkpt>
      <trkpt lat="42.93676" lon="0.42015">
        <ele>1663</ele>
        <time>2020-08-02T11:00:59Z</time>
      </trkpt>
      <trkpt lat="42.93682" lon="0.42027">
        <ele>1664</ele>
        <time>2020-08-02T11:01:07Z</time>
      </trkpt>
      <trkpt lat="42.93686" lon="0.42038">
        <ele>1666</ele>
        <time>2020-08-02T11:01:18Z</time>
      </trkpt>
      <trkpt lat="42.9369" lon="0.4205">
        <ele>1672</ele>
        <time>2020-08-02T11:01:28Z</time>
      </trkpt>
      <trkpt lat="42.93694" lon="0.42062">
        <ele>1671</ele>
        <time>2020-08-02T11:01:39Z</time>
      </trkpt>
      <trkpt lat="42.93699" lon="0.42074">
        <ele>1673</ele>
        <time>2020-08-02T11:01:49Z</time>
      </trkpt>
      <trkpt lat="42.937" lon="0.42087">
        <ele>1676</ele>
        <time>2020-08-02T11:01:58Z</time>
      </trkpt>
      <trkpt lat="42.93701" lon="0.421">
        <ele>1678</ele>
        <time>2020-08-02T11:02:10Z</time>
      </trkpt>
      <trkpt lat="42.93701" lon="0.42113">
        <ele>1674</ele>
        <time>2020-08-02T11:02:21Z</time>
      </trkpt>
      <trkpt lat="42.93701" lon="0.42126">
        <ele>1675</ele>
        <time>2020-08-02T11:02:32Z</time>
      </trkpt>
      <trkpt lat="42.937" lon="0.42139">
        <ele>1677</ele>
        <time>2020-08-02T11:02:52Z</time>
      </trkpt>
      <trkpt lat="42.93711" lon="0.42144">
        <ele>1681</ele>
        <time>2020-08-02T11:03:13Z</time>
      </trkpt>
      <trkpt lat="42.93716" lon="0.42156">
        <ele>1683</ele>
        <time>2020-08-02T11:03:22Z</time>
      </trkpt>
      <trkpt lat="42.93717" lon="0.42169">
        <ele>1684</ele>
        <time>2020-08-02T11:03:30Z</time>
      </trkpt>
      <trkpt lat="42.93718" lon="0.42182">
        <ele>1683</ele>
        <time>2020-08-02T11:03:39Z</time>
      </trkpt>
      <trkpt lat="42.93715" lon="0.42194">
        <ele>1682</ele>
        <time>2020-08-02T11:03:50Z</time>
      </trkpt>
      <trkpt lat="42.93712" lon="0.42207">
        <ele>1683</ele>
        <time>2020-08-02T11:03:59Z</time>
      </trkpt>
      <trkpt lat="42.93708" lon="0.42218">
        <ele>1682</ele>
        <time>2020-08-02T11:04:06Z</time>
      </trkpt>
      <trkpt lat="42.93703" lon="0.42229">
        <ele>1682</ele>
        <time>2020-08-02T11:04:15Z</time>
      </trkpt>
      <trkpt lat="42.937" lon="0.42241">
        <ele>1682</ele>
        <time>2020-08-02T11:04:26Z</time>
      </trkpt>
      <trkpt lat="42.93697" lon="0.42254">
        <ele>1680</ele>
        <time>2020-08-02T11:04:37Z</time>
      </trkpt>
      <trkpt lat="42.93694" lon="0.42266">
        <ele>1679</ele>
        <time>2020-08-02T11:04:50Z</time>
      </trkpt>
      <trkpt lat="42.93685" lon="0.42271">
        <ele>1677</ele>
        <time>2020-08-02T11:05:14Z</time>
      </trkpt>
      <trkpt lat="42.9368" lon="0.42282">
        <ele>1674</ele>
        <time>2020-08-02T11:05:27Z</time>
      </trkpt>
      <trkpt lat="42.93668" lon="0.4228">
        <ele>1679</ele>
        <time>2020-08-02T11:05:48Z</time>
      </trkpt>
      <trkpt lat="42.93664" lon="0.42268">
        <ele>1680</ele>
        <time>2020-08-02T11:06:01Z</time>
      </trkpt>
      <trkpt lat="42.9366" lon="0.42257">
        <ele>1682</ele>
        <time>2020-08-02T11:06:15Z</time>
      </trkpt>
      <trkpt lat="42.93651" lon="0.42252">
        <ele>1687</ele>
        <time>2020-08-02T11:06:25Z</time>
      </trkpt>
      <trkpt lat="42.93641" lon="0.42253">
        <ele>1686</ele>
        <time>2020-08-02T11:06:34Z</time>
      </trkpt>
      <trkpt lat="42.93632" lon="0.4225">
        <ele>1688</ele>
        <time>2020-08-02T11:06:44Z</time>
      </trkpt>
      <trkpt lat="42.93622" lon="0.4225">
        <ele>1684</ele>
        <time>2020-08-02T11:06:54Z</time>
      </trkpt>
      <trkpt lat="42.93613" lon="0.42253">
        <ele>1681</ele>
        <time>2020-08-02T11:07:03Z</time>
      </trkpt>
      <trkpt lat="42.93602" lon="0.42256">
        <ele>1682</ele>
        <time>2020-08-02T11:07:11Z</time>
      </trkpt>
      <trkpt lat="42.93593" lon="0.42258">
        <ele>1682</ele>
        <time>2020-08-02T11:07:19Z</time>
      </trkpt>
      <trkpt lat="42.93583" lon="0.42261">
        <ele>1682</ele>
        <time>2020-08-02T11:07:27Z</time>
      </trkpt>
      <trkpt lat="42.93575" lon="0.42267">
        <ele>1679</ele>
        <time>2020-08-02T11:07:37Z</time>
      </trkpt>
      <trkpt lat="42.93567" lon="0.42275">
        <ele>1679</ele>
        <time>2020-08-02T11:07:46Z</time>
      </trkpt>
      <trkpt lat="42.93558" lon="0.42281">
        <ele>1678</ele>
        <time>2020-08-02T11:07:55Z</time>
      </trkpt>
      <trkpt lat="42.93549" lon="0.42286">
        <ele>1683</ele>
        <time>2020-08-02T11:08:04Z</time>
      </trkpt>
      <trkpt lat="42.9354" lon="0.42292">
        <ele>1683</ele>
        <time>2020-08-02T11:08:12Z</time>
      </trkpt>
      <trkpt lat="42.93531" lon="0.42296">
        <ele>1685</ele>
        <time>2020-08-02T11:08:22Z</time>
      </trkpt>
      <trkpt lat="42.93524" lon="0.42304">
        <ele>1686</ele>
        <time>2020-08-02T11:08:32Z</time>
      </trkpt>
      <trkpt lat="42.93518" lon="0.42315">
        <ele>1681</ele>
        <time>2020-08-02T11:08:43Z</time>
      </trkpt>
      <trkpt lat="42.93513" lon="0.42326">
        <ele>1683</ele>
        <time>2020-08-02T11:08:51Z</time>
      </trkpt>
      <trkpt lat="42.93508" lon="0.42338">
        <ele>1684</ele>
        <time>2020-08-02T11:08:59Z</time>
      </trkpt>
      <trkpt lat="42.93503" lon="0.42348">
        <ele>1682</ele>
        <time>2020-08-02T11:09:08Z</time>
      </trkpt>
      <trkpt lat="42.93497" lon="0.42359">
        <ele>1683</ele>
        <time>2020-08-02T11:09:16Z</time>
      </trkpt>
      <trkpt lat="42.93492" lon="0.4237">
        <ele>1684</ele>
        <time>2020-08-02T11:09:25Z</time>
      </trkpt>
      <trkpt lat="42.93486" lon="0.4238">
        <ele>1680</ele>
        <time>2020-08-02T11:09:33Z</time>
      </trkpt>
      <trkpt lat="42.9348" lon="0.4239">
        <ele>1684</ele>
        <time>2020-08-02T11:09:41Z</time>
      </trkpt>
      <trkpt lat="42.93471" lon="0.42397">
        <ele>1684</ele>
        <time>2020-08-02T11:09:51Z</time>
      </trkpt>
      <trkpt lat="42.93463" lon="0.42405">
        <ele>1683</ele>
        <time>2020-08-02T11:09:59Z</time>
      </trkpt>
      <trkpt lat="42.93455" lon="0.42413">
        <ele>1683</ele>
        <time>2020-08-02T11:10:07Z</time>
      </trkpt>
      <trkpt lat="42.93447" lon="0.4242">
        <ele>1681</ele>
        <time>2020-08-02T11:10:15Z</time>
      </trkpt>
      <trkpt lat="42.93439" lon="0.42427">
        <ele>1683</ele>
        <time>2020-08-02T11:10:22Z</time>
      </trkpt>
      <trkpt lat="42.93431" lon="0.42435">
        <ele>1683</ele>
        <time>2020-08-02T11:10:30Z</time>
      </trkpt>
      <trkpt lat="42.93425" lon="0.42445">
        <ele>1685</ele>
        <time>2020-08-02T11:10:38Z</time>
      </trkpt>
      <trkpt lat="42.93422" lon="0.42457">
        <ele>1686</ele>
        <time>2020-08-02T11:10:46Z</time>
      </trkpt>
      <trkpt lat="42.93419" lon="0.42469">
        <ele>1688</ele>
        <time>2020-08-02T11:10:55Z</time>
      </trkpt>
      <trkpt lat="42.93414" lon="0.42481">
        <ele>1688</ele>
        <time>2020-08-02T11:11:05Z</time>
      </trkpt>
      <trkpt lat="42.9341" lon="0.42494">
        <ele>1686</ele>
        <time>2020-08-02T11:11:13Z</time>
      </trkpt>
      <trkpt lat="42.93405" lon="0.42506">
        <ele>1685</ele>
        <time>2020-08-02T11:11:21Z</time>
      </trkpt>
      <trkpt lat="42.93404" lon="0.42519">
        <ele>1686</ele>
        <time>2020-08-02T11:11:28Z</time>
      </trkpt>
      <trkpt lat="42.93402" lon="0.42532">
        <ele>1687</ele>
        <time>2020-08-02T11:11:35Z</time>
      </trkpt>
      <trkpt lat="42.93399" lon="0.42545">
        <ele>1683</ele>
        <time>2020-08-02T11:11:44Z</time>
      </trkpt>
      <trkpt lat="42.93393" lon="0.42555">
        <ele>1683</ele>
        <time>2020-08-02T11:11:52Z</time>
      </trkpt>
      <trkpt lat="42.93389" lon="0.42566">
        <ele>1680</ele>
        <time>2020-08-02T11:12:04Z</time>
      </trkpt>
      <trkpt lat="42.93383" lon="0.42577">
        <ele>1682</ele>
        <time>2020-08-02T11:12:15Z</time>
      </trkpt>
      <trkpt lat="42.93375" lon="0.42583">
        <ele>1679</ele>
        <time>2020-08-02T11:12:28Z</time>
      </trkpt>
      <trkpt lat="42.93366" lon="0.42585">
        <ele>1680</ele>
        <time>2020-08-02T11:12:39Z</time>
      </trkpt>
      <trkpt lat="42.93356" lon="0.42586">
        <ele>1681</ele>
        <time>2020-08-02T11:12:49Z</time>
      </trkpt>
      <trkpt lat="42.93346" lon="0.42585">
        <ele>1683</ele>
        <time>2020-08-02T11:13:01Z</time>
      </trkpt>
      <trkpt lat="42.93337" lon="0.42586">
        <ele>1687</ele>
        <time>2020-08-02T11:13:14Z</time>
      </trkpt>
      <trkpt lat="42.93327" lon="0.42589">
        <ele>1686</ele>
        <time>2020-08-02T11:13:25Z</time>
      </trkpt>
      <trkpt lat="42.9332" lon="0.42597">
        <ele>1685</ele>
        <time>2020-08-02T11:13:35Z</time>
      </trkpt>
      <trkpt lat="42.93313" lon="0.42606">
        <ele>1688</ele>
        <time>2020-08-02T11:13:43Z</time>
      </trkpt>
      <trkpt lat="42.93307" lon="0.42616">
        <ele>1691</ele>
        <time>2020-08-02T11:13:54Z</time>
      </trkpt>
      <trkpt lat="42.93299" lon="0.42626">
        <ele>1690</ele>
        <time>2020-08-02T11:14:03Z</time>
      </trkpt>
      <trkpt lat="42.93292" lon="0.42635">
        <ele>1688</ele>
        <time>2020-08-02T11:14:12Z</time>
      </trkpt>
      <trkpt lat="42.93287" lon="0.42646">
        <ele>1685</ele>
        <time>2020-08-02T11:14:21Z</time>
      </trkpt>
      <trkpt lat="42.93283" lon="0.42659">
        <ele>1690</ele>
        <time>2020-08-02T11:14:29Z</time>
      </trkpt>
      <trkpt lat="42.9328" lon="0.42672">
        <ele>1688</ele>
        <time>2020-08-02T11:14:37Z</time>
      </trkpt>
      <trkpt lat="42.93277" lon="0.42684">
        <ele>1687</ele>
        <time>2020-08-02T11:14:45Z</time>
      </trkpt>
      <trkpt lat="42.93274" lon="0.42697">
        <ele>1687</ele>
        <time>2020-08-02T11:14:53Z</time>
      </trkpt>
      <trkpt lat="42.93269" lon="0.42707">
        <ele>1688</ele>
        <time>2020-08-02T11:15:02Z</time>
      </trkpt>
      <trkpt lat="42.93261" lon="0.42715">
        <ele>1688</ele>
        <time>2020-08-02T11:15:10Z</time>
      </trkpt>
      <trkpt lat="42.93252" lon="0.42719">
        <ele>1687</ele>
        <time>2020-08-02T11:15:18Z</time>
      </trkpt>
      <trkpt lat="42.93243" lon="0.42722">
        <ele>1688</ele>
        <time>2020-08-02T11:15:26Z</time>
      </trkpt>
      <trkpt lat="42.93233" lon="0.42724">
        <ele>1686</ele>
        <time>2020-08-02T11:15:33Z</time>
      </trkpt>
      <trkpt lat="42.93223" lon="0.4273">
        <ele>1688</ele>
        <time>2020-08-02T11:15:41Z</time>
      </trkpt>
      <trkpt lat="42.93215" lon="0.42737">
        <ele>1688</ele>
        <time>2020-08-02T11:15:50Z</time>
      </trkpt>
      <trkpt lat="42.93209" lon="0.42746">
        <ele>1688</ele>
        <time>2020-08-02T11:15:58Z</time>
      </trkpt>
      <trkpt lat="42.93201" lon="0.42756">
        <ele>1685</ele>
        <time>2020-08-02T11:16:07Z</time>
      </trkpt>
      <trkpt lat="42.93194" lon="0.42766">
        <ele>1689</ele>
        <time>2020-08-02T11:16:15Z</time>
      </trkpt>
      <trkpt lat="42.93188" lon="0.42777">
        <ele>1686</ele>
        <time>2020-08-02T11:16:24Z</time>
      </trkpt>
      <trkpt lat="42.93184" lon="0.42789">
        <ele>1683</ele>
        <time>2020-08-02T11:16:33Z</time>
      </trkpt>
      <trkpt lat="42.93179" lon="0.428">
        <ele>1683</ele>
        <time>2020-08-02T11:16:41Z</time>
      </trkpt>
      <trkpt lat="42.93175" lon="0.42812">
        <ele>1684</ele>
        <time>2020-08-02T11:16:51Z</time>
      </trkpt>
      <trkpt lat="42.9317" lon="0.42823">
        <ele>1686</ele>
        <time>2020-08-02T11:16:59Z</time>
      </trkpt>
      <trkpt lat="42.93164" lon="0.42834">
        <ele>1686</ele>
        <time>2020-08-02T11:17:08Z</time>
      </trkpt>
      <trkpt lat="42.93159" lon="0.42844">
        <ele>1684</ele>
        <time>2020-08-02T11:17:18Z</time>
      </trkpt>
      <trkpt lat="42.93157" lon="0.42858">
        <ele>1683</ele>
        <time>2020-08-02T11:17:33Z</time>
      </trkpt>
      <trkpt lat="42.93152" lon="0.4287">
        <ele>1686</ele>
        <time>2020-08-02T11:17:43Z</time>
      </trkpt>
      <trkpt lat="42.9315" lon="0.42883">
        <ele>1687</ele>
        <time>2020-08-02T11:18:00Z</time>
      </trkpt>
      <trkpt lat="42.93147" lon="0.42895">
        <ele>1686</ele>
        <time>2020-08-02T11:18:09Z</time>
      </trkpt>
      <trkpt lat="42.93146" lon="0.42908">
        <ele>1687</ele>
        <time>2020-08-02T11:18:17Z</time>
      </trkpt>
      <trkpt lat="42.93146" lon="0.42922">
        <ele>1693</ele>
        <time>2020-08-02T11:18:27Z</time>
      </trkpt>
      <trkpt lat="42.93143" lon="0.42934">
        <ele>1692</ele>
        <time>2020-08-02T11:18:35Z</time>
      </trkpt>
      <trkpt lat="42.93138" lon="0.42944">
        <ele>1690</ele>
        <time>2020-08-02T11:18:48Z</time>
      </trkpt>
      <trkpt lat="42.9314" lon="0.42932">
        <ele>1693</ele>
        <time>2020-08-02T11:20:04Z</time>
      </trkpt>
      <trkpt lat="42.93129" lon="0.42926">
        <ele>1682</ele>
        <time>2020-08-02T11:20:48Z</time>
      </trkpt>
      <trkpt lat="42.93121" lon="0.42933">
        <ele>1680</ele>
        <time>2020-08-02T11:21:03Z</time>
      </trkpt>
      <trkpt lat="42.93109" lon="0.42929">
        <ele>1670</ele>
        <time>2020-08-02T11:21:28Z</time>
      </trkpt>
      <trkpt lat="42.93108" lon="0.42916">
        <ele>1671</ele>
        <time>2020-08-02T11:21:32Z</time>
      </trkpt>
      <trkpt lat="42.93109" lon="0.42901">
        <ele>1671</ele>
        <time>2020-08-02T11:21:36Z</time>
      </trkpt>
      <trkpt lat="42.9311" lon="0.42888">
        <ele>1670</ele>
        <time>2020-08-02T11:21:42Z</time>
      </trkpt>
      <trkpt lat="42.93112" lon="0.42875">
        <ele>1670</ele>
        <time>2020-08-02T11:21:49Z</time>
      </trkpt>
      <trkpt lat="42.93116" lon="0.42863">
        <ele>1670</ele>
        <time>2020-08-02T11:21:56Z</time>
      </trkpt>
      <trkpt lat="42.93117" lon="0.42851">
        <ele>1667</ele>
        <time>2020-08-02T11:22:04Z</time>
      </trkpt>
      <trkpt lat="42.93116" lon="0.42837">
        <ele>1665</ele>
        <time>2020-08-02T11:22:13Z</time>
      </trkpt>
      <trkpt lat="42.93115" lon="0.42825">
        <ele>1662</ele>
        <time>2020-08-02T11:22:22Z</time>
      </trkpt>
      <trkpt lat="42.93111" lon="0.42812">
        <ele>1662</ele>
        <time>2020-08-02T11:22:31Z</time>
      </trkpt>
      <trkpt lat="42.93105" lon="0.42801">
        <ele>1662</ele>
        <time>2020-08-02T11:22:39Z</time>
      </trkpt>
      <trkpt lat="42.93098" lon="0.42791">
        <ele>1661</ele>
        <time>2020-08-02T11:22:48Z</time>
      </trkpt>
      <trkpt lat="42.93093" lon="0.42779">
        <ele>1657</ele>
        <time>2020-08-02T11:22:57Z</time>
      </trkpt>
      <trkpt lat="42.9309" lon="0.42767">
        <ele>1654</ele>
        <time>2020-08-02T11:23:06Z</time>
      </trkpt>
      <trkpt lat="42.93087" lon="0.42754">
        <ele>1649</ele>
        <time>2020-08-02T11:23:15Z</time>
      </trkpt>
      <trkpt lat="42.93086" lon="0.4274">
        <ele>1649</ele>
        <time>2020-08-02T11:23:24Z</time>
      </trkpt>
      <trkpt lat="42.93085" lon="0.42727">
        <ele>1647</ele>
        <time>2020-08-02T11:23:33Z</time>
      </trkpt>
      <trkpt lat="42.93087" lon="0.42714">
        <ele>1645</ele>
        <time>2020-08-02T11:23:44Z</time>
      </trkpt>
      <trkpt lat="42.93091" lon="0.42703">
        <ele>1643</ele>
        <time>2020-08-02T11:23:52Z</time>
      </trkpt>
      <trkpt lat="42.93097" lon="0.42694">
        <ele>1640</ele>
        <time>2020-08-02T11:24:00Z</time>
      </trkpt>
      <trkpt lat="42.93104" lon="0.42684">
        <ele>1640</ele>
        <time>2020-08-02T11:24:08Z</time>
      </trkpt>
      <trkpt lat="42.93111" lon="0.42675">
        <ele>1642</ele>
        <time>2020-08-02T11:24:19Z</time>
      </trkpt>
      <trkpt lat="42.93111" lon="0.42662">
        <ele>1637</ele>
        <time>2020-08-02T11:24:28Z</time>
      </trkpt>
      <trkpt lat="42.93112" lon="0.42648">
        <ele>1635</ele>
        <time>2020-08-02T11:24:38Z</time>
      </trkpt>
      <trkpt lat="42.93109" lon="0.42637">
        <ele>1635</ele>
        <time>2020-08-02T11:24:49Z</time>
      </trkpt>
      <trkpt lat="42.93099" lon="0.42642">
        <ele>1636</ele>
        <time>2020-08-02T11:24:57Z</time>
      </trkpt>
      <trkpt lat="42.93091" lon="0.42651">
        <ele>1632</ele>
        <time>2020-08-02T11:25:05Z</time>
      </trkpt>
      <trkpt lat="42.93085" lon="0.42661">
        <ele>1629</ele>
        <time>2020-08-02T11:25:12Z</time>
      </trkpt>
      <trkpt lat="42.9308" lon="0.42672">
        <ele>1632</ele>
        <time>2020-08-02T11:25:18Z</time>
      </trkpt>
      <trkpt lat="42.93069" lon="0.42674">
        <ele>1628</ele>
        <time>2020-08-02T11:25:32Z</time>
      </trkpt>
      <trkpt lat="42.93064" lon="0.42662">
        <ele>1626</ele>
        <time>2020-08-02T11:25:41Z</time>
      </trkpt>
      <trkpt lat="42.93053" lon="0.42668">
        <ele>1620</ele>
        <time>2020-08-02T11:26:05Z</time>
      </trkpt>
      <trkpt lat="42.93049" lon="0.4268">
        <ele>1619</ele>
        <time>2020-08-02T11:26:13Z</time>
      </trkpt>
      <trkpt lat="42.93046" lon="0.42694">
        <ele>1615</ele>
        <time>2020-08-02T11:26:21Z</time>
      </trkpt>
      <trkpt lat="42.93042" lon="0.42706">
        <ele>1609</ele>
        <time>2020-08-02T11:26:29Z</time>
      </trkpt>
      <trkpt lat="42.9304" lon="0.42719">
        <ele>1608</ele>
        <time>2020-08-02T11:26:39Z</time>
      </trkpt>
      <trkpt lat="42.9304" lon="0.42732">
        <ele>1607</ele>
        <time>2020-08-02T11:26:48Z</time>
      </trkpt>
      <trkpt lat="42.93037" lon="0.42745">
        <ele>1607</ele>
        <time>2020-08-02T11:26:58Z</time>
      </trkpt>
      <trkpt lat="42.93025" lon="0.42747">
        <ele>1603</ele>
        <time>2020-08-02T11:27:13Z</time>
      </trkpt>
      <trkpt lat="42.93019" lon="0.42737">
        <ele>1602</ele>
        <time>2020-08-02T11:27:22Z</time>
      </trkpt>
      <trkpt lat="42.93019" lon="0.42724">
        <ele>1602</ele>
        <time>2020-08-02T11:27:29Z</time>
      </trkpt>
      <trkpt lat="42.9302" lon="0.42711">
        <ele>1597</ele>
        <time>2020-08-02T11:27:37Z</time>
      </trkpt>
      <trkpt lat="42.93022" lon="0.42697">
        <ele>1595</ele>
        <time>2020-08-02T11:27:44Z</time>
      </trkpt>
      <trkpt lat="42.93025" lon="0.42684">
        <ele>1594</ele>
        <time>2020-08-02T11:27:50Z</time>
      </trkpt>
      <trkpt lat="42.9303" lon="0.42671">
        <ele>1594</ele>
        <time>2020-08-02T11:27:57Z</time>
      </trkpt>
      <trkpt lat="42.93035" lon="0.4266">
        <ele>1594</ele>
        <time>2020-08-02T11:28:04Z</time>
      </trkpt>
      <trkpt lat="42.93031" lon="0.42643">
        <ele>1597</ele>
        <time>2020-08-02T11:28:19Z</time>
      </trkpt>
      <trkpt lat="42.93023" lon="0.42635">
        <ele>1593</ele>
        <time>2020-08-02T11:28:28Z</time>
      </trkpt>
      <trkpt lat="42.93014" lon="0.42632">
        <ele>1592</ele>
        <time>2020-08-02T11:28:37Z</time>
      </trkpt>
      <trkpt lat="42.93005" lon="0.4263">
        <ele>1587</ele>
        <time>2020-08-02T11:28:45Z</time>
      </trkpt>
      <trkpt lat="42.92995" lon="0.42626">
        <ele>1582</ele>
        <time>2020-08-02T11:28:56Z</time>
      </trkpt>
      <trkpt lat="42.92988" lon="0.42617">
        <ele>1582</ele>
        <time>2020-08-02T11:29:18Z</time>
      </trkpt>
      <trkpt lat="42.92981" lon="0.42608">
        <ele>1575</ele>
        <time>2020-08-02T11:29:30Z</time>
      </trkpt>
      <trkpt lat="42.92972" lon="0.42601">
        <ele>1574</ele>
        <time>2020-08-02T11:29:41Z</time>
      </trkpt>
      <trkpt lat="42.92964" lon="0.42594">
        <ele>1574</ele>
        <time>2020-08-02T11:29:50Z</time>
      </trkpt>
      <trkpt lat="42.92955" lon="0.42588">
        <ele>1567</ele>
        <time>2020-08-02T11:30:00Z</time>
      </trkpt>
      <trkpt lat="42.92948" lon="0.4258">
        <ele>1566</ele>
        <time>2020-08-02T11:30:12Z</time>
      </trkpt>
      <trkpt lat="42.9294" lon="0.42571">
        <ele>1563</ele>
        <time>2020-08-02T11:30:21Z</time>
      </trkpt>
      <trkpt lat="42.92933" lon="0.42561">
        <ele>1565</ele>
        <time>2020-08-02T11:30:31Z</time>
      </trkpt>
      <trkpt lat="42.92926" lon="0.42554">
        <ele>1562</ele>
        <time>2020-08-02T11:30:43Z</time>
      </trkpt>
      <trkpt lat="42.92918" lon="0.42547">
        <ele>1558</ele>
        <time>2020-08-02T11:30:53Z</time>
      </trkpt>
      <trkpt lat="42.92911" lon="0.42538">
        <ele>1551</ele>
        <time>2020-08-02T11:31:03Z</time>
      </trkpt>
      <trkpt lat="42.92905" lon="0.42527">
        <ele>1552</ele>
        <time>2020-08-02T11:31:13Z</time>
      </trkpt>
      <trkpt lat="42.929" lon="0.42515">
        <ele>1553</ele>
        <time>2020-08-02T11:31:22Z</time>
      </trkpt>
      <trkpt lat="42.92896" lon="0.42503">
        <ele>1556</ele>
        <time>2020-08-02T11:31:31Z</time>
      </trkpt>
      <trkpt lat="42.92891" lon="0.42491">
        <ele>1556</ele>
        <time>2020-08-02T11:31:41Z</time>
      </trkpt>
      <trkpt lat="42.92887" lon="0.42479">
        <ele>1557</ele>
        <time>2020-08-02T11:31:51Z</time>
      </trkpt>
      <trkpt lat="42.92884" lon="0.42466">
        <ele>1555</ele>
        <time>2020-08-02T11:32:00Z</time>
      </trkpt>
      <trkpt lat="42.92879" lon="0.42456">
        <ele>1552</ele>
        <time>2020-08-02T11:32:09Z</time>
      </trkpt>
      <trkpt lat="42.92872" lon="0.42446">
        <ele>1549</ele>
        <time>2020-08-02T11:32:17Z</time>
      </trkpt>
      <trkpt lat="42.92867" lon="0.42434">
        <ele>1547</ele>
        <time>2020-08-02T11:32:27Z</time>
      </trkpt>
      <trkpt lat="42.92862" lon="0.42424">
        <ele>1547</ele>
        <time>2020-08-02T11:32:37Z</time>
      </trkpt>
      <trkpt lat="42.92856" lon="0.42413">
        <ele>1543</ele>
        <time>2020-08-02T11:32:47Z</time>
      </trkpt>
      <trkpt lat="42.92853" lon="0.424">
        <ele>1538</ele>
        <time>2020-08-02T11:32:58Z</time>
      </trkpt>
      <trkpt lat="42.92853" lon="0.42386">
        <ele>1537</ele>
        <time>2020-08-02T11:33:07Z</time>
      </trkpt>
      <trkpt lat="42.92853" lon="0.42374">
        <ele>1538</ele>
        <time>2020-08-02T11:33:22Z</time>
      </trkpt>
      <trkpt lat="42.92846" lon="0.42384">
        <ele>1534</ele>
        <time>2020-08-02T11:33:58Z</time>
      </trkpt>
      <trkpt lat="42.92841" lon="0.42395">
        <ele>1537</ele>
        <time>2020-08-02T11:34:05Z</time>
      </trkpt>
      <trkpt lat="42.92837" lon="0.42408">
        <ele>1533</ele>
        <time>2020-08-02T11:34:13Z</time>
      </trkpt>
      <trkpt lat="42.92832" lon="0.4242">
        <ele>1530</ele>
        <time>2020-08-02T11:34:21Z</time>
      </trkpt>
      <trkpt lat="42.92827" lon="0.42433">
        <ele>1527</ele>
        <time>2020-08-02T11:34:28Z</time>
      </trkpt>
      <trkpt lat="42.92825" lon="0.42447">
        <ele>1522</ele>
        <time>2020-08-02T11:34:36Z</time>
      </trkpt>
      <trkpt lat="42.9282" lon="0.42458">
        <ele>1518</ele>
        <time>2020-08-02T11:34:46Z</time>
      </trkpt>
      <trkpt lat="42.92821" lon="0.42472">
        <ele>1515</ele>
        <time>2020-08-02T11:34:54Z</time>
      </trkpt>
      <trkpt lat="42.92823" lon="0.42486">
        <ele>1516</ele>
        <time>2020-08-02T11:35:02Z</time>
      </trkpt>
      <trkpt lat="42.92823" lon="0.42499">
        <ele>1512</ele>
        <time>2020-08-02T11:35:09Z</time>
      </trkpt>
      <trkpt lat="42.92823" lon="0.42512">
        <ele>1508</ele>
        <time>2020-08-02T11:35:19Z</time>
      </trkpt>
      <trkpt lat="42.92825" lon="0.42525">
        <ele>1509</ele>
        <time>2020-08-02T11:35:28Z</time>
      </trkpt>
      <trkpt lat="42.92821" lon="0.42536">
        <ele>1509</ele>
        <time>2020-08-02T11:35:45Z</time>
      </trkpt>
      <trkpt lat="42.9282" lon="0.42548">
        <ele>1509</ele>
        <time>2020-08-02T11:35:52Z</time>
      </trkpt>
      <trkpt lat="42.92822" lon="0.42561">
        <ele>1507</ele>
        <time>2020-08-02T11:36:00Z</time>
      </trkpt>
      <trkpt lat="42.92827" lon="0.42574">
        <ele>1505</ele>
        <time>2020-08-02T11:36:07Z</time>
      </trkpt>
      <trkpt lat="42.92832" lon="0.42586">
        <ele>1503</ele>
        <time>2020-08-02T11:36:15Z</time>
      </trkpt>
      <trkpt lat="42.92836" lon="0.42598">
        <ele>1502</ele>
        <time>2020-08-02T11:36:26Z</time>
      </trkpt>
      <trkpt lat="42.92833" lon="0.4261">
        <ele>1493</ele>
        <time>2020-08-02T11:36:47Z</time>
      </trkpt>
      <trkpt lat="42.92823" lon="0.42614">
        <ele>1490</ele>
        <time>2020-08-02T11:37:05Z</time>
      </trkpt>
      <trkpt lat="42.92814" lon="0.42605">
        <ele>1491</ele>
        <time>2020-08-02T11:37:09Z</time>
      </trkpt>
      <trkpt lat="42.92806" lon="0.42595">
        <ele>1492</ele>
        <time>2020-08-02T11:37:12Z</time>
      </trkpt>
      <trkpt lat="42.92798" lon="0.42582">
        <ele>1492</ele>
        <time>2020-08-02T11:37:16Z</time>
      </trkpt>
      <trkpt lat="42.92792" lon="0.42571">
        <ele>1492</ele>
        <time>2020-08-02T11:37:20Z</time>
      </trkpt>
      <trkpt lat="42.92785" lon="0.42562">
        <ele>1490</ele>
        <time>2020-08-02T11:37:25Z</time>
      </trkpt>
      <trkpt lat="42.9278" lon="0.42551">
        <ele>1490</ele>
        <time>2020-08-02T11:37:32Z</time>
      </trkpt>
      <trkpt lat="42.92777" lon="0.42539">
        <ele>1487</ele>
        <time>2020-08-02T11:37:39Z</time>
      </trkpt>
      <trkpt lat="42.92772" lon="0.42526">
        <ele>1486</ele>
        <time>2020-08-02T11:37:46Z</time>
      </trkpt>
      <trkpt lat="42.92766" lon="0.42514">
        <ele>1480</ele>
        <time>2020-08-02T11:37:54Z</time>
      </trkpt>
      <trkpt lat="42.92758" lon="0.42509">
        <ele>1480</ele>
        <time>2020-08-02T11:38:08Z</time>
      </trkpt>
      <trkpt lat="42.92749" lon="0.42506">
        <ele>1479</ele>
        <time>2020-08-02T11:38:16Z</time>
      </trkpt>
      <trkpt lat="42.92739" lon="0.42505">
        <ele>1475</ele>
        <time>2020-08-02T11:38:24Z</time>
      </trkpt>
      <trkpt lat="42.9273" lon="0.425">
        <ele>1475</ele>
        <time>2020-08-02T11:38:32Z</time>
      </trkpt>
      <trkpt lat="42.92721" lon="0.42493">
        <ele>1468</ele>
        <time>2020-08-02T11:38:42Z</time>
      </trkpt>
      <trkpt lat="42.92714" lon="0.42483">
        <ele>1469</ele>
        <time>2020-08-02T11:38:52Z</time>
      </trkpt>
      <trkpt lat="42.92711" lon="0.42471">
        <ele>1471</ele>
        <time>2020-08-02T11:39:00Z</time>
      </trkpt>
      <trkpt lat="42.92706" lon="0.42458">
        <ele>1469</ele>
        <time>2020-08-02T11:39:08Z</time>
      </trkpt>
      <trkpt lat="42.92702" lon="0.42445">
        <ele>1469</ele>
        <time>2020-08-02T11:39:17Z</time>
      </trkpt>
      <trkpt lat="42.927" lon="0.42432">
        <ele>1468</ele>
        <time>2020-08-02T11:39:24Z</time>
      </trkpt>
      <trkpt lat="42.92702" lon="0.4242">
        <ele>1465</ele>
        <time>2020-08-02T11:39:47Z</time>
      </trkpt>
      <trkpt lat="42.92701" lon="0.42407">
        <ele>1464</ele>
        <time>2020-08-02T11:39:58Z</time>
      </trkpt>
      <trkpt lat="42.92703" lon="0.42395">
        <ele>1459</ele>
        <time>2020-08-02T11:40:04Z</time>
      </trkpt>
      <trkpt lat="42.92706" lon="0.42382">
        <ele>1459</ele>
        <time>2020-08-02T11:40:11Z</time>
      </trkpt>
      <trkpt lat="42.92707" lon="0.42369">
        <ele>1454</ele>
        <time>2020-08-02T11:40:20Z</time>
      </trkpt>
      <trkpt lat="42.92709" lon="0.42356">
        <ele>1454</ele>
        <time>2020-08-02T11:40:28Z</time>
      </trkpt>
      <trkpt lat="42.92713" lon="0.42344">
        <ele>1452</ele>
        <time>2020-08-02T11:40:35Z</time>
      </trkpt>
      <trkpt lat="42.92714" lon="0.4233">
        <ele>1451</ele>
        <time>2020-08-02T11:40:43Z</time>
      </trkpt>
      <trkpt lat="42.92717" lon="0.42318">
        <ele>1449</ele>
        <time>2020-08-02T11:40:51Z</time>
      </trkpt>
      <trkpt lat="42.92722" lon="0.42306">
        <ele>1447</ele>
        <time>2020-08-02T11:40:59Z</time>
      </trkpt>
      <trkpt lat="42.92727" lon="0.42293">
        <ele>1446</ele>
        <time>2020-08-02T11:41:07Z</time>
      </trkpt>
      <trkpt lat="42.92731" lon="0.42281">
        <ele>1439</ele>
        <time>2020-08-02T11:41:15Z</time>
      </trkpt>
      <trkpt lat="42.92736" lon="0.42269">
        <ele>1436</ele>
        <time>2020-08-02T11:41:24Z</time>
      </trkpt>
      <trkpt lat="42.92733" lon="0.4225">
        <ele>1434</ele>
        <time>2020-08-02T11:41:55Z</time>
      </trkpt>
      <trkpt lat="42.92729" lon="0.42238">
        <ele>1434</ele>
        <time>2020-08-02T11:42:03Z</time>
      </trkpt>
      <trkpt lat="42.92722" lon="0.42228">
        <ele>1431</ele>
        <time>2020-08-02T11:42:11Z</time>
      </trkpt>
      <trkpt lat="42.92714" lon="0.42222">
        <ele>1430</ele>
        <time>2020-08-02T11:42:20Z</time>
      </trkpt>
      <trkpt lat="42.92705" lon="0.42214">
        <ele>1430</ele>
        <time>2020-08-02T11:42:29Z</time>
      </trkpt>
      <trkpt lat="42.92698" lon="0.42205">
        <ele>1430</ele>
        <time>2020-08-02T11:42:39Z</time>
      </trkpt>
      <trkpt lat="42.92691" lon="0.42196">
        <ele>1428</ele>
        <time>2020-08-02T11:42:48Z</time>
      </trkpt>
      <trkpt lat="42.92687" lon="0.42184">
        <ele>1430</ele>
        <time>2020-08-02T11:42:57Z</time>
      </trkpt>
      <trkpt lat="42.92682" lon="0.42172">
        <ele>1427</ele>
        <time>2020-08-02T11:43:05Z</time>
      </trkpt>
      <trkpt lat="42.92675" lon="0.42164">
        <ele>1428</ele>
        <time>2020-08-02T11:43:13Z</time>
      </trkpt>
      <trkpt lat="42.9267" lon="0.42154">
        <ele>1427</ele>
        <time>2020-08-02T11:43:20Z</time>
      </trkpt>
      <trkpt lat="42.92666" lon="0.42142">
        <ele>1422</ele>
        <time>2020-08-02T11:43:29Z</time>
      </trkpt>
      <trkpt lat="42.92657" lon="0.42147">
        <ele>1417</ele>
        <time>2020-08-02T11:43:39Z</time>
      </trkpt>
      <trkpt lat="42.92651" lon="0.42156">
        <ele>1414</ele>
        <time>2020-08-02T11:43:47Z</time>
      </trkpt>
      <trkpt lat="42.92646" lon="0.42167">
        <ele>1414</ele>
        <time>2020-08-02T11:43:59Z</time>
      </trkpt>
      <trkpt lat="42.92639" lon="0.42158">
        <ele>1412</ele>
        <time>2020-08-02T11:44:09Z</time>
      </trkpt>
      <trkpt lat="42.92638" lon="0.42145">
        <ele>1409</ele>
        <time>2020-08-02T11:44:15Z</time>
      </trkpt>
      <trkpt lat="42.92639" lon="0.42131">
        <ele>1408</ele>
        <time>2020-08-02T11:44:21Z</time>
      </trkpt>
      <trkpt lat="42.92642" lon="0.42117">
        <ele>1409</ele>
        <time>2020-08-02T11:44:27Z</time>
      </trkpt>
      <trkpt lat="42.92645" lon="0.42105">
        <ele>1405</ele>
        <time>2020-08-02T11:44:35Z</time>
      </trkpt>
      <trkpt lat="42.92649" lon="0.42093">
        <ele>1403</ele>
        <time>2020-08-02T11:44:43Z</time>
      </trkpt>
      <trkpt lat="42.92653" lon="0.42079">
        <ele>1401</ele>
        <time>2020-08-02T11:44:51Z</time>
      </trkpt>
      <trkpt lat="42.92658" lon="0.42068">
        <ele>1401</ele>
        <time>2020-08-02T11:44:59Z</time>
      </trkpt>
      <trkpt lat="42.92664" lon="0.42057">
        <ele>1398</ele>
        <time>2020-08-02T11:45:07Z</time>
      </trkpt>
      <trkpt lat="42.92659" lon="0.42045">
        <ele>1394</ele>
        <time>2020-08-02T11:45:33Z</time>
      </trkpt>
      <trkpt lat="42.9265" lon="0.42046">
        <ele>1393</ele>
        <time>2020-08-02T11:45:45Z</time>
      </trkpt>
      <trkpt lat="42.9264" lon="0.42049">
        <ele>1392</ele>
        <time>2020-08-02T11:45:52Z</time>
      </trkpt>
      <trkpt lat="42.92633" lon="0.42057">
        <ele>1390</ele>
        <time>2020-08-02T11:45:58Z</time>
      </trkpt>
      <trkpt lat="42.92626" lon="0.42066">
        <ele>1391</ele>
        <time>2020-08-02T11:46:03Z</time>
      </trkpt>
      <trkpt lat="42.9262" lon="0.42077">
        <ele>1387</ele>
        <time>2020-08-02T11:46:08Z</time>
      </trkpt>
      <trkpt lat="42.92613" lon="0.42088">
        <ele>1387</ele>
        <time>2020-08-02T11:46:15Z</time>
      </trkpt>
      <trkpt lat="42.92606" lon="0.42096">
        <ele>1384</ele>
        <time>2020-08-02T11:46:22Z</time>
      </trkpt>
      <trkpt lat="42.926" lon="0.42106">
        <ele>1387</ele>
        <time>2020-08-02T11:46:29Z</time>
      </trkpt>
      <trkpt lat="42.92593" lon="0.42116">
        <ele>1385</ele>
        <time>2020-08-02T11:46:36Z</time>
      </trkpt>
      <trkpt lat="42.92587" lon="0.42125">
        <ele>1382</ele>
        <time>2020-08-02T11:46:44Z</time>
      </trkpt>
      <trkpt lat="42.92579" lon="0.42133">
        <ele>1382</ele>
        <time>2020-08-02T11:46:52Z</time>
      </trkpt>
      <trkpt lat="42.92577" lon="0.42146">
        <ele>1377</ele>
        <time>2020-08-02T11:47:01Z</time>
      </trkpt>
      <trkpt lat="42.92577" lon="0.4216">
        <ele>1376</ele>
        <time>2020-08-02T11:47:10Z</time>
      </trkpt>
      <trkpt lat="42.92574" lon="0.42173">
        <ele>1374</ele>
        <time>2020-08-02T11:47:19Z</time>
      </trkpt>
      <trkpt lat="42.9257" lon="0.42185">
        <ele>1372</ele>
        <time>2020-08-02T11:47:28Z</time>
      </trkpt>
      <trkpt lat="42.92562" lon="0.42194">
        <ele>1371</ele>
        <time>2020-08-02T11:47:36Z</time>
      </trkpt>
      <trkpt lat="42.92556" lon="0.42204">
        <ele>1369</ele>
        <time>2020-08-02T11:47:44Z</time>
      </trkpt>
      <trkpt lat="42.92546" lon="0.42207">
        <ele>1369</ele>
        <time>2020-08-02T11:47:55Z</time>
      </trkpt>
      <trkpt lat="42.92538" lon="0.422">
        <ele>1362</ele>
        <time>2020-08-02T11:48:05Z</time>
      </trkpt>
      <trkpt lat="42.92532" lon="0.42191">
        <ele>1361</ele>
        <time>2020-08-02T11:48:20Z</time>
      </trkpt>
      <trkpt lat="42.92527" lon="0.42202">
        <ele>1360</ele>
        <time>2020-08-02T11:48:31Z</time>
      </trkpt>
      <trkpt lat="42.92528" lon="0.42217">
        <ele>1361</ele>
        <time>2020-08-02T11:48:41Z</time>
      </trkpt>
      <trkpt lat="42.92516" lon="0.42212">
        <ele>1357</ele>
        <time>2020-08-02T11:49:04Z</time>
      </trkpt>
      <trkpt lat="42.92508" lon="0.42203">
        <ele>1350</ele>
        <time>2020-08-02T11:49:33Z</time>
      </trkpt>
      <trkpt lat="42.92506" lon="0.4219">
        <ele>1348</ele>
        <time>2020-08-02T11:49:43Z</time>
      </trkpt>
      <trkpt lat="42.92496" lon="0.42183">
        <ele>1345</ele>
        <time>2020-08-02T11:49:57Z</time>
      </trkpt>
      <trkpt lat="42.92488" lon="0.42179">
        <ele>1339</ele>
        <time>2020-08-02T11:50:40Z</time>
      </trkpt>
      <trkpt lat="42.92486" lon="0.42166">
        <ele>1337</ele>
        <time>2020-08-02T11:50:47Z</time>
      </trkpt>
      <trkpt lat="42.92483" lon="0.42148">
        <ele>1335</ele>
        <time>2020-08-02T11:51:13Z</time>
      </trkpt>
      <trkpt lat="42.92491" lon="0.42156">
        <ele>1336</ele>
        <time>2020-08-02T11:51:37Z</time>
      </trkpt>
      <trkpt lat="42.92486" lon="0.42146">
        <ele>1331</ele>
        <time>2020-08-02T11:51:59Z</time>
      </trkpt>
      <trkpt lat="42.92484" lon="0.42132">
        <ele>1324</ele>
        <time>2020-08-02T11:52:08Z</time>
      </trkpt>
      <trkpt lat="42.92482" lon="0.42119">
        <ele>1321</ele>
        <time>2020-08-02T11:52:15Z</time>
      </trkpt>
      <trkpt lat="42.92478" lon="0.42106">
        <ele>1319</ele>
        <time>2020-08-02T11:52:23Z</time>
      </trkpt>
      <trkpt lat="42.92476" lon="0.42093">
        <ele>1320</ele>
        <time>2020-08-02T11:52:31Z</time>
      </trkpt>
      <trkpt lat="42.92473" lon="0.42079">
        <ele>1318</ele>
        <time>2020-08-02T11:52:38Z</time>
      </trkpt>
      <trkpt lat="42.92479" lon="0.42064">
        <ele>1313</ele>
        <time>2020-08-02T11:52:53Z</time>
      </trkpt>
      <trkpt lat="42.92484" lon="0.42052">
        <ele>1311</ele>
        <time>2020-08-02T11:53:01Z</time>
      </trkpt>
      <trkpt lat="42.92489" lon="0.42042">
        <ele>1307</ele>
        <time>2020-08-02T11:53:13Z</time>
      </trkpt>
      <trkpt lat="42.92492" lon="0.42029">
        <ele>1302</ele>
        <time>2020-08-02T11:53:23Z</time>
      </trkpt>
      <trkpt lat="42.92486" lon="0.42019">
        <ele>1302</ele>
        <time>2020-08-02T11:53:30Z</time>
      </trkpt>
      <trkpt lat="42.92476" lon="0.42017">
        <ele>1299</ele>
        <time>2020-08-02T11:53:39Z</time>
      </trkpt>
      <trkpt lat="42.92466" lon="0.42014">
        <ele>1297</ele>
        <time>2020-08-02T11:53:47Z</time>
      </trkpt>
      <trkpt lat="42.92456" lon="0.42016">
        <ele>1293</ele>
        <time>2020-08-02T11:53:54Z</time>
      </trkpt>
      <trkpt lat="42.92446" lon="0.42019">
        <ele>1293</ele>
        <time>2020-08-02T11:54:00Z</time>
      </trkpt>
      <trkpt lat="42.92438" lon="0.42026">
        <ele>1293</ele>
        <time>2020-08-02T11:54:07Z</time>
      </trkpt>
      <trkpt lat="42.92431" lon="0.42034">
        <ele>1293</ele>
        <time>2020-08-02T11:54:12Z</time>
      </trkpt>
      <trkpt lat="42.92424" lon="0.42047">
        <ele>1291</ele>
        <time>2020-08-02T11:54:18Z</time>
      </trkpt>
      <trkpt lat="42.9242" lon="0.42061">
        <ele>1290</ele>
        <time>2020-08-02T11:54:25Z</time>
      </trkpt>
      <trkpt lat="42.92414" lon="0.42071">
        <ele>1287</ele>
        <time>2020-08-02T11:54:33Z</time>
      </trkpt>
      <trkpt lat="42.92407" lon="0.42082">
        <ele>1288</ele>
        <time>2020-08-02T11:54:41Z</time>
      </trkpt>
      <trkpt lat="42.92403" lon="0.42094">
        <ele>1287</ele>
        <time>2020-08-02T11:54:51Z</time>
      </trkpt>
      <trkpt lat="42.92398" lon="0.42082">
        <ele>1283</ele>
        <time>2020-08-02T11:55:25Z</time>
      </trkpt>
      <trkpt lat="42.92392" lon="0.42073">
        <ele>1280</ele>
        <time>2020-08-02T11:55:48Z</time>
      </trkpt>
      <trkpt lat="42.92402" lon="0.42069">
        <ele>1279</ele>
        <time>2020-08-02T11:56:12Z</time>
      </trkpt>
      <trkpt lat="42.92406" lon="0.42057">
        <ele>1271</ele>
        <time>2020-08-02T12:01:35Z</time>
      </trkpt>
      <trkpt lat="42.92408" lon="0.42043">
        <ele>1266</ele>
        <time>2020-08-02T12:01:40Z</time>
      </trkpt>
      <trkpt lat="42.92411" lon="0.42028">
        <ele>1265</ele>
        <time>2020-08-02T12:01:46Z</time>
      </trkpt>
      <trkpt lat="42.92415" lon="0.42016">
        <ele>1264</ele>
        <time>2020-08-02T12:01:51Z</time>
      </trkpt>
      <trkpt lat="42.92418" lon="0.42003">
        <ele>1260</ele>
        <time>2020-08-02T12:01:58Z</time>
      </trkpt>
      <trkpt lat="42.92421" lon="0.41989">
        <ele>1260</ele>
        <time>2020-08-02T12:02:06Z</time>
      </trkpt>
      <trkpt lat="42.92424" lon="0.41976">
        <ele>1256</ele>
        <time>2020-08-02T12:02:15Z</time>
      </trkpt>
      <trkpt lat="42.92425" lon="0.41963">
        <ele>1257</ele>
        <time>2020-08-02T12:02:23Z</time>
      </trkpt>
      <trkpt lat="42.92426" lon="0.4195">
        <ele>1259</ele>
        <time>2020-08-02T12:02:32Z</time>
      </trkpt>
      <trkpt lat="42.9243" lon="0.41938">
        <ele>1257</ele>
        <time>2020-08-02T12:02:41Z</time>
      </trkpt>
      <trkpt lat="42.92436" lon="0.41929">
        <ele>1258</ele>
        <time>2020-08-02T12:02:49Z</time>
      </trkpt>
      <trkpt lat="42.92444" lon="0.41921">
        <ele>1257</ele>
        <time>2020-08-02T12:02:58Z</time>
      </trkpt>
      <trkpt lat="42.92451" lon="0.41905">
        <ele>1251</ele>
        <time>2020-08-02T12:03:24Z</time>
      </trkpt>
      <trkpt lat="42.92447" lon="0.41887">
        <ele>1256</ele>
        <time>2020-08-02T12:03:38Z</time>
      </trkpt>
      <trkpt lat="42.92441" lon="0.41877">
        <ele>1254</ele>
        <time>2020-08-02T12:03:43Z</time>
      </trkpt>
      <trkpt lat="42.92434" lon="0.41866">
        <ele>1254</ele>
        <time>2020-08-02T12:03:47Z</time>
      </trkpt>
      <trkpt lat="42.92427" lon="0.41857">
        <ele>1251</ele>
        <time>2020-08-02T12:03:53Z</time>
      </trkpt>
      <trkpt lat="42.92418" lon="0.41852">
        <ele>1250</ele>
        <time>2020-08-02T12:03:59Z</time>
      </trkpt>
      <trkpt lat="42.92409" lon="0.41849">
        <ele>1251</ele>
        <time>2020-08-02T12:04:05Z</time>
      </trkpt>
      <trkpt lat="42.92399" lon="0.41846">
        <ele>1251</ele>
        <time>2020-08-02T12:04:12Z</time>
      </trkpt>
      <trkpt lat="42.92388" lon="0.41843">
        <ele>1250</ele>
        <time>2020-08-02T12:04:19Z</time>
      </trkpt>
      <trkpt lat="42.92379" lon="0.41838">
        <ele>1251</ele>
        <time>2020-08-02T12:04:26Z</time>
      </trkpt>
      <trkpt lat="42.92372" lon="0.41828">
        <ele>1250</ele>
        <time>2020-08-02T12:04:33Z</time>
      </trkpt>
      <trkpt lat="42.92368" lon="0.41815">
        <ele>1249</ele>
        <time>2020-08-02T12:04:41Z</time>
      </trkpt>
      <trkpt lat="42.92364" lon="0.41803">
        <ele>1241</ele>
        <time>2020-08-02T12:04:49Z</time>
      </trkpt>
      <trkpt lat="42.9236" lon="0.41792">
        <ele>1238</ele>
        <time>2020-08-02T12:04:57Z</time>
      </trkpt>
      <trkpt lat="42.92358" lon="0.41778">
        <ele>1233</ele>
        <time>2020-08-02T12:05:06Z</time>
      </trkpt>
      <trkpt lat="42.92357" lon="0.41763">
        <ele>1227</ele>
        <time>2020-08-02T12:05:15Z</time>
      </trkpt>
      <trkpt lat="42.92357" lon="0.4175">
        <ele>1231</ele>
        <time>2020-08-02T12:05:24Z</time>
      </trkpt>
      <trkpt lat="42.92354" lon="0.41737">
        <ele>1234</ele>
        <time>2020-08-02T12:05:33Z</time>
      </trkpt>
      <trkpt lat="42.92353" lon="0.41725">
        <ele>1230</ele>
        <time>2020-08-02T12:05:41Z</time>
      </trkpt>
      <trkpt lat="42.92358" lon="0.41712">
        <ele>1230</ele>
        <time>2020-08-02T12:06:18Z</time>
      </trkpt>
      <trkpt lat="42.9236" lon="0.41699">
        <ele>1225</ele>
        <time>2020-08-02T12:06:31Z</time>
      </trkpt>
      <trkpt lat="42.92362" lon="0.41686">
        <ele>1225</ele>
        <time>2020-08-02T12:06:40Z</time>
      </trkpt>
      <trkpt lat="42.92365" lon="0.41673">
        <ele>1226</ele>
        <time>2020-08-02T12:06:48Z</time>
      </trkpt>
      <trkpt lat="42.92369" lon="0.4166">
        <ele>1225</ele>
        <time>2020-08-02T12:06:56Z</time>
      </trkpt>
      <trkpt lat="42.92371" lon="0.41647">
        <ele>1229</ele>
        <time>2020-08-02T12:07:10Z</time>
      </trkpt>
      <trkpt lat="42.92369" lon="0.41634">
        <ele>1231</ele>
        <time>2020-08-02T12:07:19Z</time>
      </trkpt>
      <trkpt lat="42.92363" lon="0.41622">
        <ele>1230</ele>
        <time>2020-08-02T12:07:27Z</time>
      </trkpt>
      <trkpt lat="42.92354" lon="0.41615">
        <ele>1233</ele>
        <time>2020-08-02T12:07:34Z</time>
      </trkpt>
      <trkpt lat="42.92345" lon="0.41609">
        <ele>1235</ele>
        <time>2020-08-02T12:07:43Z</time>
      </trkpt>
      <trkpt lat="42.92338" lon="0.416">
        <ele>1236</ele>
        <time>2020-08-02T12:07:51Z</time>
      </trkpt>
      <trkpt lat="42.9233" lon="0.41593">
        <ele>1232</ele>
        <time>2020-08-02T12:08:15Z</time>
      </trkpt>
      <trkpt lat="42.92321" lon="0.41588">
        <ele>1235</ele>
        <time>2020-08-02T12:08:25Z</time>
      </trkpt>
      <trkpt lat="42.92314" lon="0.41578">
        <ele>1235</ele>
        <time>2020-08-02T12:08:33Z</time>
      </trkpt>
      <trkpt lat="42.92309" lon="0.41568">
        <ele>1230</ele>
        <time>2020-08-02T12:08:41Z</time>
      </trkpt>
      <trkpt lat="42.92308" lon="0.41555">
        <ele>1229</ele>
        <time>2020-08-02T12:08:56Z</time>
      </trkpt>
      <trkpt lat="42.92312" lon="0.41543">
        <ele>1226</ele>
        <time>2020-08-02T12:09:09Z</time>
      </trkpt>
      <trkpt lat="42.92318" lon="0.41531">
        <ele>1223</ele>
        <time>2020-08-02T12:09:17Z</time>
      </trkpt>
      <trkpt lat="42.92324" lon="0.4152">
        <ele>1223</ele>
        <time>2020-08-02T12:09:24Z</time>
      </trkpt>
      <trkpt lat="42.9233" lon="0.41509">
        <ele>1219</ele>
        <time>2020-08-02T12:09:31Z</time>
      </trkpt>
      <trkpt lat="42.92337" lon="0.41502">
        <ele>1216</ele>
        <time>2020-08-02T12:09:40Z</time>
      </trkpt>
      <trkpt lat="42.92344" lon="0.41494">
        <ele>1211</ele>
        <time>2020-08-02T12:09:49Z</time>
      </trkpt>
      <trkpt lat="42.9235" lon="0.41482">
        <ele>1210</ele>
        <time>2020-08-02T12:09:59Z</time>
      </trkpt>
      <trkpt lat="42.92358" lon="0.41474">
        <ele>1211</ele>
        <time>2020-08-02T12:10:07Z</time>
      </trkpt>
      <trkpt lat="42.92366" lon="0.41466">
        <ele>1208</ele>
        <time>2020-08-02T12:10:15Z</time>
      </trkpt>
      <trkpt lat="42.92374" lon="0.41458">
        <ele>1209</ele>
        <time>2020-08-02T12:10:24Z</time>
      </trkpt>
      <trkpt lat="42.92381" lon="0.41448">
        <ele>1208</ele>
        <time>2020-08-02T12:10:31Z</time>
      </trkpt>
      <trkpt lat="42.92388" lon="0.41438">
        <ele>1210</ele>
        <time>2020-08-02T12:10:40Z</time>
      </trkpt>
      <trkpt lat="42.92392" lon="0.41426">
        <ele>1213</ele>
        <time>2020-08-02T12:10:48Z</time>
      </trkpt>
      <trkpt lat="42.92396" lon="0.41413">
        <ele>1207</ele>
        <time>2020-08-02T12:10:57Z</time>
      </trkpt>
      <trkpt lat="42.924" lon="0.414">
        <ele>1203</ele>
        <time>2020-08-02T12:11:05Z</time>
      </trkpt>
      <trkpt lat="42.92407" lon="0.41389">
        <ele>1207</ele>
        <time>2020-08-02T12:11:14Z</time>
      </trkpt>
      <trkpt lat="42.92415" lon="0.4138">
        <ele>1206</ele>
        <time>2020-08-02T12:11:22Z</time>
      </trkpt>
      <trkpt lat="42.9242" lon="0.41368">
        <ele>1204</ele>
        <time>2020-08-02T12:11:31Z</time>
      </trkpt>
      <trkpt lat="42.92422" lon="0.41355">
        <ele>1203</ele>
        <time>2020-08-02T12:11:37Z</time>
      </trkpt>
      <trkpt lat="42.92424" lon="0.41343">
        <ele>1203</ele>
        <time>2020-08-02T12:11:45Z</time>
      </trkpt>
      <trkpt lat="42.92428" lon="0.41332">
        <ele>1206</ele>
        <time>2020-08-02T12:11:54Z</time>
      </trkpt>
      <trkpt lat="42.92438" lon="0.41326">
        <ele>1201</ele>
        <time>2020-08-02T12:12:03Z</time>
      </trkpt>
      <trkpt lat="42.92448" lon="0.41324">
        <ele>1204</ele>
        <time>2020-08-02T12:12:11Z</time>
      </trkpt>
      <trkpt lat="42.92457" lon="0.41321">
        <ele>1199</ele>
        <time>2020-08-02T12:12:19Z</time>
      </trkpt>
      <trkpt lat="42.92465" lon="0.41313">
        <ele>1196</ele>
        <time>2020-08-02T12:12:27Z</time>
      </trkpt>
      <trkpt lat="42.9247" lon="0.41301">
        <ele>1200</ele>
        <time>2020-08-02T12:12:35Z</time>
      </trkpt>
      <trkpt lat="42.92471" lon="0.41288">
        <ele>1201</ele>
        <time>2020-08-02T12:12:42Z</time>
      </trkpt>
      <trkpt lat="42.92468" lon="0.41275">
        <ele>1201</ele>
        <time>2020-08-02T12:12:48Z</time>
      </trkpt>
      <trkpt lat="42.92465" lon="0.41263">
        <ele>1201</ele>
        <time>2020-08-02T12:12:53Z</time>
      </trkpt>
      <trkpt lat="42.92461" lon="0.41249">
        <ele>1201</ele>
        <time>2020-08-02T12:13:00Z</time>
      </trkpt>
      <trkpt lat="42.92456" lon="0.41235">
        <ele>1204</ele>
        <time>2020-08-02T12:13:06Z</time>
      </trkpt>
      <trkpt lat="42.92451" lon="0.41223">
        <ele>1202</ele>
        <time>2020-08-02T12:13:13Z</time>
      </trkpt>
      <trkpt lat="42.92447" lon="0.41212">
        <ele>1200</ele>
        <time>2020-08-02T12:13:20Z</time>
      </trkpt>
      <trkpt lat="42.9244" lon="0.41203">
        <ele>1197</ele>
        <time>2020-08-02T12:13:27Z</time>
      </trkpt>
      <trkpt lat="42.92432" lon="0.41191">
        <ele>1191</ele>
        <time>2020-08-02T12:13:34Z</time>
      </trkpt>
      <trkpt lat="42.92427" lon="0.41181">
        <ele>1197</ele>
        <time>2020-08-02T12:13:41Z</time>
      </trkpt>
      <trkpt lat="42.92424" lon="0.41169">
        <ele>1199</ele>
        <time>2020-08-02T12:13:48Z</time>
      </trkpt>
      <trkpt lat="42.92423" lon="0.41156">
        <ele>1196</ele>
        <time>2020-08-02T12:13:56Z</time>
      </trkpt>
      <trkpt lat="42.92423" lon="0.41143">
        <ele>1196</ele>
        <time>2020-08-02T12:14:03Z</time>
      </trkpt>
      <trkpt lat="42.92422" lon="0.41129">
        <ele>1195</ele>
        <time>2020-08-02T12:14:12Z</time>
      </trkpt>
      <trkpt lat="42.92423" lon="0.41115">
        <ele>1193</ele>
        <time>2020-08-02T12:14:20Z</time>
      </trkpt>
      <trkpt lat="42.92425" lon="0.41102">
        <ele>1195</ele>
        <time>2020-08-02T12:14:28Z</time>
      </trkpt>
      <trkpt lat="42.92427" lon="0.4109">
        <ele>1191</ele>
        <time>2020-08-02T12:14:37Z</time>
      </trkpt>
      <trkpt lat="42.92429" lon="0.41076">
        <ele>1189</ele>
        <time>2020-08-02T12:14:46Z</time>
      </trkpt>
      <trkpt lat="42.92434" lon="0.41063">
        <ele>1182</ele>
        <time>2020-08-02T12:14:55Z</time>
      </trkpt>
      <trkpt lat="42.92437" lon="0.4105">
        <ele>1185</ele>
        <time>2020-08-02T12:15:03Z</time>
      </trkpt>
      <trkpt lat="42.92437" lon="0.41036">
        <ele>1176</ele>
        <time>2020-08-02T12:15:12Z</time>
      </trkpt>
      <trkpt lat="42.92436" lon="0.41023">
        <ele>1173</ele>
        <time>2020-08-02T12:15:21Z</time>
      </trkpt>
      <trkpt lat="42.92437" lon="0.4101">
        <ele>1171</ele>
        <time>2020-08-02T12:15:29Z</time>
      </trkpt>
      <trkpt lat="42.9244" lon="0.40997">
        <ele>1171</ele>
        <time>2020-08-02T12:15:38Z</time>
      </trkpt>
      <trkpt lat="42.92439" lon="0.4101">
        <ele>1169</ele>
        <time>2020-08-02T12:16:50Z</time>
      </trkpt>
      <trkpt lat="42.92448" lon="0.41008">
        <ele>1173</ele>
        <time>2020-08-02T12:19:19Z</time>
      </trkpt>
      <trkpt lat="42.92455" lon="0.40994">
        <ele>1169</ele>
        <time>2020-08-02T12:19:24Z</time>
      </trkpt>
      <trkpt lat="42.92459" lon="0.40981">
        <ele>1167</ele>
        <time>2020-08-02T12:19:28Z</time>
      </trkpt>
      <trkpt lat="42.92459" lon="0.40968">
        <ele>1168</ele>
        <time>2020-08-02T12:19:37Z</time>
      </trkpt>
      <trkpt lat="42.9245" lon="0.40965">
        <ele>1170</ele>
        <time>2020-08-02T12:19:52Z</time>
      </trkpt>
      <trkpt lat="42.92458" lon="0.40958">
        <ele>1167</ele>
        <time>2020-08-02T12:21:11Z</time>
      </trkpt>
      <trkpt lat="42.92445" lon="0.40956">
        <ele>1158</ele>
        <time>2020-08-02T12:22:25Z</time>
      </trkpt>
      <trkpt lat="42.92446" lon="0.40939">
        <ele>1151</ele>
        <time>2020-08-02T12:22:36Z</time>
      </trkpt>
      <trkpt lat="42.9245" lon="0.40926">
        <ele>1150</ele>
        <time>2020-08-02T12:22:42Z</time>
      </trkpt>
      <trkpt lat="42.92455" lon="0.40912">
        <ele>1146</ele>
        <time>2020-08-02T12:22:48Z</time>
      </trkpt>
      <trkpt lat="42.92459" lon="0.40899">
        <ele>1145</ele>
        <time>2020-08-02T12:22:56Z</time>
      </trkpt>
      <trkpt lat="42.92466" lon="0.4089">
        <ele>1145</ele>
        <time>2020-08-02T12:23:06Z</time>
      </trkpt>
      <trkpt lat="42.9247" lon="0.40879">
        <ele>1148</ele>
        <time>2020-08-02T12:23:16Z</time>
      </trkpt>
      <trkpt lat="42.92478" lon="0.4087">
        <ele>1145</ele>
        <time>2020-08-02T12:23:24Z</time>
      </trkpt>
      <trkpt lat="42.92487" lon="0.40864">
        <ele>1147</ele>
        <time>2020-08-02T12:23:31Z</time>
      </trkpt>
      <trkpt lat="42.92496" lon="0.40858">
        <ele>1143</ele>
        <time>2020-08-02T12:23:39Z</time>
      </trkpt>
      <trkpt lat="42.92503" lon="0.40847">
        <ele>1146</ele>
        <time>2020-08-02T12:23:50Z</time>
      </trkpt>
      <trkpt lat="42.92512" lon="0.40841">
        <ele>1144</ele>
        <time>2020-08-02T12:23:57Z</time>
      </trkpt>
      <trkpt lat="42.92519" lon="0.40833">
        <ele>1141</ele>
        <time>2020-08-02T12:24:06Z</time>
      </trkpt>
      <trkpt lat="42.92525" lon="0.40821">
        <ele>1138</ele>
        <time>2020-08-02T12:24:14Z</time>
      </trkpt>
      <trkpt lat="42.92529" lon="0.40809">
        <ele>1135</ele>
        <time>2020-08-02T12:24:23Z</time>
      </trkpt>
      <trkpt lat="42.92535" lon="0.40798">
        <ele>1133</ele>
        <time>2020-08-02T12:24:31Z</time>
      </trkpt>
      <trkpt lat="42.92541" lon="0.40788">
        <ele>1127</ele>
        <time>2020-08-02T12:24:40Z</time>
      </trkpt>
      <trkpt lat="42.92546" lon="0.40777">
        <ele>1123</ele>
        <time>2020-08-02T12:24:49Z</time>
      </trkpt>
      <trkpt lat="42.92552" lon="0.40766">
        <ele>1123</ele>
        <time>2020-08-02T12:24:57Z</time>
      </trkpt>
      <trkpt lat="42.9256" lon="0.40759">
        <ele>1120</ele>
        <time>2020-08-02T12:25:07Z</time>
      </trkpt>
      <trkpt lat="42.9257" lon="0.40756">
        <ele>1120</ele>
        <time>2020-08-02T12:25:17Z</time>
      </trkpt>
      <trkpt lat="42.92579" lon="0.40753">
        <ele>1120</ele>
        <time>2020-08-02T12:25:27Z</time>
      </trkpt>
      <trkpt lat="42.92588" lon="0.40752">
        <ele>1119</ele>
        <time>2020-08-02T12:25:36Z</time>
      </trkpt>
      <trkpt lat="42.92598" lon="0.40753">
        <ele>1114</ele>
        <time>2020-08-02T12:25:44Z</time>
      </trkpt>
      <trkpt lat="42.92605" lon="0.40746">
        <ele>1114</ele>
        <time>2020-08-02T12:25:53Z</time>
      </trkpt>
      <trkpt lat="42.92609" lon="0.40733">
        <ele>1113</ele>
        <time>2020-08-02T12:26:01Z</time>
      </trkpt>
      <trkpt lat="42.92609" lon="0.4072">
        <ele>1111</ele>
        <time>2020-08-02T12:26:07Z</time>
      </trkpt>
      <trkpt lat="42.92604" lon="0.40708">
        <ele>1109</ele>
        <time>2020-08-02T12:26:13Z</time>
      </trkpt>
      <trkpt lat="42.92598" lon="0.40696">
        <ele>1106</ele>
        <time>2020-08-02T12:26:19Z</time>
      </trkpt>
      <trkpt lat="42.92592" lon="0.40686">
        <ele>1104</ele>
        <time>2020-08-02T12:26:25Z</time>
      </trkpt>
      <trkpt lat="42.92584" lon="0.40676">
        <ele>1103</ele>
        <time>2020-08-02T12:26:33Z</time>
      </trkpt>
      <trkpt lat="42.92576" lon="0.40667">
        <ele>1105</ele>
        <time>2020-08-02T12:26:40Z</time>
      </trkpt>
      <trkpt lat="42.9257" lon="0.40655">
        <ele>1106</ele>
        <time>2020-08-02T12:26:49Z</time>
      </trkpt>
      <trkpt lat="42.92566" lon="0.40643">
        <ele>1105</ele>
        <time>2020-08-02T12:26:58Z</time>
      </trkpt>
      <trkpt lat="42.92563" lon="0.40631">
        <ele>1102</ele>
        <time>2020-08-02T12:27:08Z</time>
      </trkpt>
      <trkpt lat="42.92557" lon="0.4062">
        <ele>1099</ele>
        <time>2020-08-02T12:27:18Z</time>
      </trkpt>
      <trkpt lat="42.92552" lon="0.40609">
        <ele>1105</ele>
        <time>2020-08-02T12:27:57Z</time>
      </trkpt>
      <trkpt lat="42.9255" lon="0.40597">
        <ele>1109</ele>
        <time>2020-08-02T12:28:05Z</time>
      </trkpt>
      <trkpt lat="42.92543" lon="0.40585">
        <ele>1108</ele>
        <time>2020-08-02T12:28:13Z</time>
      </trkpt>
      <trkpt lat="42.92535" lon="0.40575">
        <ele>1113</ele>
        <time>2020-08-02T12:28:19Z</time>
      </trkpt>
      <trkpt lat="42.92531" lon="0.40564">
        <ele>1110</ele>
        <time>2020-08-02T12:29:08Z</time>
      </trkpt>
      <trkpt lat="42.92529" lon="0.40551">
        <ele>1111</ele>
        <time>2020-08-02T12:29:20Z</time>
      </trkpt>
      <trkpt lat="42.92522" lon="0.40542">
        <ele>1111</ele>
        <time>2020-08-02T12:29:28Z</time>
      </trkpt>
      <trkpt lat="42.92516" lon="0.4053">
        <ele>1108</ele>
        <time>2020-08-02T12:29:35Z</time>
      </trkpt>
      <trkpt lat="42.92512" lon="0.40518">
        <ele>1106</ele>
        <time>2020-08-02T12:29:44Z</time>
      </trkpt>
      <trkpt lat="42.9251" lon="0.40506">
        <ele>1099</ele>
        <time>2020-08-02T12:31:08Z</time>
      </trkpt>
      <trkpt lat="42.92511" lon="0.40487">
        <ele>1095</ele>
        <time>2020-08-02T12:31:18Z</time>
      </trkpt>
      <trkpt lat="42.92515" lon="0.40475">
        <ele>1099</ele>
        <time>2020-08-02T12:31:27Z</time>
      </trkpt>
      <trkpt lat="42.9252" lon="0.40464">
        <ele>1101</ele>
        <time>2020-08-02T12:31:35Z</time>
      </trkpt>
      <trkpt lat="42.92523" lon="0.40451">
        <ele>1102</ele>
        <time>2020-08-02T12:31:42Z</time>
      </trkpt>
      <trkpt lat="42.92526" lon="0.40438">
        <ele>1103</ele>
        <time>2020-08-02T12:31:48Z</time>
      </trkpt>
      <trkpt lat="42.92525" lon="0.40423">
        <ele>1104</ele>
        <time>2020-08-02T12:31:56Z</time>
      </trkpt>
      <trkpt lat="42.92526" lon="0.40409">
        <ele>1104</ele>
        <time>2020-08-02T12:32:03Z</time>
      </trkpt>
      <trkpt lat="42.92526" lon="0.40396">
        <ele>1101</ele>
        <time>2020-08-02T12:32:10Z</time>
      </trkpt>
      <trkpt lat="42.92538" lon="0.40386">
        <ele>1095</ele>
        <time>2020-08-02T12:32:48Z</time>
      </trkpt>
      <trkpt lat="42.92543" lon="0.40375">
        <ele>1093</ele>
        <time>2020-08-02T12:33:02Z</time>
      </trkpt>
      <trkpt lat="42.92551" lon="0.40368">
        <ele>1091</ele>
        <time>2020-08-02T12:33:20Z</time>
      </trkpt>
      <trkpt lat="42.92558" lon="0.40353">
        <ele>1089</ele>
        <time>2020-08-02T12:36:50Z</time>
      </trkpt>
      <trkpt lat="42.92549" lon="0.40348">
        <ele>1086</ele>
        <time>2020-08-02T12:38:41Z</time>
      </trkpt>
      <trkpt lat="42.9254" lon="0.40351">
        <ele>1087</ele>
        <time>2020-08-02T12:38:49Z</time>
      </trkpt>
      <trkpt lat="42.92533" lon="0.4036">
        <ele>1081</ele>
        <time>2020-08-02T12:38:57Z</time>
      </trkpt>
      <trkpt lat="42.92525" lon="0.40366">
        <ele>1082</ele>
        <time>2020-08-02T12:39:05Z</time>
      </trkpt>
      <trkpt lat="42.92516" lon="0.40359">
        <ele>1083</ele>
        <time>2020-08-02T12:39:17Z</time>
      </trkpt>
      <trkpt lat="42.92511" lon="0.40347">
        <ele>1077</ele>
        <time>2020-08-02T12:39:25Z</time>
      </trkpt>
      <trkpt lat="42.92512" lon="0.40335">
        <ele>1073</ele>
        <time>2020-08-02T12:39:37Z</time>
      </trkpt>
      <trkpt lat="42.92513" lon="0.40321">
        <ele>1073</ele>
        <time>2020-08-02T12:39:45Z</time>
      </trkpt>
      <trkpt lat="42.92514" lon="0.40306">
        <ele>1071</ele>
        <time>2020-08-02T12:39:55Z</time>
      </trkpt>
      <trkpt lat="42.92518" lon="0.40294">
        <ele>1073</ele>
        <time>2020-08-02T12:40:03Z</time>
      </trkpt>
      <trkpt lat="42.92525" lon="0.40285">
        <ele>1075</ele>
        <time>2020-08-02T12:40:11Z</time>
      </trkpt>
      <trkpt lat="42.92534" lon="0.4028">
        <ele>1077</ele>
        <time>2020-08-02T12:40:17Z</time>
      </trkpt>
      <trkpt lat="42.92544" lon="0.40277">
        <ele>1074</ele>
        <time>2020-08-02T12:40:23Z</time>
      </trkpt>
      <trkpt lat="42.92553" lon="0.40273">
        <ele>1077</ele>
        <time>2020-08-02T12:40:29Z</time>
      </trkpt>
      <trkpt lat="42.92563" lon="0.40273">
        <ele>1076</ele>
        <time>2020-08-02T12:40:37Z</time>
      </trkpt>
      <trkpt lat="42.92573" lon="0.4027">
        <ele>1072</ele>
        <time>2020-08-02T12:40:45Z</time>
      </trkpt>
      <trkpt lat="42.9258" lon="0.40263">
        <ele>1072</ele>
        <time>2020-08-02T12:40:54Z</time>
      </trkpt>
      <trkpt lat="42.92588" lon="0.40255">
        <ele>1071</ele>
        <time>2020-08-02T12:41:04Z</time>
      </trkpt>
      <trkpt lat="42.92597" lon="0.40252">
        <ele>1070</ele>
        <time>2020-08-02T12:41:13Z</time>
      </trkpt>
      <trkpt lat="42.92607" lon="0.40247">
        <ele>1071</ele>
        <time>2020-08-02T12:41:24Z</time>
      </trkpt>
      <trkpt lat="42.92616" lon="0.40249">
        <ele>1069</ele>
        <time>2020-08-02T12:41:33Z</time>
      </trkpt>
      <trkpt lat="42.92626" lon="0.40251">
        <ele>1069</ele>
        <time>2020-08-02T12:41:43Z</time>
      </trkpt>
      <trkpt lat="42.92636" lon="0.40255">
        <ele>1066</ele>
        <time>2020-08-02T12:41:52Z</time>
      </trkpt>
      <trkpt lat="42.92642" lon="0.40265">
        <ele>1066</ele>
        <time>2020-08-02T12:42:01Z</time>
      </trkpt>
      <trkpt lat="42.92647" lon="0.40278">
        <ele>1063</ele>
        <time>2020-08-02T12:42:08Z</time>
      </trkpt>
      <trkpt lat="42.92651" lon="0.40291">
        <ele>1064</ele>
        <time>2020-08-02T12:42:17Z</time>
      </trkpt>
      <trkpt lat="42.92656" lon="0.40304">
        <ele>1060</ele>
        <time>2020-08-02T12:42:25Z</time>
      </trkpt>
      <trkpt lat="42.92662" lon="0.40314">
        <ele>1058</ele>
        <time>2020-08-02T12:42:32Z</time>
      </trkpt>
      <trkpt lat="42.92669" lon="0.40322">
        <ele>1059</ele>
        <time>2020-08-02T12:42:40Z</time>
      </trkpt>
      <trkpt lat="42.92676" lon="0.40332">
        <ele>1060</ele>
        <time>2020-08-02T12:42:47Z</time>
      </trkpt>
      <trkpt lat="42.92682" lon="0.40344">
        <ele>1064</ele>
        <time>2020-08-02T12:42:55Z</time>
      </trkpt>
      <trkpt lat="42.92689" lon="0.40355">
        <ele>1065</ele>
        <time>2020-08-02T12:43:01Z</time>
      </trkpt>
      <trkpt lat="42.92695" lon="0.40366">
        <ele>1062</ele>
        <time>2020-08-02T12:43:09Z</time>
      </trkpt>
      <trkpt lat="42.92701" lon="0.40376">
        <ele>1060</ele>
        <time>2020-08-02T12:43:16Z</time>
      </trkpt>
      <trkpt lat="42.92708" lon="0.40386">
        <ele>1049</ele>
        <time>2020-08-02T12:43:24Z</time>
      </trkpt>
      <trkpt lat="42.92717" lon="0.4039">
        <ele>1047</ele>
        <time>2020-08-02T12:43:32Z</time>
      </trkpt>
      <trkpt lat="42.92726" lon="0.40397">
        <ele>1044</ele>
        <time>2020-08-02T12:43:41Z</time>
      </trkpt>
      <trkpt lat="42.92732" lon="0.40409">
        <ele>1038</ele>
        <time>2020-08-02T12:43:49Z</time>
      </trkpt>
      <trkpt lat="42.92736" lon="0.4042">
        <ele>1037</ele>
        <time>2020-08-02T12:44:01Z</time>
      </trkpt>
      <trkpt lat="42.92742" lon="0.40432">
        <ele>1037</ele>
        <time>2020-08-02T12:44:08Z</time>
      </trkpt>
      <trkpt lat="42.92749" lon="0.4044">
        <ele>1036</ele>
        <time>2020-08-02T12:44:18Z</time>
      </trkpt>
      <trkpt lat="42.92758" lon="0.40434">
        <ele>1039</ele>
        <time>2020-08-02T12:44:25Z</time>
      </trkpt>
      <trkpt lat="42.92766" lon="0.40426">
        <ele>1034</ele>
        <time>2020-08-02T12:44:30Z</time>
      </trkpt>
      <trkpt lat="42.92773" lon="0.40416">
        <ele>1032</ele>
        <time>2020-08-02T12:44:37Z</time>
      </trkpt>
      <trkpt lat="42.92781" lon="0.40407">
        <ele>1038</ele>
        <time>2020-08-02T12:44:44Z</time>
      </trkpt>
      <trkpt lat="42.92789" lon="0.40399">
        <ele>1039</ele>
        <time>2020-08-02T12:44:50Z</time>
      </trkpt>
      <trkpt lat="42.92796" lon="0.40389">
        <ele>1033</ele>
        <time>2020-08-02T12:44:58Z</time>
      </trkpt>
      <trkpt lat="42.928" lon="0.40378">
        <ele>1030</ele>
        <time>2020-08-02T12:45:05Z</time>
      </trkpt>
      <trkpt lat="42.92805" lon="0.40367">
        <ele>1029</ele>
        <time>2020-08-02T12:45:12Z</time>
      </trkpt>
      <trkpt lat="42.92809" lon="0.40354">
        <ele>1028</ele>
        <time>2020-08-02T12:45:19Z</time>
      </trkpt>
      <trkpt lat="42.92806" lon="0.40341">
        <ele>1028</ele>
        <time>2020-08-02T12:45:29Z</time>
      </trkpt>
      <trkpt lat="42.92807" lon="0.40328">
        <ele>1028</ele>
        <time>2020-08-02T12:45:40Z</time>
      </trkpt>
      <trkpt lat="42.92807" lon="0.40315">
        <ele>1028</ele>
        <time>2020-08-02T12:45:53Z</time>
      </trkpt>
      <trkpt lat="42.92805" lon="0.40302">
        <ele>1035</ele>
        <time>2020-08-02T12:46:00Z</time>
      </trkpt>
      <trkpt lat="42.92803" lon="0.4029">
        <ele>1031</ele>
        <time>2020-08-02T12:46:06Z</time>
      </trkpt>
      <trkpt lat="42.92801" lon="0.40275">
        <ele>1031</ele>
        <time>2020-08-02T12:46:13Z</time>
      </trkpt>
      <trkpt lat="42.92803" lon="0.4026">
        <ele>1031</ele>
        <time>2020-08-02T12:46:20Z</time>
      </trkpt>
      <trkpt lat="42.92806" lon="0.40248">
        <ele>1029</ele>
        <time>2020-08-02T12:46:28Z</time>
      </trkpt>
      <trkpt lat="42.9281" lon="0.40235">
        <ele>1030</ele>
        <time>2020-08-02T12:46:35Z</time>
      </trkpt>
      <trkpt lat="42.92817" lon="0.40224">
        <ele>1030</ele>
        <time>2020-08-02T12:46:43Z</time>
      </trkpt>
      <trkpt lat="42.92824" lon="0.40216">
        <ele>1029</ele>
        <time>2020-08-02T12:46:51Z</time>
      </trkpt>
      <trkpt lat="42.92832" lon="0.40208">
        <ele>1026</ele>
        <time>2020-08-02T12:46:59Z</time>
      </trkpt>
      <trkpt lat="42.92841" lon="0.40202">
        <ele>1028</ele>
        <time>2020-08-02T12:47:11Z</time>
      </trkpt>
      <trkpt lat="42.92849" lon="0.40196">
        <ele>1029</ele>
        <time>2020-08-02T12:47:25Z</time>
      </trkpt>
      <trkpt lat="42.92859" lon="0.40194">
        <ele>1024</ele>
        <time>2020-08-02T12:47:33Z</time>
      </trkpt>
      <trkpt lat="42.92868" lon="0.40197">
        <ele>1025</ele>
        <time>2020-08-02T12:47:39Z</time>
      </trkpt>
      <trkpt lat="42.9288" lon="0.40198">
        <ele>1024</ele>
        <time>2020-08-02T12:47:46Z</time>
      </trkpt>
      <trkpt lat="42.92889" lon="0.40196">
        <ele>1024</ele>
        <time>2020-08-02T12:47:52Z</time>
      </trkpt>
      <trkpt lat="42.92898" lon="0.40195">
        <ele>1023</ele>
        <time>2020-08-02T12:47:58Z</time>
      </trkpt>
      <trkpt lat="42.92909" lon="0.4019">
        <ele>1020</ele>
        <time>2020-08-02T12:48:04Z</time>
      </trkpt>
      <trkpt lat="42.92918" lon="0.40185">
        <ele>1019</ele>
        <time>2020-08-02T12:48:11Z</time>
      </trkpt>
      <trkpt lat="42.9291" lon="0.40179">
        <ele>1017</ele>
        <time>2020-08-02T12:48:28Z</time>
      </trkpt>
      <trkpt lat="42.92905" lon="0.40169">
        <ele>1018</ele>
        <time>2020-08-02T12:48:36Z</time>
      </trkpt>
      <trkpt lat="42.92904" lon="0.40154">
        <ele>1014</ele>
        <time>2020-08-02T12:48:41Z</time>
      </trkpt>
      <trkpt lat="42.92905" lon="0.4014">
        <ele>1012</ele>
        <time>2020-08-02T12:48:46Z</time>
      </trkpt>
      <trkpt lat="42.92905" lon="0.40126">
        <ele>1010</ele>
        <time>2020-08-02T12:48:53Z</time>
      </trkpt>
      <trkpt lat="42.92905" lon="0.40113">
        <ele>1006</ele>
        <time>2020-08-02T12:49:00Z</time>
      </trkpt>
      <trkpt lat="42.92904" lon="0.40098">
        <ele>1009</ele>
        <time>2020-08-02T12:49:08Z</time>
      </trkpt>
      <trkpt lat="42.92901" lon="0.40086">
        <ele>1004</ele>
        <time>2020-08-02T12:49:15Z</time>
      </trkpt>
      <trkpt lat="42.92897" lon="0.40075">
        <ele>1004</ele>
        <time>2020-08-02T12:49:22Z</time>
      </trkpt>
      <trkpt lat="42.92893" lon="0.40062">
        <ele>1009</ele>
        <time>2020-08-02T12:49:31Z</time>
      </trkpt>
      <trkpt lat="42.92889" lon="0.40049">
        <ele>1010</ele>
        <time>2020-08-02T12:49:38Z</time>
      </trkpt>
      <trkpt lat="42.92888" lon="0.40036">
        <ele>1010</ele>
        <time>2020-08-02T12:49:46Z</time>
      </trkpt>
      <trkpt lat="42.92889" lon="0.40022">
        <ele>1014</ele>
        <time>2020-08-02T12:49:54Z</time>
      </trkpt>
      <trkpt lat="42.9289" lon="0.4001">
        <ele>1018</ele>
        <time>2020-08-02T12:50:01Z</time>
      </trkpt>
      <trkpt lat="42.9289" lon="0.39996">
        <ele>1019</ele>
        <time>2020-08-02T12:50:09Z</time>
      </trkpt>
      <trkpt lat="42.9289" lon="0.39983">
        <ele>1022</ele>
        <time>2020-08-02T12:50:18Z</time>
      </trkpt>
      <trkpt lat="42.92886" lon="0.3997">
        <ele>1022</ele>
        <time>2020-08-02T12:50:25Z</time>
      </trkpt>
      <trkpt lat="42.92881" lon="0.39958">
        <ele>1019</ele>
        <time>2020-08-02T12:50:32Z</time>
      </trkpt>
      <trkpt lat="42.92877" lon="0.39946">
        <ele>1027</ele>
        <time>2020-08-02T12:50:41Z</time>
      </trkpt>
      <trkpt lat="42.92873" lon="0.39932">
        <ele>1029</ele>
        <time>2020-08-02T12:50:50Z</time>
      </trkpt>
      <trkpt lat="42.92871" lon="0.39919">
        <ele>1030</ele>
        <time>2020-08-02T12:50:59Z</time>
      </trkpt>
      <trkpt lat="42.92869" lon="0.39906">
        <ele>1028</ele>
        <time>2020-08-02T12:51:06Z</time>
      </trkpt>
      <trkpt lat="42.92867" lon="0.39892">
        <ele>1027</ele>
        <time>2020-08-02T12:51:14Z</time>
      </trkpt>
      <trkpt lat="42.92864" lon="0.3988">
        <ele>1029</ele>
        <time>2020-08-02T12:51:21Z</time>
      </trkpt>
      <trkpt lat="42.92863" lon="0.39866">
        <ele>1034</ele>
        <time>2020-08-02T12:51:30Z</time>
      </trkpt>
      <trkpt lat="42.92861" lon="0.39853">
        <ele>1035</ele>
        <time>2020-08-02T12:51:39Z</time>
      </trkpt>
      <trkpt lat="42.9286" lon="0.39839">
        <ele>1034</ele>
        <time>2020-08-02T12:51:47Z</time>
      </trkpt>
      <trkpt lat="42.92857" lon="0.39825">
        <ele>1037</ele>
        <time>2020-08-02T12:51:55Z</time>
      </trkpt>
      <trkpt lat="42.92859" lon="0.39813">
        <ele>1036</ele>
        <time>2020-08-02T12:52:03Z</time>
      </trkpt>
      <trkpt lat="42.9286" lon="0.39799">
        <ele>1031</ele>
        <time>2020-08-02T12:52:11Z</time>
      </trkpt>
      <trkpt lat="42.92859" lon="0.39785">
        <ele>1032</ele>
        <time>2020-08-02T12:52:20Z</time>
      </trkpt>
      <trkpt lat="42.92854" lon="0.39772">
        <ele>1031</ele>
        <time>2020-08-02T12:52:29Z</time>
      </trkpt>
      <trkpt lat="42.92847" lon="0.39762">
        <ele>1029</ele>
        <time>2020-08-02T12:52:35Z</time>
      </trkpt>
      <trkpt lat="42.9284" lon="0.39755">
        <ele>1028</ele>
        <time>2020-08-02T12:52:43Z</time>
      </trkpt>
      <trkpt lat="42.92832" lon="0.39748">
        <ele>1029</ele>
        <time>2020-08-02T12:52:50Z</time>
      </trkpt>
      <trkpt lat="42.92825" lon="0.3974">
        <ele>1027</ele>
        <time>2020-08-02T12:52:57Z</time>
      </trkpt>
      <trkpt lat="42.92818" lon="0.39729">
        <ele>1030</ele>
        <time>2020-08-02T12:53:05Z</time>
      </trkpt>
      <trkpt lat="42.92813" lon="0.39717">
        <ele>1026</ele>
        <time>2020-08-02T12:53:11Z</time>
      </trkpt>
      <trkpt lat="42.92812" lon="0.39704">
        <ele>1026</ele>
        <time>2020-08-02T12:53:18Z</time>
      </trkpt>
      <trkpt lat="42.92818" lon="0.39693">
        <ele>1027</ele>
        <time>2020-08-02T12:53:26Z</time>
      </trkpt>
      <trkpt lat="42.92827" lon="0.39687">
        <ele>1025</ele>
        <time>2020-08-02T12:53:33Z</time>
      </trkpt>
      <trkpt lat="42.92837" lon="0.39685">
        <ele>1027</ele>
        <time>2020-08-02T12:53:41Z</time>
      </trkpt>
      <trkpt lat="42.92846" lon="0.39683">
        <ele>1024</ele>
        <time>2020-08-02T12:53:48Z</time>
      </trkpt>
      <trkpt lat="42.92856" lon="0.3968">
        <ele>1021</ele>
        <time>2020-08-02T12:53:57Z</time>
      </trkpt>
      <trkpt lat="42.92866" lon="0.39678">
        <ele>1018</ele>
        <time>2020-08-02T12:54:05Z</time>
      </trkpt>
      <trkpt lat="42.92876" lon="0.39677">
        <ele>1019</ele>
        <time>2020-08-02T12:54:13Z</time>
      </trkpt>
      <trkpt lat="42.92885" lon="0.3968">
        <ele>1022</ele>
        <time>2020-08-02T12:54:22Z</time>
      </trkpt>
      <trkpt lat="42.92894" lon="0.39683">
        <ele>1020</ele>
        <time>2020-08-02T12:54:29Z</time>
      </trkpt>
      <trkpt lat="42.92904" lon="0.39683">
        <ele>1020</ele>
        <time>2020-08-02T12:54:36Z</time>
      </trkpt>
      <trkpt lat="42.92914" lon="0.39683">
        <ele>1020</ele>
        <time>2020-08-02T12:54:43Z</time>
      </trkpt>
      <trkpt lat="42.92924" lon="0.39684">
        <ele>1017</ele>
        <time>2020-08-02T12:54:50Z</time>
      </trkpt>
      <trkpt lat="42.92933" lon="0.39681">
        <ele>1012</ele>
        <time>2020-08-02T12:54:58Z</time>
      </trkpt>
      <trkpt lat="42.92943" lon="0.3968">
        <ele>1008</ele>
        <time>2020-08-02T12:55:06Z</time>
      </trkpt>
      <trkpt lat="42.92953" lon="0.39679">
        <ele>1003</ele>
        <time>2020-08-02T12:55:14Z</time>
      </trkpt>
      <trkpt lat="42.92963" lon="0.39677">
        <ele>1003</ele>
        <time>2020-08-02T12:55:21Z</time>
      </trkpt>
      <trkpt lat="42.92972" lon="0.39673">
        <ele>1002</ele>
        <time>2020-08-02T12:55:29Z</time>
      </trkpt>
      <trkpt lat="42.9298" lon="0.39668">
        <ele>1003</ele>
        <time>2020-08-02T12:55:36Z</time>
      </trkpt>
      <trkpt lat="42.92989" lon="0.39661">
        <ele>1002</ele>
        <time>2020-08-02T12:55:43Z</time>
      </trkpt>
      <trkpt lat="42.92997" lon="0.39654">
        <ele>999</ele>
        <time>2020-08-02T12:55:51Z</time>
      </trkpt>
      <trkpt lat="42.93006" lon="0.39648">
        <ele>998</ele>
        <time>2020-08-02T12:56:00Z</time>
      </trkpt>
      <trkpt lat="42.93001" lon="0.39634">
        <ele>992</ele>
        <time>2020-08-02T12:57:00Z</time>
      </trkpt>
      <trkpt lat="42.92996" lon="0.39624">
        <ele>986</ele>
        <time>2020-08-02T12:57:13Z</time>
      </trkpt>
      <trkpt lat="42.92999" lon="0.39611">
        <ele>981</ele>
        <time>2020-08-02T12:57:19Z</time>
      </trkpt>
      <trkpt lat="42.93002" lon="0.39598">
        <ele>983</ele>
        <time>2020-08-02T12:57:27Z</time>
      </trkpt>
      <trkpt lat="42.93011" lon="0.39583">
        <ele>984</ele>
        <time>2020-08-02T12:57:53Z</time>
      </trkpt>
      <trkpt lat="42.93013" lon="0.39571">
        <ele>987</ele>
        <time>2020-08-02T12:58:02Z</time>
      </trkpt>
      <trkpt lat="42.93012" lon="0.39557">
        <ele>989</ele>
        <time>2020-08-02T12:58:11Z</time>
      </trkpt>
      <trkpt lat="42.93013" lon="0.39544">
        <ele>989</ele>
        <time>2020-08-02T12:58:18Z</time>
      </trkpt>
      <trkpt lat="42.93016" lon="0.39532">
        <ele>989</ele>
        <time>2020-08-02T12:58:31Z</time>
      </trkpt>
      <trkpt lat="42.93018" lon="0.39519">
        <ele>989</ele>
        <time>2020-08-02T12:58:47Z</time>
      </trkpt>
      <trkpt lat="42.93015" lon="0.39507">
        <ele>981</ele>
        <time>2020-08-02T12:58:57Z</time>
      </trkpt>
      <trkpt lat="42.93012" lon="0.39494">
        <ele>980</ele>
        <time>2020-08-02T12:59:04Z</time>
      </trkpt>
      <trkpt lat="42.9301" lon="0.39481">
        <ele>986</ele>
        <time>2020-08-02T12:59:11Z</time>
      </trkpt>
      <trkpt lat="42.93006" lon="0.39469">
        <ele>987</ele>
        <time>2020-08-02T12:59:17Z</time>
      </trkpt>
      <trkpt lat="42.93002" lon="0.39458">
        <ele>989</ele>
        <time>2020-08-02T12:59:23Z</time>
      </trkpt>
      <trkpt lat="42.92998" lon="0.39447">
        <ele>990</ele>
        <time>2020-08-02T12:59:29Z</time>
      </trkpt>
      <trkpt lat="42.92993" lon="0.39435">
        <ele>992</ele>
        <time>2020-08-02T12:59:37Z</time>
      </trkpt>
      <trkpt lat="42.92991" lon="0.39422">
        <ele>990</ele>
        <time>2020-08-02T12:59:44Z</time>
      </trkpt>
      <trkpt lat="42.9299" lon="0.39408">
        <ele>994</ele>
        <time>2020-08-02T12:59:52Z</time>
      </trkpt>
      <trkpt lat="42.92988" lon="0.39396">
        <ele>996</ele>
        <time>2020-08-02T13:00:01Z</time>
      </trkpt>
      <trkpt lat="42.92986" lon="0.39382">
        <ele>994</ele>
        <time>2020-08-02T13:00:09Z</time>
      </trkpt>
      <trkpt lat="42.92985" lon="0.39369">
        <ele>995</ele>
        <time>2020-08-02T13:00:16Z</time>
      </trkpt>
      <trkpt lat="42.92977" lon="0.39361">
        <ele>997</ele>
        <time>2020-08-02T13:02:30Z</time>
      </trkpt>
      <trkpt lat="42.92973" lon="0.39347">
        <ele>992</ele>
        <time>2020-08-02T13:02:35Z</time>
      </trkpt>
      <trkpt lat="42.92967" lon="0.39333">
        <ele>984</ele>
        <time>2020-08-02T13:02:40Z</time>
      </trkpt>
      <trkpt lat="42.92962" lon="0.3932">
        <ele>979</ele>
        <time>2020-08-02T13:02:46Z</time>
      </trkpt>
      <trkpt lat="42.92959" lon="0.39307">
        <ele>979</ele>
        <time>2020-08-02T13:02:52Z</time>
      </trkpt>
      <trkpt lat="42.92959" lon="0.39293">
        <ele>977</ele>
        <time>2020-08-02T13:02:57Z</time>
      </trkpt>
      <trkpt lat="42.92958" lon="0.3928">
        <ele>977</ele>
        <time>2020-08-02T13:03:02Z</time>
      </trkpt>
      <trkpt lat="42.92959" lon="0.39264">
        <ele>978</ele>
        <time>2020-08-02T13:03:07Z</time>
      </trkpt>
      <trkpt lat="42.92961" lon="0.39249">
        <ele>980</ele>
        <time>2020-08-02T13:03:11Z</time>
      </trkpt>
      <trkpt lat="42.92966" lon="0.39234">
        <ele>981</ele>
        <time>2020-08-02T13:03:15Z</time>
      </trkpt>
      <trkpt lat="42.92971" lon="0.39222">
        <ele>976</ele>
        <time>2020-08-02T13:03:18Z</time>
      </trkpt>
      <trkpt lat="42.92979" lon="0.3921">
        <ele>976</ele>
        <time>2020-08-02T13:03:23Z</time>
      </trkpt>
      <trkpt lat="42.92984" lon="0.39199">
        <ele>974</ele>
        <time>2020-08-02T13:03:27Z</time>
      </trkpt>
      <trkpt lat="42.9299" lon="0.39186">
        <ele>975</ele>
        <time>2020-08-02T13:03:32Z</time>
      </trkpt>
      <trkpt lat="42.92994" lon="0.39173">
        <ele>979</ele>
        <time>2020-08-02T13:03:37Z</time>
      </trkpt>
      <trkpt lat="42.92999" lon="0.39161">
        <ele>980</ele>
        <time>2020-08-02T13:03:41Z</time>
      </trkpt>
      <trkpt lat="42.93004" lon="0.39148">
        <ele>978</ele>
        <time>2020-08-02T13:03:46Z</time>
      </trkpt>
      <trkpt lat="42.9301" lon="0.39135">
        <ele>975</ele>
        <time>2020-08-02T13:03:52Z</time>
      </trkpt>
      <trkpt lat="42.93015" lon="0.39125">
        <ele>973</ele>
        <time>2020-08-02T13:03:58Z</time>
      </trkpt>
      <trkpt lat="42.93021" lon="0.39114">
        <ele>971</ele>
        <time>2020-08-02T13:04:05Z</time>
      </trkpt>
      <trkpt lat="42.93028" lon="0.39104">
        <ele>973</ele>
        <time>2020-08-02T13:04:11Z</time>
      </trkpt>
      <trkpt lat="42.93035" lon="0.39093">
        <ele>971</ele>
        <time>2020-08-02T13:04:17Z</time>
      </trkpt>
      <trkpt lat="42.93043" lon="0.39084">
        <ele>966</ele>
        <time>2020-08-02T13:04:23Z</time>
      </trkpt>
      <trkpt lat="42.93051" lon="0.39075">
        <ele>962</ele>
        <time>2020-08-02T13:04:30Z</time>
      </trkpt>
      <trkpt lat="42.93059" lon="0.39067">
        <ele>966</ele>
        <time>2020-08-02T13:04:35Z</time>
      </trkpt>
      <trkpt lat="42.93068" lon="0.3906">
        <ele>965</ele>
        <time>2020-08-02T13:04:44Z</time>
      </trkpt>
      <trkpt lat="42.93076" lon="0.39053">
        <ele>965</ele>
        <time>2020-08-02T13:04:49Z</time>
      </trkpt>
      <trkpt lat="42.93084" lon="0.39044">
        <ele>965</ele>
        <time>2020-08-02T13:04:56Z</time>
      </trkpt>
      <trkpt lat="42.9309" lon="0.39033">
        <ele>965</ele>
        <time>2020-08-02T13:05:04Z</time>
      </trkpt>
      <trkpt lat="42.93095" lon="0.39021">
        <ele>965</ele>
        <time>2020-08-02T13:05:11Z</time>
      </trkpt>
      <trkpt lat="42.93097" lon="0.39008">
        <ele>963</ele>
        <time>2020-08-02T13:05:18Z</time>
      </trkpt>
      <trkpt lat="42.93097" lon="0.38995">
        <ele>964</ele>
        <time>2020-08-02T13:05:25Z</time>
      </trkpt>
      <trkpt lat="42.93093" lon="0.38982">
        <ele>962</ele>
        <time>2020-08-02T13:05:32Z</time>
      </trkpt>
      <trkpt lat="42.93087" lon="0.3897">
        <ele>964</ele>
        <time>2020-08-02T13:05:38Z</time>
      </trkpt>
      <trkpt lat="42.93078" lon="0.3896">
        <ele>965</ele>
        <time>2020-08-02T13:05:44Z</time>
      </trkpt>
      <trkpt lat="42.9307" lon="0.38954">
        <ele>966</ele>
        <time>2020-08-02T13:05:49Z</time>
      </trkpt>
      <trkpt lat="42.93059" lon="0.38948">
        <ele>963</ele>
        <time>2020-08-02T13:05:53Z</time>
      </trkpt>
      <trkpt lat="42.93049" lon="0.38943">
        <ele>964</ele>
        <time>2020-08-02T13:05:58Z</time>
      </trkpt>
      <trkpt lat="42.93042" lon="0.38934">
        <ele>959</ele>
        <time>2020-08-02T13:06:06Z</time>
      </trkpt>
      <trkpt lat="42.93037" lon="0.38922">
        <ele>958</ele>
        <time>2020-08-02T13:06:15Z</time>
      </trkpt>
      <trkpt lat="42.93037" lon="0.38909">
        <ele>957</ele>
        <time>2020-08-02T13:06:22Z</time>
      </trkpt>
      <trkpt lat="42.93039" lon="0.38895">
        <ele>953</ele>
        <time>2020-08-02T13:06:30Z</time>
      </trkpt>
      <trkpt lat="42.93039" lon="0.38882">
        <ele>949</ele>
        <time>2020-08-02T13:06:38Z</time>
      </trkpt>
      <trkpt lat="42.93038" lon="0.38869">
        <ele>952</ele>
        <time>2020-08-02T13:06:47Z</time>
      </trkpt>
      <trkpt lat="42.93035" lon="0.38856">
        <ele>952</ele>
        <time>2020-08-02T13:06:55Z</time>
      </trkpt>
      <trkpt lat="42.93036" lon="0.38843">
        <ele>948</ele>
        <time>2020-08-02T13:07:04Z</time>
      </trkpt>
      <trkpt lat="42.93041" lon="0.38832">
        <ele>939</ele>
        <time>2020-08-02T13:07:12Z</time>
      </trkpt>
      <trkpt lat="42.93047" lon="0.3882">
        <ele>940</ele>
        <time>2020-08-02T13:07:19Z</time>
      </trkpt>
      <trkpt lat="42.93052" lon="0.38808">
        <ele>940</ele>
        <time>2020-08-02T13:07:26Z</time>
      </trkpt>
      <trkpt lat="42.93055" lon="0.38795">
        <ele>936</ele>
        <time>2020-08-02T13:07:33Z</time>
      </trkpt>
      <trkpt lat="42.93061" lon="0.38784">
        <ele>935</ele>
        <time>2020-08-02T13:07:40Z</time>
      </trkpt>
      <trkpt lat="42.93067" lon="0.38773">
        <ele>933</ele>
        <time>2020-08-02T13:07:47Z</time>
      </trkpt>
      <trkpt lat="42.93074" lon="0.38763">
        <ele>933</ele>
        <time>2020-08-02T13:07:54Z</time>
      </trkpt>
      <trkpt lat="42.9308" lon="0.38752">
        <ele>926</ele>
        <time>2020-08-02T13:08:02Z</time>
      </trkpt>
      <trkpt lat="42.93089" lon="0.38747">
        <ele>929</ele>
        <time>2020-08-02T13:08:09Z</time>
      </trkpt>
      <trkpt lat="42.93098" lon="0.38741">
        <ele>924</ele>
        <time>2020-08-02T13:08:16Z</time>
      </trkpt>
      <trkpt lat="42.93107" lon="0.38735">
        <ele>921</ele>
        <time>2020-08-02T13:08:24Z</time>
      </trkpt>
      <trkpt lat="42.93114" lon="0.38727">
        <ele>921</ele>
        <time>2020-08-02T13:08:36Z</time>
      </trkpt>
      <trkpt lat="42.93117" lon="0.38714">
        <ele>924</ele>
        <time>2020-08-02T13:08:45Z</time>
      </trkpt>
      <trkpt lat="42.93123" lon="0.38703">
        <ele>929</ele>
        <time>2020-08-02T13:08:56Z</time>
      </trkpt>
      <trkpt lat="42.9313" lon="0.38693">
        <ele>925</ele>
        <time>2020-08-02T13:09:07Z</time>
      </trkpt>
      <trkpt lat="42.93134" lon="0.38681">
        <ele>925</ele>
        <time>2020-08-02T13:09:17Z</time>
      </trkpt>
      <trkpt lat="42.93139" lon="0.3867">
        <ele>923</ele>
        <time>2020-08-02T13:09:24Z</time>
      </trkpt>
      <trkpt lat="42.93146" lon="0.38659">
        <ele>918</ele>
        <time>2020-08-02T13:09:31Z</time>
      </trkpt>
      <trkpt lat="42.93155" lon="0.38652">
        <ele>908</ele>
        <time>2020-08-02T13:09:39Z</time>
      </trkpt>
      <trkpt lat="42.93163" lon="0.38648">
        <ele>910</ele>
        <time>2020-08-02T13:09:47Z</time>
      </trkpt>
      <trkpt lat="42.93175" lon="0.38637">
        <ele>911</ele>
        <time>2020-08-02T13:10:02Z</time>
      </trkpt>
      <trkpt lat="42.93183" lon="0.38631">
        <ele>907</ele>
        <time>2020-08-02T13:10:13Z</time>
      </trkpt>
      <trkpt lat="42.93192" lon="0.38628">
        <ele>907</ele>
        <time>2020-08-02T13:10:23Z</time>
      </trkpt>
      <trkpt lat="42.93201" lon="0.38625">
        <ele>908</ele>
        <time>2020-08-02T13:10:32Z</time>
      </trkpt>
      <trkpt lat="42.93209" lon="0.38618">
        <ele>907</ele>
        <time>2020-08-02T13:10:46Z</time>
      </trkpt>
      <trkpt lat="42.93212" lon="0.38605">
        <ele>907</ele>
        <time>2020-08-02T13:10:55Z</time>
      </trkpt>
      <trkpt lat="42.93215" lon="0.38593">
        <ele>909</ele>
        <time>2020-08-02T13:11:03Z</time>
      </trkpt>
      <trkpt lat="42.93219" lon="0.38581">
        <ele>909</ele>
        <time>2020-08-02T13:11:13Z</time>
      </trkpt>
      <trkpt lat="42.93222" lon="0.38568">
        <ele>904</ele>
        <time>2020-08-02T13:11:22Z</time>
      </trkpt>
      <trkpt lat="42.93228" lon="0.38557">
        <ele>900</ele>
        <time>2020-08-02T13:11:31Z</time>
      </trkpt>
      <trkpt lat="42.9323" lon="0.38542">
        <ele>898</ele>
        <time>2020-08-02T13:11:38Z</time>
      </trkpt>
      <trkpt lat="42.93228" lon="0.38529">
        <ele>898</ele>
        <time>2020-08-02T13:11:44Z</time>
      </trkpt>
      <trkpt lat="42.93227" lon="0.38515">
        <ele>897</ele>
        <time>2020-08-02T13:11:53Z</time>
      </trkpt>
      <trkpt lat="42.93227" lon="0.38502">
        <ele>898</ele>
        <time>2020-08-02T13:12:02Z</time>
      </trkpt>
      <trkpt lat="42.93228" lon="0.3849">
        <ele>897</ele>
        <time>2020-08-02T13:12:11Z</time>
      </trkpt>
      <trkpt lat="42.93231" lon="0.38478">
        <ele>892</ele>
        <time>2020-08-02T13:12:20Z</time>
      </trkpt>
      <trkpt lat="42.93236" lon="0.38467">
        <ele>895</ele>
        <time>2020-08-02T13:12:29Z</time>
      </trkpt>
      <trkpt lat="42.93237" lon="0.38454">
        <ele>893</ele>
        <time>2020-08-02T13:12:41Z</time>
      </trkpt>
      <trkpt lat="42.93236" lon="0.38441">
        <ele>891</ele>
        <time>2020-08-02T13:12:51Z</time>
      </trkpt>
      <trkpt lat="42.93233" lon="0.38428">
        <ele>887</ele>
        <time>2020-08-02T13:12:59Z</time>
      </trkpt>
      <trkpt lat="42.9323" lon="0.38415">
        <ele>886</ele>
        <time>2020-08-02T13:13:08Z</time>
      </trkpt>
      <trkpt lat="42.93227" lon="0.38402">
        <ele>881</ele>
        <time>2020-08-02T13:13:16Z</time>
      </trkpt>
      <trkpt lat="42.9323" lon="0.38389">
        <ele>880</ele>
        <time>2020-08-02T13:13:24Z</time>
      </trkpt>
      <trkpt lat="42.93234" lon="0.38378">
        <ele>874</ele>
        <time>2020-08-02T13:13:33Z</time>
      </trkpt>
      <trkpt lat="42.93238" lon="0.38366">
        <ele>876</ele>
        <time>2020-08-02T13:13:41Z</time>
      </trkpt>
      <trkpt lat="42.93243" lon="0.38355">
        <ele>876</ele>
        <time>2020-08-02T13:13:50Z</time>
      </trkpt>
      <trkpt lat="42.93244" lon="0.38342">
        <ele>872</ele>
        <time>2020-08-02T13:14:01Z</time>
      </trkpt>
      <trkpt lat="42.93247" lon="0.38329">
        <ele>870</ele>
        <time>2020-08-02T13:14:10Z</time>
      </trkpt>
      <trkpt lat="42.93249" lon="0.38316">
        <ele>869</ele>
        <time>2020-08-02T13:14:20Z</time>
      </trkpt>
      <trkpt lat="42.93247" lon="0.38304">
        <ele>861</ele>
        <time>2020-08-02T13:14:27Z</time>
      </trkpt>
      <trkpt lat="42.9324" lon="0.38294">
        <ele>854</ele>
        <time>2020-08-02T13:14:37Z</time>
      </trkpt>
      <trkpt lat="42.93231" lon="0.38297">
        <ele>849</ele>
        <time>2020-08-02T13:14:55Z</time>
      </trkpt>
      <trkpt lat="42.93224" lon="0.38306">
        <ele>847</ele>
        <time>2020-08-02T13:14:59Z</time>
      </trkpt>
      <trkpt lat="42.93219" lon="0.38319">
        <ele>848</ele>
        <time>2020-08-02T13:15:06Z</time>
      </trkpt>
      <trkpt lat="42.93226" lon="0.38306">
        <ele>847</ele>
        <time>2020-08-02T13:15:47Z</time>
      </trkpt>
      <trkpt lat="42.93232" lon="0.38296">
        <ele>849</ele>
        <time>2020-08-02T13:15:55Z</time>
      </trkpt>
      <trkpt lat="42.93239" lon="0.38286">
        <ele>850</ele>
        <time>2020-08-02T13:16:02Z</time>
      </trkpt>
      <trkpt lat="42.93239" lon="0.38269">
        <ele>855</ele>
        <time>2020-08-02T13:16:14Z</time>
      </trkpt>
      <trkpt lat="42.93231" lon="0.38257">
        <ele>855</ele>
        <time>2020-08-02T13:16:19Z</time>
      </trkpt>
      <trkpt lat="42.93224" lon="0.38248">
        <ele>858</ele>
        <time>2020-08-02T13:16:25Z</time>
      </trkpt>
      <trkpt lat="42.93217" lon="0.38238">
        <ele>858</ele>
        <time>2020-08-02T13:16:31Z</time>
      </trkpt>
      <trkpt lat="42.9321" lon="0.38226">
        <ele>854</ele>
        <time>2020-08-02T13:16:38Z</time>
      </trkpt>
      <trkpt lat="42.93209" lon="0.38214">
        <ele>855</ele>
        <time>2020-08-02T13:16:45Z</time>
      </trkpt>
      <trkpt lat="42.93207" lon="0.38202">
        <ele>849</ele>
        <time>2020-08-02T13:16:52Z</time>
      </trkpt>
      <trkpt lat="42.93203" lon="0.3819">
        <ele>845</ele>
        <time>2020-08-02T13:16:58Z</time>
      </trkpt>
      <trkpt lat="42.93203" lon="0.38177">
        <ele>833</ele>
        <time>2020-08-02T13:17:06Z</time>
      </trkpt>
      <trkpt lat="42.93208" lon="0.38164">
        <ele>822</ele>
        <time>2020-08-02T13:17:13Z</time>
      </trkpt>
      <trkpt lat="42.93214" lon="0.38151">
        <ele>815</ele>
        <time>2020-08-02T13:17:20Z</time>
      </trkpt>
      <trkpt lat="42.9322" lon="0.3814">
        <ele>815</ele>
        <time>2020-08-02T13:17:27Z</time>
      </trkpt>
      <trkpt lat="42.93225" lon="0.38127">
        <ele>814</ele>
        <time>2020-08-02T13:17:36Z</time>
      </trkpt>
      <trkpt lat="42.9323" lon="0.38116">
        <ele>812</ele>
        <time>2020-08-02T13:17:45Z</time>
      </trkpt>
      <trkpt lat="42.93235" lon="0.38104">
        <ele>811</ele>
        <time>2020-08-02T13:17:54Z</time>
      </trkpt>
      <trkpt lat="42.93239" lon="0.38093">
        <ele>810</ele>
        <time>2020-08-02T13:18:02Z</time>
      </trkpt>
      <trkpt lat="42.93247" lon="0.38085">
        <ele>808</ele>
        <time>2020-08-02T13:18:10Z</time>
      </trkpt>
      <trkpt lat="42.93254" lon="0.38074">
        <ele>809</ele>
        <time>2020-08-02T13:18:17Z</time>
      </trkpt>
      <trkpt lat="42.93261" lon="0.38065">
        <ele>806</ele>
        <time>2020-08-02T13:18:25Z</time>
      </trkpt>
      <trkpt lat="42.93268" lon="0.38058">
        <ele>807</ele>
        <time>2020-08-02T13:18:33Z</time>
      </trkpt>
      <trkpt lat="42.93278" lon="0.38053">
        <ele>801</ele>
        <time>2020-08-02T13:18:41Z</time>
      </trkpt>
      <trkpt lat="42.93287" lon="0.38055">
        <ele>800</ele>
        <time>2020-08-02T13:18:48Z</time>
      </trkpt>
      <trkpt lat="42.93297" lon="0.38057">
        <ele>801</ele>
        <time>2020-08-02T13:18:55Z</time>
      </trkpt>
      <trkpt lat="42.93305" lon="0.38063">
        <ele>798</ele>
        <time>2020-08-02T13:19:03Z</time>
      </trkpt>
      <trkpt lat="42.93315" lon="0.38067">
        <ele>799</ele>
        <time>2020-08-02T13:19:10Z</time>
      </trkpt>
      <trkpt lat="42.93325" lon="0.38068">
        <ele>803</ele>
        <time>2020-08-02T13:19:19Z</time>
      </trkpt>
      <trkpt lat="42.93335" lon="0.38068">
        <ele>802</ele>
        <time>2020-08-02T13:19:28Z</time>
      </trkpt>
      <trkpt lat="42.93344" lon="0.38066">
        <ele>802</ele>
        <time>2020-08-02T13:19:36Z</time>
      </trkpt>
      <trkpt lat="42.93353" lon="0.38059">
        <ele>802</ele>
        <time>2020-08-02T13:19:44Z</time>
      </trkpt>
      <trkpt lat="42.93359" lon="0.38046">
        <ele>798</ele>
        <time>2020-08-02T13:19:50Z</time>
      </trkpt>
      <trkpt lat="42.93364" lon="0.38034">
        <ele>799</ele>
        <time>2020-08-02T13:19:56Z</time>
      </trkpt>
      <trkpt lat="42.93367" lon="0.38021">
        <ele>800</ele>
        <time>2020-08-02T13:20:06Z</time>
      </trkpt>
      <trkpt lat="42.93362" lon="0.38009">
        <ele>798</ele>
        <time>2020-08-02T13:20:15Z</time>
      </trkpt>
      <trkpt lat="42.93353" lon="0.38001">
        <ele>793</ele>
        <time>2020-08-02T13:20:23Z</time>
      </trkpt>
      <trkpt lat="42.93344" lon="0.37995">
        <ele>794</ele>
        <time>2020-08-02T13:20:29Z</time>
      </trkpt>
      <trkpt lat="42.93334" lon="0.37992">
        <ele>789</ele>
        <time>2020-08-02T13:20:37Z</time>
      </trkpt>
      <trkpt lat="42.93323" lon="0.37992">
        <ele>786</ele>
        <time>2020-08-02T13:20:43Z</time>
      </trkpt>
      <trkpt lat="42.93313" lon="0.37996">
        <ele>782</ele>
        <time>2020-08-02T13:20:50Z</time>
      </trkpt>
      <trkpt lat="42.93302" lon="0.38">
        <ele>785</ele>
        <time>2020-08-02T13:20:58Z</time>
      </trkpt>
      <trkpt lat="42.93292" lon="0.37999">
        <ele>781</ele>
        <time>2020-08-02T13:21:06Z</time>
      </trkpt>
      <trkpt lat="42.93284" lon="0.3799">
        <ele>781</ele>
        <time>2020-08-02T13:21:15Z</time>
      </trkpt>
      <trkpt lat="42.93279" lon="0.37978">
        <ele>782</ele>
        <time>2020-08-02T13:21:22Z</time>
      </trkpt>
      <trkpt lat="42.93276" lon="0.37966">
        <ele>779</ele>
        <time>2020-08-02T13:21:32Z</time>
      </trkpt>
      <trkpt lat="42.9328" lon="0.37953">
        <ele>779</ele>
        <time>2020-08-02T13:21:42Z</time>
      </trkpt>
      <trkpt lat="42.93289" lon="0.37948">
        <ele>778</ele>
        <time>2020-08-02T13:21:52Z</time>
      </trkpt>
      <trkpt lat="42.93299" lon="0.37949">
        <ele>773</ele>
        <time>2020-08-02T13:22:00Z</time>
      </trkpt>
      <trkpt lat="42.9331" lon="0.37952">
        <ele>774</ele>
        <time>2020-08-02T13:22:06Z</time>
      </trkpt>
      <trkpt lat="42.9332" lon="0.37958">
        <ele>771</ele>
        <time>2020-08-02T13:22:13Z</time>
      </trkpt>
      <trkpt lat="42.93329" lon="0.37961">
        <ele>770</ele>
        <time>2020-08-02T13:22:19Z</time>
      </trkpt>
      <trkpt lat="42.93339" lon="0.37956">
        <ele>772</ele>
        <time>2020-08-02T13:22:28Z</time>
      </trkpt>
      <trkpt lat="42.93347" lon="0.37949">
        <ele>769</ele>
        <time>2020-08-02T13:22:37Z</time>
      </trkpt>
      <trkpt lat="42.93356" lon="0.37943">
        <ele>769</ele>
        <time>2020-08-02T13:22:47Z</time>
      </trkpt>
      <trkpt lat="42.93366" lon="0.37939">
        <ele>769</ele>
        <time>2020-08-02T13:22:55Z</time>
      </trkpt>
      <trkpt lat="42.93374" lon="0.37944">
        <ele>769</ele>
        <time>2020-08-02T13:23:03Z</time>
      </trkpt>
      <trkpt lat="42.93383" lon="0.37944">
        <ele>764</ele>
        <time>2020-08-02T13:23:11Z</time>
      </trkpt>
      <trkpt lat="42.93392" lon="0.37936">
        <ele>760</ele>
        <time>2020-08-02T13:23:20Z</time>
      </trkpt>
      <trkpt lat="42.93398" lon="0.37925">
        <ele>759</ele>
        <time>2020-08-02T13:23:27Z</time>
      </trkpt>
      <trkpt lat="42.93404" lon="0.37914">
        <ele>756</ele>
        <time>2020-08-02T13:23:36Z</time>
      </trkpt>
      <trkpt lat="42.93408" lon="0.37902">
        <ele>757</ele>
        <time>2020-08-02T13:23:45Z</time>
      </trkpt>
      <trkpt lat="42.93406" lon="0.37889">
        <ele>750</ele>
        <time>2020-08-02T13:23:51Z</time>
      </trkpt>
      <trkpt lat="42.93399" lon="0.3788">
        <ele>740</ele>
        <time>2020-08-02T13:23:56Z</time>
      </trkpt>
      <trkpt lat="42.9339" lon="0.37877">
        <ele>744</ele>
        <time>2020-08-02T13:24:03Z</time>
      </trkpt>
      <trkpt lat="42.9338" lon="0.37874">
        <ele>745</ele>
        <time>2020-08-02T13:24:12Z</time>
      </trkpt>
      <trkpt lat="42.93371" lon="0.37876">
        <ele>742</ele>
        <time>2020-08-02T13:24:18Z</time>
      </trkpt>
      <trkpt lat="42.93363" lon="0.37883">
        <ele>744</ele>
        <time>2020-08-02T13:24:24Z</time>
      </trkpt>
      <trkpt lat="42.93356" lon="0.37894">
        <ele>742</ele>
        <time>2020-08-02T13:24:30Z</time>
      </trkpt>
      <trkpt lat="42.93349" lon="0.37901">
        <ele>737</ele>
        <time>2020-08-02T13:24:40Z</time>
      </trkpt>
      <trkpt lat="42.93352" lon="0.37886">
        <ele>737</ele>
        <time>2020-08-02T13:25:00Z</time>
      </trkpt>
      <trkpt lat="42.93364" lon="0.37887">
        <ele>741</ele>
        <time>2020-08-02T13:25:28Z</time>
      </trkpt>
      <trkpt lat="42.93372" lon="0.37897">
        <ele>742</ele>
        <time>2020-08-02T13:25:58Z</time>
      </trkpt>
      <trkpt lat="42.93366" lon="0.37886">
        <ele>743</ele>
        <time>2020-08-02T13:26:38Z</time>
      </trkpt>
      <trkpt lat="42.93374" lon="0.37899">
        <ele>734</ele>
        <time>2020-08-02T13:31:19Z</time>
      </trkpt>
      <trkpt lat="42.93384" lon="0.37896">
        <ele>727</ele>
        <time>2020-08-02T13:31:28Z</time>
      </trkpt>
      <trkpt lat="42.93394" lon="0.37892">
        <ele>728</ele>
        <time>2020-08-02T13:31:32Z</time>
      </trkpt>
      <trkpt lat="42.93405" lon="0.37889">
        <ele>727</ele>
        <time>2020-08-02T13:31:37Z</time>
      </trkpt>
      <trkpt lat="42.93415" lon="0.37886">
        <ele>728</ele>
        <time>2020-08-02T13:31:41Z</time>
      </trkpt>
      <trkpt lat="42.93425" lon="0.37882">
        <ele>730</ele>
        <time>2020-08-02T13:31:45Z</time>
      </trkpt>
      <trkpt lat="42.93436" lon="0.37878">
        <ele>725</ele>
        <time>2020-08-02T13:31:50Z</time>
      </trkpt>
      <trkpt lat="42.93448" lon="0.37872">
        <ele>723</ele>
        <time>2020-08-02T13:31:55Z</time>
      </trkpt>
      <trkpt lat="42.93457" lon="0.37866">
        <ele>722</ele>
        <time>2020-08-02T13:32:01Z</time>
      </trkpt>
      <trkpt lat="42.93466" lon="0.3786">
        <ele>720</ele>
        <time>2020-08-02T13:32:08Z</time>
      </trkpt>
      <trkpt lat="42.93475" lon="0.37856">
        <ele>720</ele>
        <time>2020-08-02T13:32:14Z</time>
      </trkpt>
      <trkpt lat="42.93483" lon="0.37851">
        <ele>718</ele>
        <time>2020-08-02T13:32:22Z</time>
      </trkpt>
      <trkpt lat="42.9349" lon="0.37843">
        <ele>715</ele>
        <time>2020-08-02T13:32:29Z</time>
      </trkpt>
      <trkpt lat="42.93496" lon="0.37832">
        <ele>716</ele>
        <time>2020-08-02T13:32:36Z</time>
      </trkpt>
      <trkpt lat="42.93497" lon="0.3782">
        <ele>719</ele>
        <time>2020-08-02T13:33:01Z</time>
      </trkpt>
      <trkpt lat="42.93501" lon="0.37809">
        <ele>716</ele>
        <time>2020-08-02T13:33:15Z</time>
      </trkpt>
      <trkpt lat="42.93505" lon="0.37797">
        <ele>719</ele>
        <time>2020-08-02T13:33:23Z</time>
      </trkpt>
      <trkpt lat="42.93513" lon="0.37788">
        <ele>718</ele>
        <time>2020-08-02T13:33:30Z</time>
      </trkpt>
      <trkpt lat="42.9352" lon="0.3778">
        <ele>718</ele>
        <time>2020-08-02T13:33:38Z</time>
      </trkpt>
      <trkpt lat="42.93528" lon="0.37772">
        <ele>718</ele>
        <time>2020-08-02T13:33:43Z</time>
      </trkpt>
      <trkpt lat="42.93536" lon="0.37762">
        <ele>717</ele>
        <time>2020-08-02T13:33:49Z</time>
      </trkpt>
      <trkpt lat="42.93541" lon="0.37751">
        <ele>716</ele>
        <time>2020-08-02T13:33:56Z</time>
      </trkpt>
      <trkpt lat="42.93546" lon="0.37738">
        <ele>717</ele>
        <time>2020-08-02T13:34:03Z</time>
      </trkpt>
      <trkpt lat="42.93552" lon="0.37726">
        <ele>714</ele>
        <time>2020-08-02T13:34:09Z</time>
      </trkpt>
      <trkpt lat="42.93561" lon="0.37718">
        <ele>713</ele>
        <time>2020-08-02T13:34:16Z</time>
      </trkpt>
      <trkpt lat="42.93569" lon="0.37709">
        <ele>717</ele>
        <time>2020-08-02T13:34:22Z</time>
      </trkpt>
      <trkpt lat="42.93575" lon="0.37699">
        <ele>716</ele>
        <time>2020-08-02T13:34:28Z</time>
      </trkpt>
      <trkpt lat="42.93583" lon="0.3769">
        <ele>714</ele>
        <time>2020-08-02T13:34:34Z</time>
      </trkpt>
      <trkpt lat="42.93592" lon="0.37683">
        <ele>711</ele>
        <time>2020-08-02T13:34:41Z</time>
      </trkpt>
      <trkpt lat="42.93601" lon="0.37676">
        <ele>709</ele>
        <time>2020-08-02T13:34:47Z</time>
      </trkpt>
      <trkpt lat="42.9361" lon="0.3767">
        <ele>709</ele>
        <time>2020-08-02T13:34:56Z</time>
      </trkpt>
      <trkpt lat="42.9362" lon="0.37666">
        <ele>715</ele>
        <time>2020-08-02T13:35:04Z</time>
      </trkpt>
      <trkpt lat="42.9363" lon="0.37664">
        <ele>713</ele>
        <time>2020-08-02T13:35:11Z</time>
      </trkpt>
      <trkpt lat="42.93639" lon="0.37659">
        <ele>714</ele>
        <time>2020-08-02T13:35:19Z</time>
      </trkpt>
      <trkpt lat="42.93648" lon="0.37651">
        <ele>708</ele>
        <time>2020-08-02T13:35:27Z</time>
      </trkpt>
      <trkpt lat="42.93656" lon="0.37642">
        <ele>715</ele>
        <time>2020-08-02T13:35:35Z</time>
      </trkpt>
      <trkpt lat="42.93664" lon="0.37634">
        <ele>715</ele>
        <time>2020-08-02T13:35:41Z</time>
      </trkpt>
      <trkpt lat="42.93672" lon="0.37626">
        <ele>711</ele>
        <time>2020-08-02T13:35:49Z</time>
      </trkpt>
      <trkpt lat="42.93679" lon="0.37615">
        <ele>711</ele>
        <time>2020-08-02T13:35:57Z</time>
      </trkpt>
      <trkpt lat="42.93686" lon="0.37605">
        <ele>708</ele>
        <time>2020-08-02T13:36:04Z</time>
      </trkpt>
      <trkpt lat="42.93695" lon="0.37598">
        <ele>709</ele>
        <time>2020-08-02T13:36:12Z</time>
      </trkpt>
      <trkpt lat="42.93704" lon="0.37595">
        <ele>706</ele>
        <time>2020-08-02T13:36:19Z</time>
      </trkpt>
      <trkpt lat="42.93712" lon="0.37589">
        <ele>705</ele>
        <time>2020-08-02T13:36:26Z</time>
      </trkpt>
      <trkpt lat="42.93722" lon="0.37582">
        <ele>710</ele>
        <time>2020-08-02T13:36:35Z</time>
      </trkpt>
      <trkpt lat="42.93729" lon="0.37572">
        <ele>703</ele>
        <time>2020-08-02T13:36:43Z</time>
      </trkpt>
      <trkpt lat="42.93734" lon="0.37561">
        <ele>702</ele>
        <time>2020-08-02T13:36:52Z</time>
      </trkpt>
      <trkpt lat="42.93738" lon="0.37547">
        <ele>702</ele>
        <time>2020-08-02T13:36:58Z</time>
      </trkpt>
      <trkpt lat="42.93744" lon="0.37535">
        <ele>706</ele>
        <time>2020-08-02T13:37:04Z</time>
      </trkpt>
      <trkpt lat="42.9375" lon="0.37526">
        <ele>707</ele>
        <time>2020-08-02T13:37:11Z</time>
      </trkpt>
      <trkpt lat="42.93758" lon="0.37515">
        <ele>708</ele>
        <time>2020-08-02T13:37:19Z</time>
      </trkpt>
      <trkpt lat="42.93764" lon="0.37507">
        <ele>710</ele>
        <time>2020-08-02T13:37:25Z</time>
      </trkpt>
      <trkpt lat="42.93767" lon="0.37494">
        <ele>708</ele>
        <time>2020-08-02T13:37:34Z</time>
      </trkpt>
      <trkpt lat="42.93771" lon="0.37482">
        <ele>710</ele>
        <time>2020-08-02T13:37:43Z</time>
      </trkpt>
      <trkpt lat="42.93779" lon="0.37474">
        <ele>714</ele>
        <time>2020-08-02T13:37:50Z</time>
      </trkpt>
      <trkpt lat="42.93787" lon="0.37468">
        <ele>712</ele>
        <time>2020-08-02T13:37:56Z</time>
      </trkpt>
      <trkpt lat="42.93796" lon="0.37462">
        <ele>711</ele>
        <time>2020-08-02T13:38:03Z</time>
      </trkpt>
      <trkpt lat="42.93806" lon="0.37459">
        <ele>709</ele>
        <time>2020-08-02T13:38:12Z</time>
      </trkpt>
      <trkpt lat="42.93816" lon="0.37457">
        <ele>706</ele>
        <time>2020-08-02T13:38:21Z</time>
      </trkpt>
      <trkpt lat="42.93825" lon="0.37453">
        <ele>691</ele>
        <time>2020-08-02T13:38:30Z</time>
      </trkpt>
      <trkpt lat="42.93833" lon="0.37447">
        <ele>688</ele>
        <time>2020-08-02T13:38:39Z</time>
      </trkpt>
      <trkpt lat="42.93843" lon="0.37445">
        <ele>683</ele>
        <time>2020-08-02T13:38:48Z</time>
      </trkpt>
      <trkpt lat="42.93852" lon="0.3744">
        <ele>685</ele>
        <time>2020-08-02T13:38:55Z</time>
      </trkpt>
      <trkpt lat="42.93861" lon="0.37433">
        <ele>682</ele>
        <time>2020-08-02T13:39:02Z</time>
      </trkpt>
      <trkpt lat="42.93869" lon="0.37425">
        <ele>680</ele>
        <time>2020-08-02T13:39:11Z</time>
      </trkpt>
      <trkpt lat="42.93873" lon="0.37414">
        <ele>681</ele>
        <time>2020-08-02T13:39:17Z</time>
      </trkpt>
      <trkpt lat="42.93877" lon="0.37401">
        <ele>675</ele>
        <time>2020-08-02T13:39:26Z</time>
      </trkpt>
      <trkpt lat="42.9388" lon="0.37389">
        <ele>679</ele>
        <time>2020-08-02T13:39:32Z</time>
      </trkpt>
      <trkpt lat="42.93891" lon="0.37379">
        <ele>672</ele>
        <time>2020-08-02T13:40:17Z</time>
      </trkpt>
      <trkpt lat="42.93896" lon="0.37368">
        <ele>666</ele>
        <time>2020-08-02T13:40:24Z</time>
      </trkpt>
      <trkpt lat="42.939" lon="0.37354">
        <ele>667</ele>
        <time>2020-08-02T13:40:31Z</time>
      </trkpt>
      <trkpt lat="42.93903" lon="0.3734">
        <ele>668</ele>
        <time>2020-08-02T13:40:37Z</time>
      </trkpt>
      <trkpt lat="42.93907" lon="0.37327">
        <ele>670</ele>
        <time>2020-08-02T13:40:44Z</time>
      </trkpt>
      <trkpt lat="42.9391" lon="0.37314">
        <ele>672</ele>
        <time>2020-08-02T13:40:51Z</time>
      </trkpt>
      <trkpt lat="42.93913" lon="0.37301">
        <ele>676</ele>
        <time>2020-08-02T13:40:59Z</time>
      </trkpt>
      <trkpt lat="42.93919" lon="0.37291">
        <ele>674</ele>
        <time>2020-08-02T13:41:06Z</time>
      </trkpt>
      <trkpt lat="42.93927" lon="0.37283">
        <ele>672</ele>
        <time>2020-08-02T13:41:13Z</time>
      </trkpt>
      <trkpt lat="42.93936" lon="0.37276">
        <ele>668</ele>
        <time>2020-08-02T13:41:21Z</time>
      </trkpt>
      <trkpt lat="42.93945" lon="0.37273">
        <ele>673</ele>
        <time>2020-08-02T13:41:28Z</time>
      </trkpt>
      <trkpt lat="42.93954" lon="0.37273">
        <ele>672</ele>
        <time>2020-08-02T13:41:36Z</time>
      </trkpt>
      <trkpt lat="42.93964" lon="0.3727">
        <ele>667</ele>
        <time>2020-08-02T13:41:44Z</time>
      </trkpt>
      <trkpt lat="42.93972" lon="0.37261">
        <ele>667</ele>
        <time>2020-08-02T13:41:51Z</time>
      </trkpt>
      <trkpt lat="42.93975" lon="0.37248">
        <ele>663</ele>
        <time>2020-08-02T13:42:00Z</time>
      </trkpt>
      <trkpt lat="42.93982" lon="0.37239">
        <ele>664</ele>
        <time>2020-08-02T13:42:09Z</time>
      </trkpt>
      <trkpt lat="42.93991" lon="0.37237">
        <ele>662</ele>
        <time>2020-08-02T13:42:19Z</time>
      </trkpt>
      <trkpt lat="42.94002" lon="0.37239">
        <ele>663</ele>
        <time>2020-08-02T13:42:26Z</time>
      </trkpt>
      <trkpt lat="42.94011" lon="0.37241">
        <ele>661</ele>
        <time>2020-08-02T13:42:33Z</time>
      </trkpt>
      <trkpt lat="42.94022" lon="0.37244">
        <ele>661</ele>
        <time>2020-08-02T13:42:40Z</time>
      </trkpt>
      <trkpt lat="42.94031" lon="0.3725">
        <ele>662</ele>
        <time>2020-08-02T13:42:48Z</time>
      </trkpt>
      <trkpt lat="42.94041" lon="0.37254">
        <ele>663</ele>
        <time>2020-08-02T13:42:59Z</time>
      </trkpt>
      <trkpt lat="42.9405" lon="0.37258">
        <ele>661</ele>
        <time>2020-08-02T13:43:10Z</time>
      </trkpt>
      <trkpt lat="42.94059" lon="0.37258">
        <ele>662</ele>
        <time>2020-08-02T13:43:18Z</time>
      </trkpt>
      <trkpt lat="42.9407" lon="0.37258">
        <ele>657</ele>
        <time>2020-08-02T13:43:28Z</time>
      </trkpt>
      <trkpt lat="42.94081" lon="0.37251">
        <ele>655</ele>
        <time>2020-08-02T13:43:58Z</time>
      </trkpt>
      <trkpt lat="42.94081" lon="0.37238">
        <ele>656</ele>
        <time>2020-08-02T13:44:17Z</time>
      </trkpt>
      <trkpt lat="42.94076" lon="0.37226">
        <ele>654</ele>
        <time>2020-08-02T13:44:27Z</time>
      </trkpt>
      <trkpt lat="42.94068" lon="0.37217">
        <ele>653</ele>
        <time>2020-08-02T13:47:24Z</time>
      </trkpt>
      <trkpt lat="42.94071" lon="0.3723">
        <ele>654</ele>
        <time>2020-08-02T13:48:53Z</time>
      </trkpt>
      <trkpt lat="42.94081" lon="0.37237">
        <ele>654</ele>
        <time>2020-08-02T13:48:59Z</time>
      </trkpt>
      <trkpt lat="42.94088" lon="0.37245">
        <ele>653</ele>
        <time>2020-08-02T13:49:23Z</time>
      </trkpt>
      <trkpt lat="42.94097" lon="0.37247">
        <ele>653</ele>
        <time>2020-08-02T13:49:36Z</time>
      </trkpt>
      <trkpt lat="42.94105" lon="0.37255">
        <ele>648</ele>
        <time>2020-08-02T13:49:45Z</time>
      </trkpt>
      <trkpt lat="42.94099" lon="0.37264">
        <ele>650</ele>
        <time>2020-08-02T13:49:57Z</time>
      </trkpt>
      <trkpt lat="42.94093" lon="0.3728">
        <ele>650</ele>
        <time>2020-08-02T13:50:34Z</time>
      </trkpt>
      <trkpt lat="42.94094" lon="0.37295">
        <ele>649</ele>
        <time>2020-08-02T13:50:43Z</time>
      </trkpt>
      <trkpt lat="42.94102" lon="0.37305">
        <ele>656</ele>
        <time>2020-08-02T13:50:50Z</time>
      </trkpt>
      <trkpt lat="42.94109" lon="0.37314">
        <ele>657</ele>
        <time>2020-08-02T13:50:55Z</time>
      </trkpt>
      <trkpt lat="42.94116" lon="0.37324">
        <ele>659</ele>
        <time>2020-08-02T13:51:02Z</time>
      </trkpt>
      <trkpt lat="42.94121" lon="0.37336">
        <ele>661</ele>
        <time>2020-08-02T13:51:11Z</time>
      </trkpt>
      <trkpt lat="42.94126" lon="0.37347">
        <ele>660</ele>
        <time>2020-08-02T13:51:19Z</time>
      </trkpt>
      <trkpt lat="42.9413" lon="0.37361">
        <ele>663</ele>
        <time>2020-08-02T13:51:28Z</time>
      </trkpt>
      <trkpt lat="42.94136" lon="0.37372">
        <ele>662</ele>
        <time>2020-08-02T13:51:36Z</time>
      </trkpt>
      <trkpt lat="42.94144" lon="0.37382">
        <ele>664</ele>
        <time>2020-08-02T13:51:44Z</time>
      </trkpt>
      <trkpt lat="42.94151" lon="0.37389">
        <ele>663</ele>
        <time>2020-08-02T13:51:51Z</time>
      </trkpt>
      <trkpt lat="42.94161" lon="0.37395">
        <ele>657</ele>
        <time>2020-08-02T13:51:59Z</time>
      </trkpt>
      <trkpt lat="42.9417" lon="0.37401">
        <ele>656</ele>
        <time>2020-08-02T13:52:06Z</time>
      </trkpt>
      <trkpt lat="42.94178" lon="0.37408">
        <ele>656</ele>
        <time>2020-08-02T13:52:13Z</time>
      </trkpt>
      <trkpt lat="42.94185" lon="0.37419">
        <ele>660</ele>
        <time>2020-08-02T13:52:23Z</time>
      </trkpt>
      <trkpt lat="42.94189" lon="0.37431">
        <ele>657</ele>
        <time>2020-08-02T13:52:32Z</time>
      </trkpt>
      <trkpt lat="42.94195" lon="0.37441">
        <ele>656</ele>
        <time>2020-08-02T13:52:40Z</time>
      </trkpt>
      <trkpt lat="42.94202" lon="0.37451">
        <ele>652</ele>
        <time>2020-08-02T13:52:49Z</time>
      </trkpt>
      <trkpt lat="42.94213" lon="0.37454">
        <ele>651</ele>
        <time>2020-08-02T13:52:58Z</time>
      </trkpt>
      <trkpt lat="42.94222" lon="0.37456">
        <ele>652</ele>
        <time>2020-08-02T13:53:05Z</time>
      </trkpt>
      <trkpt lat="42.94232" lon="0.3746">
        <ele>651</ele>
        <time>2020-08-02T13:53:12Z</time>
      </trkpt>
      <trkpt lat="42.94242" lon="0.37463">
        <ele>647</ele>
        <time>2020-08-02T13:53:19Z</time>
      </trkpt>
      <trkpt lat="42.94251" lon="0.37469">
        <ele>653</ele>
        <time>2020-08-02T13:53:28Z</time>
      </trkpt>
      <trkpt lat="42.94259" lon="0.37475">
        <ele>652</ele>
        <time>2020-08-02T13:53:35Z</time>
      </trkpt>
      <trkpt lat="42.94269" lon="0.37479">
        <ele>649</ele>
        <time>2020-08-02T13:53:42Z</time>
      </trkpt>
      <trkpt lat="42.9428" lon="0.37481">
        <ele>648</ele>
        <time>2020-08-02T13:53:49Z</time>
      </trkpt>
      <trkpt lat="42.9429" lon="0.37483">
        <ele>651</ele>
        <time>2020-08-02T13:53:57Z</time>
      </trkpt>
      <trkpt lat="42.94299" lon="0.37487">
        <ele>653</ele>
        <time>2020-08-02T13:54:04Z</time>
      </trkpt>
      <trkpt lat="42.94308" lon="0.37494">
        <ele>653</ele>
        <time>2020-08-02T13:54:11Z</time>
      </trkpt>
      <trkpt lat="42.94317" lon="0.37498">
        <ele>652</ele>
        <time>2020-08-02T13:54:19Z</time>
      </trkpt>
      <trkpt lat="42.94326" lon="0.37501">
        <ele>650</ele>
        <time>2020-08-02T13:54:27Z</time>
      </trkpt>
      <trkpt lat="42.94335" lon="0.37497">
        <ele>649</ele>
        <time>2020-08-02T13:54:35Z</time>
      </trkpt>
      <trkpt lat="42.94345" lon="0.37495">
        <ele>650</ele>
        <time>2020-08-02T13:54:44Z</time>
      </trkpt>
      <trkpt lat="42.94355" lon="0.37496">
        <ele>652</ele>
        <time>2020-08-02T13:54:51Z</time>
      </trkpt>
      <trkpt lat="42.94365" lon="0.37496">
        <ele>647</ele>
        <time>2020-08-02T13:54:58Z</time>
      </trkpt>
      <trkpt lat="42.94375" lon="0.37492">
        <ele>651</ele>
        <time>2020-08-02T13:55:05Z</time>
      </trkpt>
      <trkpt lat="42.94385" lon="0.3749">
        <ele>653</ele>
        <time>2020-08-02T13:55:13Z</time>
      </trkpt>
      <trkpt lat="42.94394" lon="0.37491">
        <ele>648</ele>
        <time>2020-08-02T13:55:21Z</time>
      </trkpt>
      <trkpt lat="42.94404" lon="0.3749">
        <ele>650</ele>
        <time>2020-08-02T13:55:29Z</time>
      </trkpt>
      <trkpt lat="42.94413" lon="0.37491">
        <ele>645</ele>
        <time>2020-08-02T13:55:37Z</time>
      </trkpt>
      <trkpt lat="42.94423" lon="0.37492">
        <ele>650</ele>
        <time>2020-08-02T13:55:44Z</time>
      </trkpt>
      <trkpt lat="42.94433" lon="0.37494">
        <ele>649</ele>
        <time>2020-08-02T13:55:52Z</time>
      </trkpt>
      <trkpt lat="42.94442" lon="0.37493">
        <ele>647</ele>
        <time>2020-08-02T13:56:00Z</time>
      </trkpt>
      <trkpt lat="42.94453" lon="0.37489">
        <ele>647</ele>
        <time>2020-08-02T13:56:08Z</time>
      </trkpt>
      <trkpt lat="42.94462" lon="0.37485">
        <ele>649</ele>
        <time>2020-08-02T13:56:17Z</time>
      </trkpt>
      <trkpt lat="42.94471" lon="0.37483">
        <ele>645</ele>
        <time>2020-08-02T13:56:25Z</time>
      </trkpt>
      <trkpt lat="42.94481" lon="0.37476">
        <ele>643</ele>
        <time>2020-08-02T13:56:31Z</time>
      </trkpt>
      <trkpt lat="42.94489" lon="0.37468">
        <ele>644</ele>
        <time>2020-08-02T13:56:38Z</time>
      </trkpt>
      <trkpt lat="42.94498" lon="0.37461">
        <ele>648</ele>
        <time>2020-08-02T13:56:47Z</time>
      </trkpt>
      <trkpt lat="42.94507" lon="0.37459">
        <ele>649</ele>
        <time>2020-08-02T13:56:56Z</time>
      </trkpt>
    </trkseg>
  </trk>
</gpx>